Provisional Data: Kishacoquillas Creek near Belleville, PA


Please select a monitoring station.
Please select start date.
Please select start date.

Toggle Unit: C/F Toggle Unit: C/F
Sample Time Temperature (C) Temperature (F) Specific Conductivity (mS/cm) pH   Turbidity (NTU+) DO (mg/L)
8/1/2022 12:00:00 AM 19.4 66.92 0.417 8.39 4.75 6.86
8/1/2022 12:15:00 AM 19.38 66.884 0.418 8.39 4.37 6.81
8/1/2022 12:30:00 AM 19.36 66.848 0.418 8.39 3.89 6.82
8/1/2022 12:45:00 AM 19.33 66.794 0.418 8.38 4.11 6.84
8/1/2022 1:00:00 AM 19.31 66.758 0.419 8.39 4.78 6.8
8/1/2022 1:15:00 AM 19.28 66.704 0.419 8.38 4.38 6.76
8/1/2022 1:30:00 AM 19.26 66.668 0.419 8.38 4.26 6.72
8/1/2022 1:45:00 AM 19.23 66.614 0.419 8.38 3.9 6.68
8/1/2022 2:00:00 AM 19.2 66.56 0.419 8.38 4.71 6.66
8/1/2022 2:15:00 AM 19.16 66.488 0.419 8.37 4.25 6.63
8/1/2022 2:30:00 AM 19.13 66.434 0.419 8.37 4.4 6.63
8/1/2022 2:45:00 AM 19.11 66.398 0.419 8.36 5.09 6.58
8/1/2022 3:00:00 AM 19.07 66.326 0.419 8.36 3.89 6.6
8/1/2022 3:15:00 AM 19.05 66.29 0.419 8.37 3.99 6.58
8/1/2022 3:30:00 AM 19.02 66.236 0.418 8.35 4.21 6.58
8/1/2022 3:45:00 AM 18.99 66.182 0.417 8.36 4.91 6.55
8/1/2022 4:00:00 AM 18.97 66.146 0.416 8.35 4.02 6.52
8/1/2022 4:15:00 AM 18.94 66.092 0.414 8.35 3.83 6.5
8/1/2022 4:30:00 AM 18.92 66.056 0.414 8.34 5.56 6.5
8/1/2022 4:45:00 AM 18.9 66.02 0.413 8.33 4.19 6.48
8/1/2022 5:00:00 AM 18.88 65.984 0.412 8.33 5.74 6.44
8/1/2022 5:15:00 AM 18.86 65.948 0.411 8.32 4.4 6.41
8/1/2022 5:30:00 AM 18.83 65.894 0.41 8.32 4.56 6.4
8/1/2022 5:45:00 AM 18.81 65.858 0.409 8.31 4.11 6.39
8/1/2022 6:00:00 AM 18.79 65.82201 0.408 8.31 4.29 6.39
8/1/2022 6:15:00 AM 18.78 65.804 0.407 8.31 4.07 6.38
8/1/2022 6:30:00 AM 18.75 65.75 0.407 8.3 3.77 6.32
8/1/2022 6:45:00 AM 18.74 65.732 0.406 8.3 4.69 6.36
8/1/2022 7:00:00 AM 18.72 65.696 0.406 8.29 4.29 6.39
8/1/2022 7:15:00 AM 18.72 65.696 0.406 8.29 4.17 6.3
8/1/2022 7:30:00 AM 18.71 65.67799 0.405 8.28 5.2 6.37
8/1/2022 7:45:00 AM 18.7 65.66 0.405 8.28 4.29 6.42
8/1/2022 8:00:00 AM 18.71 65.67799 0.405 8.28 3.51 6.56
8/1/2022 8:15:00 AM 18.72 65.696 0.404 8.28 4.1 6.7
8/1/2022 8:30:00 AM 18.73 65.714 0.402 8.29 3.63 6.87
8/1/2022 8:45:00 AM 18.75 65.75 0.403 8.3 4.03 6.97
8/1/2022 9:00:00 AM 18.77 65.786 0.401 8.3 4 7.19
8/1/2022 9:15:00 AM 18.82 65.876 0.398 8.31 3.89 7.45
8/1/2022 9:30:00 AM 18.87 65.966 0.398 8.31 3.73 7.7
8/1/2022 9:45:00 AM 18.92 66.056 0.4 8.33 3.97 7.96
8/1/2022 10:00:00 AM 18.96 66.128 0.4 8.35 3.55 8.18
8/1/2022 10:15:00 AM 19.01 66.218 0.396 8.36 4.01 8.49
8/1/2022 10:30:00 AM 19.03 66.254 0.401 8.38 3.72 8.67
8/1/2022 10:45:00 AM 19.07 66.326 0.401 8.39 3.94 8.87
8/1/2022 11:00:00 AM 19.13 66.434 0.401 8.41 4.1 9.13
8/1/2022 11:15:00 AM 19.2 66.56 0.4 8.42 3.49 9.41
8/1/2022 11:30:00 AM 19.26 66.668 0.4 8.43 3.95 9.57
8/1/2022 11:45:00 AM 19.34 66.812 0.398 8.45 4.32 9.84
8/1/2022 12:00:00 PM 19.52 67.136 0.398 8.47 5.55 10.11
8/1/2022 12:15:00 PM 19.72 67.496 0.398 8.49 4.23 10.45
8/1/2022 12:30:00 PM 19.87 67.766 0.397 8.51 3.77 10.82
8/1/2022 12:45:00 PM 20.16 68.288 0.396 8.55 5.61 11.08
8/1/2022 1:00:00 PM 20.44 68.792 0.395 8.58 3.58 11.44
8/1/2022 1:15:00 PM 20.64 69.152 0.395 8.61 3.45 11.63
8/1/2022 1:30:00 PM 20.95 69.71 0.394 8.64 3.42 11.9
8/1/2022 1:45:00 PM 21.28 70.304 0.394 8.69 3.9 12.1
8/1/2022 2:00:00 PM 21.51 70.718 0.393 8.71 3 12.18
8/1/2022 2:15:00 PM 21.71 71.078 0.386 8.73 4.02 12.2
8/1/2022 2:30:00 PM 21.84 71.312 0.386 8.74 3.98 12.26
8/1/2022 2:45:00 PM 22.04 71.672 0.392 8.76 3.35 12.23
8/1/2022 3:00:00 PM 22.21 71.978 0.392 8.78 4.86 12.29
8/1/2022 3:15:00 PM 22.38 72.284 0.392 8.79 3.38 12.34
8/1/2022 3:30:00 PM 22.35 72.23 0.392 8.79 3.69 12.17
8/1/2022 3:45:00 PM 22.33 72.194 0.392 8.79 3.68 12.07
8/1/2022 4:00:00 PM 22.32 72.176 0.393 8.79 3.08 11.96
8/1/2022 4:15:00 PM 22.36 72.248 0.394 8.78 5.06 11.9
8/1/2022 4:30:00 PM 22.46 72.42799 0.394 8.78 3.5 11.81
8/1/2022 4:45:00 PM 22.53 72.554 0.394 8.77 3.37 11.74
8/1/2022 5:00:00 PM 22.58 72.644 0.393 8.77 3.64 11.67
8/1/2022 5:15:00 PM 22.55 72.59 0.395 8.76 3.16 11.58
8/1/2022 5:30:00 PM 22.52 72.536 0.396 8.76 3.73 11.5
8/1/2022 5:45:00 PM 22.52 72.536 0.396 8.76 4.06 11.35
8/1/2022 6:00:00 PM 22.47 72.446 0.396 8.75 3.27 11.13
8/1/2022 6:15:00 PM 22.34 72.212 0.397 8.72 3.93 10.81
8/1/2022 6:30:00 PM 22.23 72.014 0.398 8.71 3.11 10.49
8/1/2022 6:45:00 PM 22.15 71.87 0.399 8.7 4.65 10.09
8/1/2022 7:00:00 PM 22.08 71.744 0.4 8.68 5.67 9.78
8/1/2022 7:15:00 PM 22 71.6 0.398 8.68 9.47 9.47
8/1/2022 7:30:00 PM 21.94 71.492 0.393 8.65 8.21 9.24
8/1/2022 7:45:00 PM 21.87 71.366 0.397 8.65 7.83 8.93
8/1/2022 8:00:00 PM 21.79 71.222 0.403 8.63 6.94 8.72
8/1/2022 8:15:00 PM 21.72 71.096 0.404 8.62 9.2 8.42
8/1/2022 8:30:00 PM 21.64 70.952 0.406 8.59 6.87 8.16
8/1/2022 8:45:00 PM 21.57 70.826 0.407 8.57 6.85 7.95
8/1/2022 9:00:00 PM 21.49 70.682 0.407 8.57 28.37 7.87
8/1/2022 9:15:00 PM 21.43 70.574 0.408 8.55 6.25 7.68
8/1/2022 9:30:00 PM 21.36 70.448 0.408 8.54 3.79 7.54
8/1/2022 9:45:00 PM 21.3 70.34 0.409 8.53 2.99 7.32
8/1/2022 10:00:00 PM 21.24 70.232 0.409 8.51 3.53 7.15
8/1/2022 10:15:00 PM 21.19 70.142 0.408 8.5 3.52 7.08
8/1/2022 10:30:00 PM 21.13 70.034 0.41 8.5 4.22 7.05
8/1/2022 10:45:00 PM 21.09 69.962 0.41 8.5 3.53 6.93
8/1/2022 11:00:00 PM 21.05 69.89 0.411 8.49 4.06 6.84
8/1/2022 11:15:00 PM 21.01 69.818 0.411 8.48 4.17 6.73
8/1/2022 11:30:00 PM 20.96 69.728 0.411 8.47 3.91 6.61
8/1/2022 11:45:00 PM 20.91 69.638 0.411 8.46 4.02 6.66
8/2/2022 12:00:00 AM 20.86 69.548 0.411 8.45 13.13 6.55
8/2/2022 12:15:00 AM 20.81 69.458 0.412 8.44 4.32 6.53
8/2/2022 12:30:00 AM 20.76 69.368 0.412 8.44 3.89 6.48
8/2/2022 12:45:00 AM 20.72 69.296 0.412 8.44 3.68 6.41
8/2/2022 1:00:00 AM 20.67 69.206 0.412 8.43 4.05 6.37
8/2/2022 1:15:00 AM 20.62 69.116 0.412 8.42 3.5 6.29
8/2/2022 1:30:00 AM 20.58 69.044 0.412 8.41 4.01 6.31
8/2/2022 1:45:00 AM 20.53 68.954 0.413 8.41 3.65 6.27
8/2/2022 2:00:00 AM 20.49 68.882 0.412 8.4 4.79 6.32
8/2/2022 2:15:00 AM 20.46 68.828 0.413 8.4 3.96 6.27
8/2/2022 2:30:00 AM 20.42 68.756 0.413 8.4 4.95 6.21
8/2/2022 2:45:00 AM 20.39 68.702 0.412 8.39 4.44 6.28
8/2/2022 3:00:00 AM 20.35 68.63 0.412 8.38 4.19 6.2
8/2/2022 3:15:00 AM 20.31 68.558 0.412 8.39 4.29 6.22
8/2/2022 3:30:00 AM 20.28 68.504 0.411 8.39 4.24 6.16
8/2/2022 3:45:00 AM 20.24 68.432 0.411 8.39 3.95 6.23
8/2/2022 4:00:00 AM 20.19 68.342 0.41 8.39 5.36 6.2
8/2/2022 4:15:00 AM 20.16 68.288 0.41 8.38 4.5 6.16
8/2/2022 4:30:00 AM 20.13 68.234 0.41 8.38 4.37 6.14
8/2/2022 4:45:00 AM 20.1 68.18 0.409 8.37 3.89 6.13
8/2/2022 5:00:00 AM 20.07 68.126 0.409 8.37 4.67 6.09
8/2/2022 5:15:00 AM 20.06 68.108 0.407 8.36 4.11 6.07
8/2/2022 5:30:00 AM 20.04 68.07201 0.408 8.36 4.5 6.08
8/2/2022 5:45:00 AM 20.02 68.036 0.407 8.36 4.31 6.04
8/2/2022 6:00:00 AM 20 68 0.407 8.35 4.24 6.03
8/2/2022 6:15:00 AM 19.97 67.946 0.407 8.36 4.12 6.02
8/2/2022 6:30:00 AM 19.94 67.892 0.406 8.36 4.39 6.01
8/2/2022 6:45:00 AM 19.92 67.856 0.405 8.35 4.05 6.02
8/2/2022 7:00:00 AM 19.9 67.82 0.406 8.34 4.92 6.02
8/2/2022 7:15:00 AM 19.88 67.784 0.405 8.33 5.62 6.05
8/2/2022 7:30:00 AM 19.88 67.784 0.405 8.32 5.61 6.12
8/2/2022 7:45:00 AM 19.89 67.802 0.405 8.32 6.04 6.23
8/2/2022 8:00:00 AM 19.91 67.838 0.404 8.32 5.75 6.37
8/2/2022 8:15:00 AM 19.93 67.874 0.404 8.32 4.68 6.49
8/2/2022 8:30:00 AM 19.97 67.946 0.403 8.32 4.15 6.73
8/2/2022 8:45:00 AM 20.02 68.036 0.402 8.33 4.47 6.99
8/2/2022 9:00:00 AM 20.11 68.198 0.401 8.34 4.96 7.28
8/2/2022 9:15:00 AM 20.23 68.414 0.4 8.35 4.77 7.54
8/2/2022 9:30:00 AM 20.31 68.558 0.399 8.37 3.84 7.87
8/2/2022 9:45:00 AM 20.38 68.684 0.398 8.38 5.44 8.1
8/2/2022 10:00:00 AM 20.49 68.882 0.397 8.41 4.82 8.37
8/2/2022 10:15:00 AM 20.59 69.062 0.395 8.43 3.91 8.64
8/2/2022 10:30:00 AM 20.72 69.296 0.394 8.45 4.35 8.87
8/2/2022 10:45:00 AM 20.85 69.53 0.392 8.46 4.45 9.11
8/2/2022 11:00:00 AM 20.94 69.692 0.391 8.49 4.44 9.27
8/2/2022 11:15:00 AM 20.96 69.728 0.39 8.49 5.41 9.33
8/2/2022 11:30:00 AM 21.01 69.818 0.388 8.51 5.34 9.41
8/2/2022 11:45:00 AM 21.04 69.872 0.387 8.52 5.07 9.43
8/2/2022 12:00:00 PM 21.18 70.124 0.386 8.53 4.36 9.64
8/2/2022 12:15:00 PM 21.22 70.196 0.385 8.55 4.23 9.68
8/2/2022 12:30:00 PM 21.26 70.268 0.384 8.55 4.5 9.69
8/2/2022 12:45:00 PM 21.44 70.592 0.383 8.57 3.61 9.98
8/2/2022 1:00:00 PM 21.52 70.736 0.382 8.59 4.59 10.09
8/2/2022 1:15:00 PM 21.7 71.06 0.381 8.61 3.95 10.37
8/2/2022 1:30:00 PM 21.9 71.42 0.379 8.63 4.13 10.68
8/2/2022 1:45:00 PM 22.04 71.672 0.378 8.66 4.69 10.99
8/2/2022 2:00:00 PM 22.19 71.942 0.378 8.68 4.74 11.05
8/2/2022 2:15:00 PM 22.42 72.356 0.377 8.71 4.5 11.28
8/2/2022 2:30:00 PM 22.59 72.662 0.377 8.74 7.32 11.34
8/2/2022 2:45:00 PM 22.65 72.77 0.376 8.76 13.49 11.3
8/2/2022 3:00:00 PM 22.73 72.914 0.376 8.78 4.91 11.3
8/2/2022 3:15:00 PM 23 73.4 0.376 8.79 5.22 11.4
8/2/2022 3:30:00 PM 23.22 73.796 0.376 8.8 14.59 11.42
8/2/2022 3:45:00 PM 23.43 74.174 0.375 8.81 9.89 11.5
8/2/2022 4:00:00 PM 23.47 74.246 0.376 8.82 8.45 11.37
8/2/2022 4:15:00 PM 23.62 74.516 0.375 8.82 9.09 11.37
8/2/2022 4:30:00 PM 23.6 74.48 0.374 8.82 7.09 11.23
8/2/2022 4:45:00 PM 23.61 74.498 0.377 8.82 6.78 10.92
8/2/2022 5:00:00 PM 23.6 74.48 0.377 8.82 5.8 10.94
8/2/2022 5:15:00 PM 23.49 74.282 0.379 8.81 6.24 10.61
8/2/2022 5:30:00 PM 23.5 74.3 0.38 8.79 5.78 10.44
8/2/2022 5:45:00 PM 23.51 74.318 0.381 8.78 6.77 10.26
8/2/2022 6:00:00 PM 23.49 74.282 0.381 8.77 5.54 10.22
8/2/2022 6:15:00 PM 23.41 74.138 0.383 8.77 5.6 10
8/2/2022 6:30:00 PM 23.31 73.958 0.383 8.74 6.01 9.87
8/2/2022 6:45:00 PM 23.2 73.76 0.384 8.73 5.7 9.6
8/2/2022 7:00:00 PM 23.05 73.49 0.385 8.71 37.66 9.28
8/2/2022 7:15:00 PM 22.97 73.346 0.387 8.71 6.21 9.05
8/2/2022 7:30:00 PM 22.87 73.166 0.387 8.71 5.69 8.81
8/2/2022 7:45:00 PM 22.77 72.986 0.389 8.69 6.22 8.65
8/2/2022 8:00:00 PM 22.7 72.86 0.39 8.68 6.06 8.48
8/2/2022 8:15:00 PM 22.61 72.698 0.391 8.67 6.09 8.22
8/2/2022 8:30:00 PM 22.54 72.57201 0.393 8.66 7.64 7.9
8/2/2022 8:45:00 PM 22.45 72.41 0.394 8.65 15.27 7.7
8/2/2022 9:00:00 PM 22.37 72.266 0.396 8.64 10.57 7.53
8/2/2022 9:15:00 PM 22.28 72.104 0.397 8.64 6.77 7.36
8/2/2022 9:30:00 PM 22.21 71.978 0.398 8.63 8.59 7.13
8/2/2022 9:45:00 PM 22.14 71.852 0.399 8.62 6.85 6.92
8/2/2022 10:00:00 PM 22.06 71.708 0.401 8.61 31.02 6.88
8/2/2022 10:15:00 PM 21.98 71.564 0.402 8.61 33.99 6.69
8/2/2022 10:30:00 PM 21.9 71.42 0.403 8.6 20.09 6.57
8/2/2022 10:45:00 PM 21.82 71.276 0.394 8.61 48.72 6.53
8/2/2022 11:00:00 PM 21.74 71.132 0.406 8.6 31.52 6.4
8/2/2022 11:15:00 PM 21.65 70.97 0.407 8.6 38.16 6.32
8/2/2022 11:30:00 PM 21.56 70.808 0.407 8.6 38.33 6.24
8/2/2022 11:45:00 PM 21.47 70.646 0.409 8.6 17.5 6.24
8/3/2022 12:00:00 AM 21.37 70.466 0.41 8.59 28.79 6.22
8/3/2022 12:15:00 AM 21.28 70.304 0.409 8.59 34.79 6.23
8/3/2022 12:30:00 AM 21.19 70.142 0.411 8.59 29.75 6.12
8/3/2022 12:45:00 AM 21.09 69.962 0.411 8.58 25.65 6.15
8/3/2022 1:00:00 AM 21 69.8 0.412 8.59 26.48 6.1
8/3/2022 1:15:00 AM 20.91 69.638 0.413 8.59 32.67 6.09
8/3/2022 1:30:00 AM 20.82 69.476 0.413 8.58 35.67 6.05
8/3/2022 1:45:00 AM 20.72 69.296 0.409 8.58 10.92 6.09
8/3/2022 2:00:00 AM 20.64 69.152 0.414 8.58 8.97 6.05
8/3/2022 2:15:00 AM 20.55 68.99 0.415 8.58 7.81 6.05
8/3/2022 2:30:00 AM 20.46 68.828 0.415 8.58 7.02 6.03
8/3/2022 2:45:00 AM 20.38 68.684 0.4 8.58 6.96 6
8/3/2022 3:00:00 AM 20.3 68.54 0.415 8.58 6.78 6
8/3/2022 3:15:00 AM 20.22 68.396 0.416 8.58 8.37 5.95
8/3/2022 3:30:00 AM 20.14 68.252 0.417 8.6 6.71 6
8/3/2022 3:45:00 AM 20.06 68.108 0.418 8.6 8.87 6
8/3/2022 4:00:00 AM 19.99 67.982 0.42 8.6 8.62 5.99
8/3/2022 4:15:00 AM 19.91 67.838 0.423 8.6 10.01 6.01
8/3/2022 4:30:00 AM 19.84 67.712 0.425 8.6 7.08 6.04
8/3/2022 4:45:00 AM 19.76 67.568 0.425 8.61 7.25 6
8/3/2022 5:00:00 AM 19.69 67.442 0.425 8.61 7.61 6.01
8/3/2022 5:15:00 AM 19.62 67.316 0.425 8.62 8.23 6.02
8/3/2022 5:30:00 AM 19.54 67.172 0.423 8.62 6.26 6.03
8/3/2022 5:45:00 AM 19.46 67.028 0.422 8.62 6.89 6.03
8/3/2022 6:00:00 AM 19.38 66.884 0.421 8.62 6.31 6.03
8/3/2022 6:15:00 AM 19.29 66.722 0.42 8.62 7.31 6.04
8/3/2022 6:30:00 AM 19.22 66.596 0.419 8.63 7.39 6.02
8/3/2022 6:45:00 AM 19.15 66.47 0.417 8.63 6.14 6.11
8/3/2022 7:00:00 AM 19.08 66.344 0.417 8.63 6.69 6.14
8/3/2022 7:15:00 AM 19.03 66.254 0.416 8.62 6.06 6.15
8/3/2022 7:30:00 AM 18.98 66.164 0.415 8.6 6.44 6.22
8/3/2022 7:45:00 AM 18.95 66.11 0.414 8.59 6.41 6.31
8/3/2022 8:00:00 AM 18.93 66.074 0.414 8.58 9.56 6.42
8/3/2022 8:15:00 AM 18.92 66.056 0.413 8.56 6.65 6.53
8/3/2022 8:30:00 AM 18.93 66.074 0.413 8.51 7.06 6.68
8/3/2022 8:45:00 AM 18.96 66.128 0.412 8.5 6.69 6.91
8/3/2022 9:00:00 AM 19.01 66.218 0.411 8.47 6.45 7.07
8/3/2022 9:15:00 AM 19.07 66.326 0.411 8.44 11.66 7.28
8/3/2022 9:30:00 AM 19.15 66.47 0.41 8.43 6.23 7.49
8/3/2022 9:45:00 AM 19.24 66.632 0.409 8.41 6.53 7.72
8/3/2022 10:00:00 AM 19.34 66.812 0.409 8.42 7 7.87
8/3/2022 10:15:00 AM 19.47 67.046 0.408 8.41 6.82 8.11
8/3/2022 10:30:00 AM 19.6 67.28 0.407 8.41 7.38 8.33
8/3/2022 10:45:00 AM 19.75 67.55 0.406 8.41 7.09 8.55
8/3/2022 11:00:00 AM 19.92 67.856 0.406 8.4 7.45 8.78
8/3/2022 11:15:00 AM 20.11 68.198 0.405 8.39 6.88 9.05
8/3/2022 11:30:00 AM 20.33 68.594 0.404 8.41 8.08 9.42
8/3/2022 11:45:00 AM 20.56 69.008 0.403 8.42 8.77 9.69
8/3/2022 12:00:00 PM 20.81 69.458 0.4 8.46 7.46 10
8/3/2022 12:15:00 PM 21.1 69.98 0.401 8.48 6.87 10.36
8/3/2022 12:30:00 PM 21.35 70.43 0.4 8.52 7.38 10.58
8/3/2022 12:45:00 PM 21.69 71.042 0.399 8.55 7.15 10.91
8/3/2022 1:00:00 PM 21.99 71.582 0.398 8.57 10.08 11.1
8/3/2022 1:15:00 PM 22.29 72.122 0.397 8.61 10.62 11.29
8/3/2022 1:30:00 PM 22.6 72.68 0.396 8.64 8.73 11.46
8/3/2022 1:45:00 PM 22.88 73.184 0.393 8.68 14.53 11.66
8/3/2022 2:00:00 PM 23.16 73.688 0.394 8.71 7.53 11.85
8/3/2022 2:15:00 PM 23.43 74.174 0.393 8.75 7.43 11.96
8/3/2022 2:30:00 PM 23.69 74.642 0.393 8.77 8.95 11.97
8/3/2022 2:45:00 PM 23.93 75.074 0.391 8.8 27.23 12.12
8/3/2022 3:00:00 PM 24.13 75.434 0.39 8.81 6.55 12.15
8/3/2022 3:15:00 PM 24.32 75.776 0.39 8.82 16.92 12.06
8/3/2022 3:30:00 PM 24.5 76.1 0.39 8.83 6.06 12.05
8/3/2022 3:45:00 PM 24.62 76.316 0.39 8.82 9.23 11.98
8/3/2022 4:00:00 PM 24.72 76.496 0.389 8.83 10.34 11.85
8/3/2022 4:15:00 PM 24.79 76.622 0.388 8.86 24.21 11.87
8/3/2022 4:30:00 PM 24.84 76.712 0.389 8.86 28.9 11.74
8/3/2022 4:45:00 PM 24.83 76.694 0.389 8.85 9.54 11.56
8/3/2022 5:00:00 PM 24.82 76.676 0.376 8.85 8.82 11.53
8/3/2022 5:15:00 PM 24.78 76.604 0.389 8.85 10.06 11.33
8/3/2022 5:30:00 PM 24.71 76.478 0.389 8.84 12.37 11.12
8/3/2022 5:45:00 PM 24.64 76.352 0.386 8.83 6.57 10.85
8/3/2022 6:00:00 PM 24.53 76.154 0.394 8.82 6.84 10.63
8/3/2022 6:15:00 PM 24.46 76.028 0.395 8.8 5.84 10.3
8/3/2022 6:30:00 PM 24.34 75.812 0.395 8.78 6.04 10.16
8/3/2022 6:45:00 PM 24.21 75.578 0.397 8.76 6.09 9.82
8/3/2022 7:00:00 PM 24.11 75.398 0.398 8.76 6.73 9.48
8/3/2022 7:15:00 PM 23.96 75.128 0.398 8.75 6.17 9.13
8/3/2022 7:30:00 PM 23.85 74.93 0.4 8.71 6.25 8.79
8/3/2022 7:45:00 PM 23.75 74.75 0.4 8.7 5.65 8.61
8/3/2022 8:00:00 PM 23.66 74.588 0.401 8.68 5.74 8.3
8/3/2022 8:15:00 PM 23.58 74.444 0.4 8.66 5.98 8.02
8/3/2022 8:30:00 PM 23.5 74.3 0.401 8.65 5.99 7.81
8/3/2022 8:45:00 PM 23.41 74.138 0.402 8.65 6.84 7.53
8/3/2022 9:00:00 PM 23.32 73.976 0.403 8.64 5.93 7.29
8/3/2022 9:15:00 PM 23.23 73.814 0.404 8.63 6.29 7.07
8/3/2022 9:30:00 PM 23.15 73.67 0.405 8.62 6.15 6.93
8/3/2022 9:45:00 PM 23.05 73.49 0.406 8.61 6.02 6.8
8/3/2022 10:00:00 PM 22.97 73.346 0.407 8.6 5.85 6.61
8/3/2022 10:15:00 PM 22.89 73.202 0.408 8.6 5.85 6.44
8/3/2022 10:30:00 PM 22.81 73.058 0.409 8.58 6.27 6.3
8/3/2022 10:45:00 PM 22.73 72.914 0.41 8.57 7.89 6.29
8/3/2022 11:00:00 PM 22.66 72.788 0.41 8.56 16.76 6.18
8/3/2022 11:15:00 PM 22.58 72.644 0.412 8.55 6.98 6.15
8/3/2022 11:30:00 PM 22.52 72.536 0.413 8.55 6.45 6.05
8/3/2022 11:45:00 PM 22.44 72.392 0.413 8.55 7.29 6.04
8/4/2022 12:00:00 AM 22.37 72.266 0.415 8.54 6.66 5.94
8/4/2022 12:15:00 AM 22.3 72.14 0.401 8.53 6.42 5.88
8/4/2022 12:30:00 AM 22.22 71.996 0.401 8.53 6.24 5.88
8/4/2022 12:45:00 AM 22.16 71.888 0.4 8.52 6.16 5.78
8/4/2022 1:00:00 AM 22.09 71.762 0.408 8.52 6.21 5.73
8/4/2022 1:15:00 AM 22.01 71.618 0.412 8.52 8.67 5.8
8/4/2022 1:30:00 AM 21.95 71.51 0.419 8.52 6.14 5.68
8/4/2022 1:45:00 AM 21.87 71.366 0.42 8.51 7.09 5.72
8/4/2022 2:00:00 AM 21.8 71.24 0.421 8.51 5.63 5.68
8/4/2022 2:15:00 AM 21.74 71.132 0.421 8.51 5.68 5.61
8/4/2022 2:30:00 AM 21.67 71.006 0.422 8.51 6.2 5.61
8/4/2022 2:45:00 AM 21.6 70.88 0.422 8.5 5.86 5.56
8/4/2022 3:00:00 AM 21.54 70.772 0.422 8.51 6.8 5.6
8/4/2022 3:15:00 AM 21.48 70.664 0.423 8.5 20.89 5.57
8/4/2022 3:30:00 AM 21.42 70.556 0.42 8.5 10.13 5.56
8/4/2022 3:45:00 AM 21.36 70.448 0.423 8.5 32.86 5.56
8/4/2022 4:00:00 AM 21.3 70.34 0.424 8.5 13.13 5.55
8/4/2022 4:15:00 AM 21.24 70.232 0.424 8.51 6.55 5.56
8/4/2022 4:30:00 AM 21.18 70.124 0.424 8.51 5.88 5.57
8/4/2022 4:45:00 AM 21.12 70.016 0.423 8.5 6.27 5.53
8/4/2022 5:00:00 AM 21.06 69.908 0.423 8.49 6.02 5.55
8/4/2022 5:15:00 AM 21.01 69.818 0.423 8.48 4.61 5.56
8/4/2022 5:30:00 AM 20.95 69.71 0.423 8.48 4.79 5.57
8/4/2022 5:45:00 AM 20.89 69.602 0.423 8.48 4.71 5.63
8/4/2022 6:00:00 AM 20.84 69.512 0.423 8.48 4.76 5.59
8/4/2022 6:15:00 AM 20.79 69.422 0.422 8.48 4.61 5.56
8/4/2022 6:30:00 AM 20.73 69.314 0.422 8.47 4.15 5.59
8/4/2022 6:45:00 AM 20.69 69.242 0.421 8.46 4.57 5.62
8/4/2022 7:00:00 AM 20.65 69.17 0.415 8.44 4.91 5.65
8/4/2022 7:15:00 AM 20.62 69.116 0.421 8.44 4.32 5.72
8/4/2022 7:30:00 AM 20.6 69.08 0.42 8.42 4.66 5.76
8/4/2022 7:45:00 AM 20.59 69.062 0.419 8.41 4.66 5.89
8/4/2022 8:00:00 AM 20.58 69.044 0.419 8.4 4.79 5.97
8/4/2022 8:15:00 AM 20.59 69.062 0.419 8.4 16.28 6.11
8/4/2022 8:30:00 AM 20.62 69.116 0.407 8.4 4.37 6.26
8/4/2022 8:45:00 AM 20.65 69.17 0.417 8.4 4.07 6.43
8/4/2022 9:00:00 AM 20.72 69.296 0.412 8.4 5.14 6.68
8/4/2022 9:15:00 AM 20.79 69.422 0.414 8.4 4.43 6.9
8/4/2022 9:30:00 AM 20.88 69.584 0.415 8.4 4.47 7.12
8/4/2022 9:45:00 AM 20.97 69.746 0.405 8.42 4.18 7.26
8/4/2022 10:00:00 AM 21.09 69.962 0.413 8.44 4.05 7.57
8/4/2022 10:15:00 AM 21.22 70.196 0.413 8.44 4.68 7.77
8/4/2022 10:30:00 AM 21.35 70.43 0.404 8.46 5.33 8.03
8/4/2022 10:45:00 AM 21.52 70.736 0.411 8.47 5.22 8.22
8/4/2022 11:00:00 AM 21.69 71.042 0.409 8.49 4.27 8.55
8/4/2022 11:15:00 AM 21.86 71.348 0.407 8.5 4.72 8.79
8/4/2022 11:30:00 AM 22.07 71.726 0.403 8.52 4.13 9.09
8/4/2022 11:45:00 AM 22.32 72.176 0.398 8.54 4.46 9.41
8/4/2022 12:00:00 PM 22.59 72.662 0.398 8.57 4.5 9.83
8/4/2022 12:15:00 PM 22.87 73.166 0.397 8.6 4.15 10.07
8/4/2022 12:30:00 PM 23.12 73.616 0.397 8.63 4.49 10.31
8/4/2022 12:45:00 PM 23.35 74.03 0.399 8.67 5.14 10.55
8/4/2022 1:00:00 PM 23.65 74.57 0.403 8.7 4.48 10.81
8/4/2022 1:15:00 PM 23.95 75.11 0.402 8.72 4.53 10.96
8/4/2022 1:30:00 PM 24.17 75.506 0.385 8.76 4.9 11.14
8/4/2022 1:45:00 PM 24.31 75.758 0.385 8.78 4.8 11.18
8/4/2022 2:00:00 PM 24.48 76.064 0.394 8.8 8.63 11.26
8/4/2022 2:15:00 PM 24.47 76.046 0.399 8.83 4.9 11.11
8/4/2022 2:30:00 PM 24.15 75.47 0.39 8.92 5.03 10.55
8/4/2022 2:45:00 PM 24.65 76.37 0.394 8.88 60.47 9.17
8/4/2022 3:00:00 PM 24.23 75.614 0.402 8.8 29.65 9.02
8/4/2022 3:15:00 PM 23.95 75.11 0.402 8.76 16.24 8.67
8/4/2022 3:30:00 PM 23.7 74.66 0.398 8.72 17.06 8.27
8/4/2022 3:45:00 PM 23.47 74.246 0.394 8.7 9.72 8.06
8/4/2022 4:00:00 PM 23.23 73.814 0.389 8.67 7.84 7.93
8/4/2022 4:15:00 PM 23.05 73.49 0.389 8.67 14.12 8.24
8/4/2022 4:30:00 PM 23.09 73.562 0.388 8.67 13.45 8.35
8/4/2022 4:45:00 PM 23.13 73.634 0.388 8.68 19.97 8.38
8/4/2022 5:00:00 PM 23.14 73.652 0.387 8.68 12.34 8.45
8/4/2022 5:15:00 PM 23.12 73.616 0.386 8.68 19.11 8.46
8/4/2022 5:30:00 PM 23.09 73.562 0.384 8.68 11.57 8.11
8/4/2022 5:45:00 PM 23.06 73.508 0.384 8.66 12.76 8.05
8/4/2022 6:00:00 PM 23.01 73.418 0.385 8.66 10.5 7.94
8/4/2022 6:15:00 PM 22.94 73.292 0.383 8.66 16.27 7.84
8/4/2022 6:30:00 PM 22.89 73.202 0.381 8.66 17.37 7.67
8/4/2022 6:45:00 PM 22.83 73.094 0.375 8.65 22.54 7.55
8/4/2022 7:00:00 PM 22.78 73.004 0.373 8.65 13.81 7.38
8/4/2022 7:15:00 PM 22.73 72.914 0.371 8.64 12.78 7.23
8/4/2022 7:30:00 PM 22.69 72.842 0.366 8.62 16.09 7
8/4/2022 7:45:00 PM 22.64 72.752 0.36 8.61 31.71 6.76
8/4/2022 8:00:00 PM 22.6 72.68 0.357 8.59 35.88 6.58
8/4/2022 8:15:00 PM 22.57 72.626 0.351 8.68 21.52 6.47
8/4/2022 8:30:00 PM 22.55 72.59 0.345 8.63 24.09 6.3
8/4/2022 8:45:00 PM 22.55 72.59 0.339 8.61 27.96 6.15
8/4/2022 9:00:00 PM 22.54 72.57201 0.327 8.58 26.43 6.04
8/4/2022 9:15:00 PM 22.53 72.554 0.317 8.56 25.52 5.91
8/4/2022 9:30:00 PM 22.51 72.518 0.305 8.52 27.09 5.77
8/4/2022 9:45:00 PM 22.48 72.464 0.298 8.49 25.81 5.65
8/4/2022 10:00:00 PM 22.44 72.392 0.299 8.47 24.54 5.58
8/4/2022 10:15:00 PM 22.37 72.266 0.307 8.45 23.27 5.58
8/4/2022 10:30:00 PM 22.29 72.122 0.317 8.44 22.84 5.59
8/4/2022 10:45:00 PM 22.2 71.96 0.328 8.44 21.23 5.61
8/4/2022 11:00:00 PM 22.1 71.78 0.334 8.43 20.04 5.61
8/4/2022 11:15:00 PM 22 71.6 0.346 8.43 18.42 5.71
8/4/2022 11:30:00 PM 21.9 71.42 0.347 8.43 17.74 5.71
8/4/2022 11:45:00 PM 21.81 71.258 0.351 8.44 18.51 5.84
8/5/2022 12:00:00 AM 21.72 71.096 0.346 8.44 18.22 5.75
8/5/2022 12:15:00 AM 21.67 71.006 0.345 8.45 19.61 5.77
8/5/2022 12:30:00 AM 21.62 70.916 0.34 8.45 26.12 5.66
8/5/2022 12:45:00 AM 21.59 70.862 0.333 8.44 24.81 5.59
8/5/2022 1:00:00 AM 21.57 70.826 0.327 8.43 30.74 5.53
8/5/2022 1:15:00 AM 21.55 70.79 0.32 8.43 22.38 5.46
8/5/2022 1:30:00 AM 21.54 70.772 0.316 8.43 26.74 5.38
8/5/2022 1:45:00 AM 21.52 70.736 0.313 8.4 25.32 5.3
8/5/2022 2:00:00 AM 21.51 70.718 0.308 8.4 23.93 5.23
8/5/2022 2:15:00 AM 21.49 70.682 0.309 8.4 26.05 5.25
8/5/2022 2:30:00 AM 21.47 70.646 0.308 8.38 30.23 5.21
8/5/2022 2:45:00 AM 21.45 70.61 0.309 8.38 20.64 5.18
8/5/2022 3:00:00 AM 21.42 70.556 0.309 8.37 23.31 5.16
8/5/2022 3:15:00 AM 21.39 70.502 0.31 8.36 22.34 5.09
8/5/2022 3:30:00 AM 21.36 70.448 0.312 8.35 21.97 5.08
8/5/2022 3:45:00 AM 21.33 70.394 0.313 8.35 26 5.07
8/5/2022 4:00:00 AM 21.29 70.32201 0.314 8.35 24.18 5.06
8/5/2022 4:15:00 AM 21.25 70.25 0.316 8.35 23.64 5.05
8/5/2022 4:30:00 AM 21.2 70.16 0.316 8.34 25.85 5.05
8/5/2022 4:45:00 AM 21.15 70.07 0.317 8.34 23.93 5.04
8/5/2022 5:00:00 AM 21.1 69.98 0.319 8.34 22.67 5.04
8/5/2022 5:15:00 AM 21.05 69.89 0.32 8.33 23.18 5.06
8/5/2022 5:30:00 AM 20.99 69.782 0.32 8.33 24.3 4.99
8/5/2022 5:45:00 AM 20.94 69.692 0.321 8.33 24.2 5.04
8/5/2022 6:00:00 AM 20.88 69.584 0.323 8.32 23.11 5.03
8/5/2022 6:15:00 AM 20.83 69.494 0.317 8.32 24.6 5.06
8/5/2022 6:30:00 AM 20.77 69.386 0.325 8.32 23.44 5.06
8/5/2022 6:45:00 AM 20.72 69.296 0.327 8.32 25.45 5.08
8/5/2022 7:00:00 AM 20.67 69.206 0.328 8.32 25.67 5.13
8/5/2022 7:15:00 AM 20.63 69.134 0.33 8.31 32.21 5.2
8/5/2022 7:30:00 AM 20.6 69.08 0.332 8.31 29.05 5.26
8/5/2022 7:45:00 AM 20.57 69.026 0.333 8.31 26.11 5.3
8/5/2022 8:00:00 AM 20.56 69.008 0.327 8.31 23.32 5.37
8/5/2022 8:15:00 AM 20.54 68.972 0.337 8.31 23.28 5.46
8/5/2022 8:30:00 AM 20.54 68.972 0.339 8.31 22.81 5.54
8/5/2022 8:45:00 AM 20.54 68.972 0.341 8.32 21.46 5.67
8/5/2022 9:00:00 AM 20.57 69.026 0.341 8.31 22.54 5.86
8/5/2022 9:15:00 AM 20.59 69.062 0.344 8.31 21.04 6.01
8/5/2022 9:30:00 AM 20.59 69.062 0.346 8.32 21.49 6.14
8/5/2022 9:45:00 AM 20.58 69.044 0.342 8.33 20.69 6.26
8/5/2022 10:00:00 AM 20.58 69.044 0.345 8.34 20.64 6.39
8/5/2022 10:15:00 AM 20.59 69.062 0.343 8.36 20.23 6.52
8/5/2022 10:30:00 AM 20.6 69.08 0.351 8.36 20.21 6.64
8/5/2022 10:45:00 AM 20.6 69.08 0.353 8.37 19.74 6.74
8/5/2022 11:00:00 AM 20.6 69.08 0.353 8.37 20.82 6.81
8/5/2022 11:15:00 AM 20.69 69.242 0.354 8.37 19.61 6.99
8/5/2022 11:30:00 AM 20.8 69.44 0.357 8.39 19.25 7.23
8/5/2022 11:45:00 AM 20.9 69.62 0.357 8.41 20.09 7.52
8/5/2022 12:00:00 PM 20.98 69.764 0.359 8.42 19.53 7.77
8/5/2022 12:15:00 PM 21.1 69.98 0.358 8.44 19.32 8.12
8/5/2022 12:30:00 PM 21.34 70.412 0.361 8.47 18.53 8.51
8/5/2022 12:45:00 PM 21.57 70.826 0.361 8.49 19.5 8.85
8/5/2022 1:00:00 PM 21.74 71.132 0.363 8.52 19.98 9.18
8/5/2022 1:15:00 PM 22 71.6 0.361 8.56 18.68 9.58
8/5/2022 1:30:00 PM 22.26 72.068 0.364 8.6 19.99 9.91
8/5/2022 1:45:00 PM 22.43 72.374 0.364 8.64 18.4 10.13
8/5/2022 2:00:00 PM 22.6 72.68 0.366 8.66 16.73 10.29
8/5/2022 2:15:00 PM 22.84 73.112 0.366 8.69 17.37 10.43
8/5/2022 2:30:00 PM 23.07 73.526 0.369 8.72 32.68 10.5
8/5/2022 2:45:00 PM 23.29 73.922 0.366 8.73 16.59 10.64
8/5/2022 3:00:00 PM 23.43 74.174 0.369 8.75 20.83 10.67
8/5/2022 3:15:00 PM 23.41 74.138 0.372 8.77 18.7 10.51
8/5/2022 3:30:00 PM 23.4 74.12 0.373 8.78 17.23 10.39
8/5/2022 3:45:00 PM 23.46 74.228 0.372 8.77 18.44 10.28
8/5/2022 4:00:00 PM 23.58 74.444 0.376 8.78 15.97 10.3
8/5/2022 4:15:00 PM 23.49 74.282 0.374 8.78 16.57 10.07
8/5/2022 4:30:00 PM 23.38 74.084 0.379 8.77 16.66 9.77
8/5/2022 4:45:00 PM 23.3 73.94 0.38 8.76 16.49 9.57
8/5/2022 5:00:00 PM 23.29 73.922 0.377 8.74 16.74 9.44
8/5/2022 5:15:00 PM 23.41 74.138 0.383 8.74 16.24 9.57
8/5/2022 5:30:00 PM 23.4 74.12 0.382 8.74 15.88 9.49
8/5/2022 5:45:00 PM 23.37 74.066 0.384 8.74 17.06 9.46
8/5/2022 6:00:00 PM 23.32 73.976 0.38 8.74 16.57 9.26
8/5/2022 6:15:00 PM 23.25 73.85 0.387 8.74 16.21 9.08
8/5/2022 6:30:00 PM 23.22 73.796 0.388 8.72 16.39 8.89
8/5/2022 6:45:00 PM 23.18 73.724 0.387 8.72 16.29 8.76
8/5/2022 7:00:00 PM 23.14 73.652 0.388 8.71 16.59 8.54
8/5/2022 7:15:00 PM 23.12 73.616 0.39 8.7 17.08 8.39
8/5/2022 7:30:00 PM 23.07 73.526 0.392 8.69 17.21 8.19
8/5/2022 7:45:00 PM 23.03 73.454 0.391 8.68 15.15 7.92
8/5/2022 8:00:00 PM 22.97 73.346 0.393 8.68 15.68 7.71
8/5/2022 8:15:00 PM 22.91 73.238 0.394 8.67 15.79 7.56
8/5/2022 8:30:00 PM 22.85 73.13 0.395 8.66 16.09 7.36
8/5/2022 8:45:00 PM 22.79 73.022 0.395 8.65 30.83 7.17
8/5/2022 9:00:00 PM 22.73 72.914 0.397 8.63 16.12 6.97
8/5/2022 9:15:00 PM 22.66 72.788 0.398 8.62 15.49 6.82
8/5/2022 9:30:00 PM 22.59 72.662 0.399 8.6 16.48 6.61
8/5/2022 9:45:00 PM 22.52 72.536 0.4 8.58 15.58 6.45
8/5/2022 10:00:00 PM 22.45 72.41 0.401 8.58 17.19 6.33
8/5/2022 10:15:00 PM 22.38 72.284 0.402 8.57 16.57 6.23
8/5/2022 10:30:00 PM 22.32 72.176 0.402 8.56 17.92 6.13
8/5/2022 10:45:00 PM 22.26 72.068 0.403 8.56 16.44 6.1
8/5/2022 11:00:00 PM 22.21 71.978 0.404 8.56 17.09 6
8/5/2022 11:15:00 PM 22.16 71.888 0.405 8.55 16.56 5.96
8/5/2022 11:30:00 PM 22.1 71.78 0.406 8.54 16.23 5.95
8/5/2022 11:45:00 PM 22.05 71.69 0.406 8.54 17.03 5.9
8/6/2022 12:00:00 AM 22 71.6 0.404 8.54 16.92 5.86
8/6/2022 12:15:00 AM 21.96 71.528 0.407 8.53 15.72 5.84
8/6/2022 12:30:00 AM 21.9 71.42 0.407 8.53 16.64 5.82
8/6/2022 12:45:00 AM 21.85 71.33 0.407 8.53 16.4 5.8
8/6/2022 1:00:00 AM 21.8 71.24 0.408 8.52 16.47 5.72
8/6/2022 1:15:00 AM 21.75 71.15 0.403 8.52 16.29 5.75
8/6/2022 1:30:00 AM 21.69 71.042 0.407 8.52 16.34 5.68
8/6/2022 1:45:00 AM 21.64 70.952 0.409 8.51 19.98 5.7
8/6/2022 2:00:00 AM 21.59 70.862 0.409 8.52 16.4 5.59
8/6/2022 2:15:00 AM 21.54 70.772 0.41 8.5 17.34 5.52
8/6/2022 2:30:00 AM 21.49 70.682 0.41 8.51 16.23 5.53
8/6/2022 2:45:00 AM 21.44 70.592 0.41 8.51 15.86 5.53
8/6/2022 3:00:00 AM 21.39 70.502 0.41 8.5 15.91 5.6
8/6/2022 3:15:00 AM 21.35 70.43 0.407 8.5 16.3 5.58
8/6/2022 3:30:00 AM 21.3 70.34 0.41 8.5 16.22 5.61
8/6/2022 3:45:00 AM 21.25 70.25 0.405 8.5 16.44 5.55
8/6/2022 4:00:00 AM 21.2 70.16 0.404 8.5 16.35 5.59
8/6/2022 4:15:00 AM 21.14 70.052 0.41 8.5 16.45 5.56
8/6/2022 4:30:00 AM 21.09 69.962 0.41 8.5 16.78 5.61
8/6/2022 4:45:00 AM 21.02 69.836 0.41 8.5 16.61 5.65
8/6/2022 5:00:00 AM 20.98 69.764 0.41 8.5 15.83 5.62
8/6/2022 5:15:00 AM 20.91 69.638 0.41 8.5 17.49 5.61
8/6/2022 5:30:00 AM 20.86 69.548 0.41 8.5 16.77 5.67
8/6/2022 5:45:00 AM 20.81 69.458 0.4 8.5 16.27 5.64
8/6/2022 6:00:00 AM 20.76 69.368 0.407 8.5 16.15 5.66
8/6/2022 6:15:00 AM 20.71 69.278 0.41 8.49 15.69 5.65
8/6/2022 6:30:00 AM 20.67 69.206 0.41 8.49 16.44 5.64
8/6/2022 6:45:00 AM 20.63 69.134 0.41 8.49 16.88 5.66
8/6/2022 7:00:00 AM 20.6 69.08 0.41 8.48 15.95 5.74
8/6/2022 7:15:00 AM 20.58 69.044 0.41 8.47 15.09 5.77
8/6/2022 7:30:00 AM 20.57 69.026 0.409 8.47 13.17 5.88
8/6/2022 7:45:00 AM 20.56 69.008 0.409 8.47 12.88 6.01
8/6/2022 8:00:00 AM 20.55 68.99 0.404 8.47 13.94 6.07
8/6/2022 8:15:00 AM 20.56 69.008 0.398 8.48 11.48 6.25
8/6/2022 8:30:00 AM 20.58 69.044 0.399 8.48 11.1 6.33
8/6/2022 8:45:00 AM 20.62 69.116 0.408 8.49 11.88 6.58
8/6/2022 9:00:00 AM 20.67 69.206 0.405 8.49 12.54 6.75
8/6/2022 9:15:00 AM 20.69 69.242 0.401 8.5 12.67 6.95
8/6/2022 9:30:00 AM 20.71 69.278 0.405 8.51 11.04 7.11
8/6/2022 9:45:00 AM 20.75 69.35 0.405 8.55 11.99 7.31
8/6/2022 10:00:00 AM 20.8 69.44 0.405 8.54 11.01 7.5
8/6/2022 10:15:00 AM 20.85 69.53 0.405 8.55 12.4 7.68
8/6/2022 10:30:00 AM 20.95 69.71 0.404 8.56 11.74 7.95
8/6/2022 10:45:00 AM 21.05 69.89 0.404 8.57 11.49 8.18
8/6/2022 11:00:00 AM 21.2 70.16 0.403 8.58 11.63 8.46
8/6/2022 11:15:00 AM 21.31 70.358 0.403 8.6 11.56 8.64
8/6/2022 11:30:00 AM 21.45 70.61 0.402 8.62 11.11 8.88
8/6/2022 11:45:00 AM 21.67 71.006 0.389 8.63 16.83 9.14
8/6/2022 12:00:00 PM 21.94 71.492 0.4 8.65 11.82 9.49
8/6/2022 12:15:00 PM 22.13 71.834 0.399 8.67 11.57 9.79
8/6/2022 12:30:00 PM 22.31 72.158 0.399 8.69 12.32 9.93
8/6/2022 12:45:00 PM 22.53 72.554 0.395 8.71 13.34 10.12
8/6/2022 1:00:00 PM 22.76 72.968 0.393 8.74 13.12 10.28
8/6/2022 1:15:00 PM 22.85 73.13 0.397 8.75 20.3 10.38
8/6/2022 1:30:00 PM 23 73.4 0.394 8.77 29.09 10.46
8/6/2022 1:45:00 PM 23.14 73.652 0.397 8.78 25.31 10.48
8/6/2022 2:00:00 PM 23.38 74.084 0.396 8.79 14.01 10.66
8/6/2022 2:15:00 PM 23.51 74.318 0.396 8.81 13.36 10.7
8/6/2022 2:30:00 PM 23.79 74.82201 0.396 8.83 14.36 10.91
8/6/2022 2:45:00 PM 23.97 75.146 0.395 8.85 13.9 11.02
8/6/2022 3:00:00 PM 24.08 75.344 0.395 8.87 13.21 11.16
8/6/2022 3:15:00 PM 24.23 75.614 0.393 8.87 12.59 11.21
8/6/2022 3:30:00 PM 24.37 75.866 0.394 8.89 13.15 11.38
8/6/2022 3:45:00 PM 24.53 76.154 0.393 8.9 20.83 11.44
8/6/2022 4:00:00 PM 24.66 76.388 0.393 8.91 11.81 11.54
8/6/2022 4:15:00 PM 24.76 76.568 0.393 8.92 11.73 11.47
8/6/2022 4:30:00 PM 24.7 76.46 0.392 8.92 24.49 11.31
8/6/2022 4:45:00 PM 24.65 76.37 0.392 8.91 11.73 11.04
8/6/2022 5:00:00 PM 24.76 76.568 0.392 8.91 16.5 11.04
8/6/2022 5:15:00 PM 24.85 76.73 0.392 8.92 18.48 10.99
8/6/2022 5:30:00 PM 24.89 76.802 0.392 8.92 20.75 10.83
8/6/2022 5:45:00 PM 24.88 76.784 0.393 8.92 12.74 10.66
8/6/2022 6:00:00 PM 24.79 76.622 0.394 8.91 11.86 10.43
8/6/2022 6:15:00 PM 24.63 76.334 0.395 8.9 11.29 10.01
8/6/2022 6:30:00 PM 24.48 76.064 0.396 8.86 11.58 9.55
8/6/2022 6:45:00 PM 24.39 75.902 0.397 8.84 18.71 9.13
8/6/2022 7:00:00 PM 24.31 75.758 0.398 8.82 13.2 8.78
8/6/2022 7:15:00 PM 24.23 75.614 0.399 8.79 12.19 8.44
8/6/2022 7:30:00 PM 24.17 75.506 0.4 8.76 11.96 8.09
8/6/2022 7:45:00 PM 24.11 75.398 0.402 8.75 15.88 7.88
8/6/2022 8:00:00 PM 24.02 75.236 0.403 8.74 14.97 7.57
8/6/2022 8:15:00 PM 23.95 75.11 0.405 8.72 14.77 7.35
8/6/2022 8:30:00 PM 23.89 75.002 0.406 8.71 14.33 7.19
8/6/2022 8:45:00 PM 23.83 74.894 0.407 8.7 14.39 7.05
8/6/2022 9:00:00 PM 23.77 74.786 0.408 8.68 22.19 6.86
8/6/2022 9:15:00 PM 23.69 74.642 0.41 8.68 14.47 6.71
8/6/2022 9:30:00 PM 23.64 74.552 0.411 8.67 15.73 6.51
8/6/2022 9:45:00 PM 23.56 74.408 0.412 8.66 14.75 6.38
8/6/2022 10:00:00 PM 23.48 74.264 0.413 8.65 18.98 6.19
8/6/2022 10:15:00 PM 23.39 74.102 0.414 8.65 14.46 6.11
8/6/2022 10:30:00 PM 23.31 73.958 0.414 8.63 14.53 6.02
8/6/2022 10:45:00 PM 23.24 73.832 0.416 8.61 15.21 5.93
8/6/2022 11:00:00 PM 23.17 73.706 0.416 8.6 14.77 5.85
8/6/2022 11:15:00 PM 23.1 73.58 0.417 8.6 14.3 5.78
8/6/2022 11:30:00 PM 23.03 73.454 0.418 8.59 14.24 5.78
8/6/2022 11:45:00 PM 22.96 73.328 0.418 8.6 14.04 5.7
8/7/2022 12:00:00 AM 22.89 73.202 0.419 8.59 14.25 5.65
8/7/2022 12:15:00 AM 22.82 73.076 0.419 8.58 14.34 5.67
8/7/2022 12:30:00 AM 22.75 72.95 0.42 8.58 14.23 5.58
8/7/2022 12:45:00 AM 22.68 72.824 0.42 8.57 14.35 5.58
8/7/2022 1:00:00 AM 22.62 72.716 0.421 8.57 14.65 5.46
8/7/2022 1:15:00 AM 22.55 72.59 0.418 8.57 15.43 5.49
8/7/2022 1:30:00 AM 22.48 72.464 0.419 8.57 14.98 5.44
8/7/2022 1:45:00 AM 22.41 72.338 0.421 8.57 15.13 5.43
8/7/2022 2:00:00 AM 22.35 72.23 0.421 8.57 15.09 5.46
8/7/2022 2:15:00 AM 22.29 72.122 0.421 8.57 16.92 5.42
8/7/2022 2:30:00 AM 22.23 72.014 0.421 8.56 24.19 5.43
8/7/2022 2:45:00 AM 22.17 71.906 0.421 8.56 15.04 5.45
8/7/2022 3:00:00 AM 22.1 71.78 0.421 8.56 15.63 5.42
8/7/2022 3:15:00 AM 22.05 71.69 0.421 8.57 14.71 5.42
8/7/2022 3:30:00 AM 21.99 71.582 0.421 8.55 15.08 5.38
8/7/2022 3:45:00 AM 21.94 71.492 0.421 8.56 14.86 5.39
8/7/2022 4:00:00 AM 21.89 71.402 0.421 8.56 15.88 5.39
8/7/2022 4:15:00 AM 21.82 71.276 0.421 8.56 15.34 5.43
8/7/2022 4:30:00 AM 21.77 71.186 0.42 8.54 17.62 5.42
8/7/2022 4:45:00 AM 21.71 71.078 0.42 8.55 16.1 5.43
8/7/2022 5:00:00 AM 21.65 70.97 0.42 8.55 16.21 5.37
8/7/2022 5:15:00 AM 21.6 70.88 0.419 8.55 16.08 5.4
8/7/2022 5:30:00 AM 21.54 70.772 0.419 8.54 16.09 5.42
8/7/2022 5:45:00 AM 21.48 70.664 0.419 8.55 16.2 5.4
8/7/2022 6:00:00 AM 21.42 70.556 0.419 8.55 15.36 5.44
8/7/2022 6:15:00 AM 21.36 70.448 0.418 8.54 15.33 5.45
8/7/2022 6:30:00 AM 21.31 70.358 0.418 8.53 15.83 5.43
8/7/2022 6:45:00 AM 21.25 70.25 0.418 8.53 15.25 5.47
8/7/2022 7:00:00 AM 21.21 70.17799 0.416 8.53 19.09 5.51
8/7/2022 7:15:00 AM 21.18 70.124 0.417 8.51 16.34 5.49
8/7/2022 7:30:00 AM 21.16 70.088 0.416 8.51 16.2 5.62
8/7/2022 7:45:00 AM 21.13 70.034 0.414 8.51 15.87 5.72
8/7/2022 8:00:00 AM 21.12 70.016 0.406 8.5 16.73 5.84
8/7/2022 8:15:00 AM 21.15 70.07 0.415 8.5 16.99 5.9
8/7/2022 8:30:00 AM 21.18 70.124 0.406 8.49 19.08 6.11
8/7/2022 8:45:00 AM 21.2 70.16 0.399 8.51 17.19 6.31
8/7/2022 9:00:00 AM 21.24 70.232 0.413 8.51 16.39 6.44
8/7/2022 9:15:00 AM 21.31 70.358 0.406 8.51 16.31 6.7
8/7/2022 9:30:00 AM 21.37 70.466 0.41 8.52 16.04 6.93
8/7/2022 9:45:00 AM 21.43 70.574 0.41 8.53 16.41 7.15
8/7/2022 10:00:00 AM 21.54 70.772 0.407 8.54 16.26 7.37
8/7/2022 10:15:00 AM 21.69 71.042 0.409 8.55 19.53 7.6
8/7/2022 10:30:00 AM 21.81 71.258 0.408 8.56 15.92 7.87
8/7/2022 10:45:00 AM 21.9 71.42 0.407 8.59 15.64 8.17
8/7/2022 11:00:00 AM 21.99 71.582 0.407 8.6 16.38 8.37
8/7/2022 11:15:00 AM 22.11 71.798 0.406 8.62 15.93 8.46
8/7/2022 11:30:00 AM 22.16 71.888 0.406 8.63 16.81 8.52
8/7/2022 11:45:00 AM 22.32 72.176 0.405 8.64 15.74 8.74
8/7/2022 12:00:00 PM 22.52 72.536 0.404 8.65 16.7 9
8/7/2022 12:15:00 PM 22.59 72.662 0.404 8.67 16.93 9.02
8/7/2022 12:30:00 PM 22.71 72.878 0.395 8.69 17.17 9.19
8/7/2022 12:45:00 PM 22.85 73.13 0.394 8.7 16.71 9.28
8/7/2022 1:00:00 PM 23.1 73.58 0.4 8.71 18.51 9.5
8/7/2022 1:15:00 PM 23.38 74.084 0.401 8.74 15.41 9.72
8/7/2022 1:30:00 PM 23.55 74.39 0.401 8.76 16.55 9.96
8/7/2022 1:45:00 PM 23.74 74.732 0.4 8.78 18.22 10.14
8/7/2022 2:00:00 PM 23.85 74.93 0.399 8.81 18.06 10.4
8/7/2022 2:15:00 PM 24.08 75.344 0.398 8.83 15.18 10.59
8/7/2022 2:30:00 PM 24.39 75.902 0.397 8.87 15.78 10.94
8/7/2022 2:45:00 PM 24.68 76.424 0.396 8.9 14.58 11.15
8/7/2022 3:00:00 PM 24.94 76.892 0.391 8.93 25.62 11.33
8/7/2022 3:15:00 PM 25.19 77.342 0.394 8.96 16.03 11.47
8/7/2022 3:30:00 PM 25.33 77.594 0.394 8.98 33.55 11.51
8/7/2022 3:45:00 PM 25.5 77.9 0.393 9 15.72 11.59
8/7/2022 4:00:00 PM 25.66 78.188 0.393 9.01 20.1 11.53
8/7/2022 4:15:00 PM 25.8 78.44 0.392 9.03 14.83 11.53
8/7/2022 4:30:00 PM 25.86 78.548 0.391 9.02 14.27 11.36
8/7/2022 4:45:00 PM 25.9 78.62 0.392 9.02 21.59 11.32
8/7/2022 5:00:00 PM 25.9 78.62 0.392 9.01 14.99 11.13
8/7/2022 5:15:00 PM 25.84 78.512 0.393 9 14.8 10.91
8/7/2022 5:30:00 PM 25.73 78.314 0.393 8.98 29.15 10.63
8/7/2022 5:45:00 PM 25.62 78.116 0.395 8.97 16.17 10.39
8/7/2022 6:00:00 PM 25.43 77.774 0.394 8.95 20.49 9.94
8/7/2022 6:15:00 PM 25.27 77.486 0.395 8.91 43.82 9.49
8/7/2022 6:30:00 PM 25.13 77.234 0.396 8.89 39.24 9.02
8/7/2022 6:45:00 PM 25 77 0.395 8.87 38 8.63
8/7/2022 7:00:00 PM 24.87 76.766 0.397 8.84 35.71 8.23
8/7/2022 7:15:00 PM 24.77 76.586 0.399 8.83 31.56 7.92
8/7/2022 7:30:00 PM 24.69 76.442 0.4 8.8 29.87 7.66
8/7/2022 7:45:00 PM 24.58 76.244 0.4 8.78 25.05 7.51
8/7/2022 8:00:00 PM 24.48 76.064 0.401 8.76 17.65 7.31
8/7/2022 8:15:00 PM 24.38 75.884 0.402 8.75 15.53 7.11
8/7/2022 8:30:00 PM 24.3 75.74 0.402 8.74 16.01 6.92
8/7/2022 8:45:00 PM 24.22 75.596 0.404 8.74 13.99 6.7
8/7/2022 9:00:00 PM 24.15 75.47 0.404 8.73 13.66 6.57
8/7/2022 9:15:00 PM 24.08 75.344 0.397 8.73 13.68 6.49
8/7/2022 9:30:00 PM 24.01 75.218 0.408 8.72 15.12 6.34
8/7/2022 9:45:00 PM 23.95 75.11 0.409 8.71 13.64 6.18
8/7/2022 10:00:00 PM 23.87 74.966 0.41 8.69 14.09 6.1
8/7/2022 10:15:00 PM 23.79 74.82201 0.411 8.68 14.39 5.94
8/7/2022 10:30:00 PM 23.72 74.696 0.413 8.68 14.43 5.81
8/7/2022 10:45:00 PM 23.65 74.57 0.413 8.67 13.85 5.81
8/7/2022 11:00:00 PM 23.58 74.444 0.414 8.66 14.29 5.7
8/7/2022 11:15:00 PM 23.5 74.3 0.415 8.65 14.73 5.65
8/7/2022 11:30:00 PM 23.43 74.174 0.416 8.65 14.18 5.61
8/7/2022 11:45:00 PM 23.35 74.03 0.418 8.64 15.13 5.53
8/8/2022 12:00:00 AM 23.28 73.904 0.418 8.64 14.08 5.49
8/8/2022 12:15:00 AM 23.2 73.76 0.419 8.63 14.26 5.47
8/8/2022 12:30:00 AM 23.11 73.598 0.42 8.62 15.16 5.44
8/8/2022 12:45:00 AM 23.03 73.454 0.421 8.62 15.32 5.39
8/8/2022 1:00:00 AM 22.94 73.292 0.422 8.63 14.98 5.44
8/8/2022 1:15:00 AM 22.86 73.148 0.422 8.62 15.34 5.46
8/8/2022 1:30:00 AM 22.79 73.022 0.423 8.61 15.29 5.46
8/8/2022 1:45:00 AM 22.72 72.896 0.423 8.61 15.83 5.33
8/8/2022 2:00:00 AM 22.64 72.752 0.424 8.61 16.69 5.38
8/8/2022 2:15:00 AM 22.58 72.644 0.424 8.61 15.2 5.42
8/8/2022 2:30:00 AM 22.51 72.518 0.425 8.61 16.04 5.43
8/8/2022 2:45:00 AM 22.45 72.41 0.424 8.61 15.92 5.37
8/8/2022 3:00:00 AM 22.41 72.338 0.425 8.6 16.27 5.33
8/8/2022 3:15:00 AM 22.36 72.248 0.425 8.59 16.18 5.39
8/8/2022 3:30:00 AM 22.32 72.176 0.425 8.59 25.29 5.32
8/8/2022 3:45:00 AM 22.28 72.104 0.425 8.59 16.75 5.43
8/8/2022 4:00:00 AM 22.24 72.032 0.425 8.59 16.32 5.35
8/8/2022 4:15:00 AM 22.2 71.96 0.423 8.59 15.94 5.41
8/8/2022 4:30:00 AM 22.15 71.87 0.425 8.59 16.45 5.46
8/8/2022 4:45:00 AM 22.11 71.798 0.421 8.58 16.55 5.4
8/8/2022 5:00:00 AM 22.07 71.726 0.424 8.58 16.08 5.34
8/8/2022 5:15:00 AM 22.03 71.654 0.424 8.58 16.74 5.39
8/8/2022 5:30:00 AM 21.98 71.564 0.424 8.59 16.36 5.36
8/8/2022 5:45:00 AM 21.94 71.492 0.423 8.58 16.61 5.39
8/8/2022 6:00:00 AM 21.89 71.402 0.423 8.58 15.41 5.34
8/8/2022 6:15:00 AM 21.84 71.312 0.423 8.58 15.91 5.36
8/8/2022 6:30:00 AM 21.79 71.222 0.423 8.59 15.48 5.35
8/8/2022 6:45:00 AM 21.74 71.132 0.417 8.58 16.3 5.38
8/8/2022 7:00:00 AM 21.7 71.06 0.422 8.57 15.58 5.44
8/8/2022 7:15:00 AM 21.67 71.006 0.418 8.57 17.06 5.43
8/8/2022 7:30:00 AM 21.65 70.97 0.42 8.56 16.28 5.48
8/8/2022 7:45:00 AM 21.62 70.916 0.42 8.56 15.92 5.62
8/8/2022 8:00:00 AM 21.61 70.898 0.419 8.55 16.73 5.59
8/8/2022 8:15:00 AM 21.61 70.898 0.419 8.55 15.71 5.84
8/8/2022 8:30:00 AM 21.62 70.916 0.418 8.56 16.16 6.03
8/8/2022 8:45:00 AM 21.65 70.97 0.417 8.56 15.96 6.19
8/8/2022 9:00:00 AM 21.68 71.024 0.417 8.56 17.58 6.38
8/8/2022 9:15:00 AM 21.75 71.15 0.415 8.57 16.26 6.61
8/8/2022 9:30:00 AM 21.84 71.312 0.415 8.59 16.24 6.88
8/8/2022 9:45:00 AM 21.92 71.456 0.414 8.6 16.52 7.11
8/8/2022 10:00:00 AM 22.02 71.636 0.413 8.61 15.85 7.28
8/8/2022 10:15:00 AM 22.14 71.852 0.389 8.62 16.39 7.59
8/8/2022 10:30:00 AM 22.24 72.032 0.412 8.62 16.83 7.77
8/8/2022 10:45:00 AM 22.38 72.284 0.412 8.64 16.7 7.96
8/8/2022 11:00:00 AM 22.54 72.57201 0.411 8.66 20.79 8.1
8/8/2022 11:15:00 AM 22.7 72.86 0.41 8.68 17.45 8.42
8/8/2022 11:30:00 AM 22.9 73.22 0.409 8.69 18.85 8.54
8/8/2022 11:45:00 AM 23.11 73.598 0.408 8.7 16.86 8.85
8/8/2022 12:00:00 PM 23.38 74.084 0.407 8.73 17.46 9.22
8/8/2022 12:15:00 PM 23.63 74.534 0.406 8.75 17.09 9.48
8/8/2022 12:30:00 PM 23.94 75.092 0.401 8.78 18.88 9.76
8/8/2022 12:45:00 PM 24.21 75.578 0.405 8.8 17.96 9.96
8/8/2022 1:00:00 PM 24.45 76.01 0.404 8.82 18.75 10.15
8/8/2022 1:15:00 PM 24.69 76.442 0.403 8.86 18.67 10.29
8/8/2022 1:30:00 PM 24.94 76.892 0.401 8.88 24.42 10.51
8/8/2022 1:45:00 PM 25.18 77.324 0.402 8.9 23.56 10.6
8/8/2022 2:00:00 PM 25.45 77.81 0.401 8.91 20.68 10.69
8/8/2022 2:15:00 PM 25.66 78.188 0.398 8.94 41.03 10.78
8/8/2022 2:30:00 PM 25.83 78.494 0.397 8.95 20.3 10.77
8/8/2022 2:45:00 PM 25.95 78.71 0.395 8.97 28.49 10.9
8/8/2022 3:00:00 PM 25.92 78.656 0.4 8.97 30.92 10.73
8/8/2022 3:15:00 PM 26.08 78.944 0.399 8.98 19.14 10.82
8/8/2022 3:30:00 PM 26.23 79.214 0.399 8.98 31.05 10.74
8/8/2022 3:45:00 PM 26.27 79.286 0.399 8.99 19.97 10.81
8/8/2022 4:00:00 PM 26.29 79.32201 0.389 8.99 39.6 10.62
8/8/2022 4:15:00 PM 26.2 79.16 0.398 8.98 18.34 10.44
8/8/2022 4:30:00 PM 26.1 78.98 0.388 8.97 26.14 10.19
8/8/2022 4:45:00 PM 26.02 78.836 0.398 8.96 28.63 10.1
8/8/2022 5:00:00 PM 26.02 78.836 0.395 8.96 24.63 10.05
8/8/2022 5:15:00 PM 25.97 78.746 0.397 8.95 20.78 9.98
8/8/2022 5:30:00 PM 25.83 78.494 0.397 8.94 20.7 9.72
8/8/2022 5:45:00 PM 25.71 78.278 0.397 8.92 20.54 9.26
8/8/2022 6:00:00 PM 25.6 78.08 0.397 8.91 20.88 9.03
8/8/2022 6:15:00 PM 25.54 77.972 0.398 8.89 20.29 8.88
8/8/2022 6:30:00 PM 25.45 77.81 0.399 8.88 20.95 8.58
8/8/2022 6:45:00 PM 25.36 77.648 0.4 8.87 20.51 8.41
8/8/2022 7:00:00 PM 25.26 77.468 0.401 8.85 21.11 8.13
8/8/2022 7:15:00 PM 25.17 77.306 0.401 8.84 21.39 7.92
8/8/2022 7:30:00 PM 25.08 77.144 0.402 8.82 21.2 7.63
8/8/2022 7:45:00 PM 24.99 76.982 0.402 8.8 21.27 7.53
8/8/2022 8:00:00 PM 24.91 76.838 0.402 8.79 22.22 7.24
8/8/2022 8:15:00 PM 24.83 76.694 0.404 8.77 21.66 7.08
8/8/2022 8:30:00 PM 24.74 76.532 0.405 8.76 22.13 6.85
8/8/2022 8:45:00 PM 24.65 76.37 0.405 8.75 22.04 6.63
8/8/2022 9:00:00 PM 24.56 76.208 0.406 8.74 22.51 6.36
8/8/2022 9:15:00 PM 24.46 76.028 0.407 8.72 22.09 6.28
8/8/2022 9:30:00 PM 24.39 75.902 0.408 8.71 21.62 6.09
8/8/2022 9:45:00 PM 24.31 75.758 0.409 8.69 21.96 5.95
8/8/2022 10:00:00 PM 24.22 75.596 0.41 8.68 21.35 5.8
8/8/2022 10:15:00 PM 24.15 75.47 0.411 8.67 21.59 5.74
8/8/2022 10:30:00 PM 24.06 75.308 0.4 8.66 23.32 5.58
8/8/2022 10:45:00 PM 23.99 75.182 0.411 8.66 23.24 5.59
8/8/2022 11:00:00 PM 23.91 75.038 0.414 8.65 22.65 5.51
8/8/2022 11:15:00 PM 23.84 74.912 0.415 8.65 25.46 5.48
8/8/2022 11:30:00 PM 23.78 74.804 0.412 8.64 22.24 5.41
8/8/2022 11:45:00 PM 23.71 74.67799 0.417 8.63 22.17 5.45
8/9/2022 12:00:00 AM 23.65 74.57 0.418 8.62 22.17 5.33
8/9/2022 12:15:00 AM 23.59 74.462 0.418 8.63 24.03 5.34
8/9/2022 12:30:00 AM 23.51 74.318 0.419 8.63 23.97 5.36
8/9/2022 12:45:00 AM 23.46 74.228 0.42 8.62 25.17 5.19
8/9/2022 1:00:00 AM 23.41 74.138 0.421 8.61 23.72 4.22
8/9/2022 1:15:00 AM 23.36 74.048 0.421 8.61 23.81 5.16
8/9/2022 1:30:00 AM 23.3 73.94 0.422 8.61 25.23 5.19
8/9/2022 1:45:00 AM 23.24 73.832 0.422 8.61 28.14 5.21
8/9/2022 2:00:00 AM 23.18 73.724 0.423 8.61 25.55 5.21
8/9/2022 2:15:00 AM 23.13 73.634 0.423 8.61 26.07 5.27
8/9/2022 2:30:00 AM 23.07 73.526 0.423 8.61 25.48 5.16
8/9/2022 2:45:00 AM 23.02 73.436 0.424 8.61 25.79 5.14
8/9/2022 3:00:00 AM 22.97 73.346 0.423 8.61 25.49 5.2
8/9/2022 3:15:00 AM 22.92 73.256 0.423 8.61 24.63 5.22
8/9/2022 3:30:00 AM 22.86 73.148 0.424 8.61 25.06 5.09
8/9/2022 3:45:00 AM 22.81 73.058 0.424 8.61 26.95 5.1
8/9/2022 4:00:00 AM 22.76 72.968 0.425 8.6 96.17 5.14
8/9/2022 4:15:00 AM 22.72 72.896 0.424 8.6 27.85 5.15
8/9/2022 4:30:00 AM 22.67 72.806 0.424 8.6 25.38 5.17
8/9/2022 4:45:00 AM 22.62 72.716 0.424 8.59 25.92 5.25
8/9/2022 5:00:00 AM 22.58 72.644 0.424 8.6 26.21 5.18
8/9/2022 5:15:00 AM 22.53 72.554 0.423 8.59 26.05 5.19
8/9/2022 5:30:00 AM 22.5 72.5 0.423 8.59 24.59 5.09
8/9/2022 5:45:00 AM 22.45 72.41 0.423 8.6 30.34 5.2
8/9/2022 6:00:00 AM 22.41 72.338 0.422 8.59 25.14 5.19
8/9/2022 6:15:00 AM 22.38 72.284 0.422 8.58 25.52 5.22
8/9/2022 6:30:00 AM 22.35 72.23 0.422 8.58 24.98 5.17
8/9/2022 6:45:00 AM 22.33 72.194 0.422 8.57 27.67 5.2
8/9/2022 7:00:00 AM 22.3 72.14 0.421 8.57 25 5.22
8/9/2022 7:15:00 AM 22.27 72.086 0.421 8.57 24.91 5.22
8/9/2022 7:30:00 AM 22.25 72.05 0.421 8.57 25.12 5.31
8/9/2022 7:45:00 AM 22.25 72.05 0.42 8.56 26.12 5.41
8/9/2022 8:00:00 AM 22.26 72.068 0.42 8.56 25.85 5.5
8/9/2022 8:15:00 AM 22.27 72.086 0.419 8.57 25.48 5.62
8/9/2022 8:30:00 AM 22.3 72.14 0.418 8.56 25.72 5.76
8/9/2022 8:45:00 AM 22.34 72.212 0.418 8.57 25.67 5.86
8/9/2022 9:00:00 AM 22.39 72.302 0.416 8.57 27.88 6
8/9/2022 9:15:00 AM 22.44 72.392 0.417 8.58 26.06 6.24
8/9/2022 9:30:00 AM 22.49 72.482 0.417 8.6 25.71 6.46
8/9/2022 9:45:00 AM 22.56 72.608 0.416 8.6 26.3 6.65
8/9/2022 10:00:00 AM 22.62 72.716 0.416 8.62 25.74 6.86
8/9/2022 10:15:00 AM 22.66 72.788 0.415 8.64 25.95 7.02
8/9/2022 10:30:00 AM 22.72 72.896 0.415 8.65 26.08 7.17
8/9/2022 10:45:00 AM 22.81 73.058 0.414 8.67 27.75 7.46
8/9/2022 11:00:00 AM 22.92 73.256 0.413 8.69 26.48 7.8
8/9/2022 11:15:00 AM 23.03 73.454 0.413 8.7 26.65 8.01
8/9/2022 11:30:00 AM 23.2 73.76 0.412 8.73 27.54 8.29
8/9/2022 11:45:00 AM 23.25 73.85 0.411 8.75 27.56 8.36
8/9/2022 12:00:00 PM 23.34 74.012 0.408 8.77 27.39 8.63
8/9/2022 12:15:00 PM 23.41 74.138 0.409 8.79 27.05 8.89
8/9/2022 12:30:00 PM 23.48 74.264 0.409 8.8 27.89 8.9
8/9/2022 12:45:00 PM 23.62 74.516 0.4 8.81 28.08 9.07
8/9/2022 1:00:00 PM 23.71 74.67799 0.393 8.82 27.9 9.18
8/9/2022 1:15:00 PM 23.97 75.146 0.391 8.84 27.79 9.36
8/9/2022 1:30:00 PM 24.19 75.542 0.392 8.86 28.78 9.48
8/9/2022 1:45:00 PM 24.46 76.028 0.396 8.88 29.28 9.96
8/9/2022 2:00:00 PM 24.51 76.118 0.397 8.9 36.58 9.97
8/9/2022 2:15:00 PM 24.53 76.154 0.404 8.91 36.64 9.8
8/9/2022 2:30:00 PM 24.76 76.568 0.422 8.91 37.91 9.8
8/9/2022 2:45:00 PM 24.88 76.784 0.422 8.91 27.67 9.79
8/9/2022 3:00:00 PM 24.92 76.856 0.416 8.91 27.88 9.64
8/9/2022 3:15:00 PM 24.91 76.838 0.41 8.92 28.16 9.57
8/9/2022 3:30:00 PM 25.01 77.018 0.406 8.93 27.76 9.73
8/9/2022 3:45:00 PM 25.17 77.306 0.403 8.93 28.16 9.93
8/9/2022 4:00:00 PM 25.36 77.648 0.401 8.94 41.02 10.03
8/9/2022 4:15:00 PM 25.43 77.774 0.401 8.97 28.63 10.16
8/9/2022 4:30:00 PM 25.34 77.612 0.401 8.96 28.75 9.93
8/9/2022 4:45:00 PM 25.21 77.378 0.4 8.97 28.95 9.85
8/9/2022 5:00:00 PM 25.08 77.144 0.399 8.99 30.15 9.47
8/9/2022 5:15:00 PM 25.03 77.054 0.404 8.97 61.16 9.09
8/9/2022 5:30:00 PM 25.09 77.162 0.431 8.91 40.65 8.6
8/9/2022 5:45:00 PM 25.05 77.09 0.416 8.87 37.88 8.38
8/9/2022 6:00:00 PM 25.07 77.126 0.408 8.86 36.54 8.32
8/9/2022 6:15:00 PM 25.06 77.108 0.406 8.86 35.76 8.28
8/9/2022 6:30:00 PM 24.97 76.946 0.403 8.83 34.47 8.31
8/9/2022 6:45:00 PM 24.89 76.802 0.397 8.83 33.55 8.29
8/9/2022 7:00:00 PM 24.77 76.586 0.394 8.83 32.94 8.25
8/9/2022 7:15:00 PM 24.68 76.424 0.399 8.85 32.8 8.36
8/9/2022 7:30:00 PM 24.61 76.298 0.401 8.86 31.72 8.17
8/9/2022 7:45:00 PM 24.55 76.19 0.4 8.85 30.47 8.03
8/9/2022 8:00:00 PM 24.48 76.064 0.4 8.85 30.48 7.75
8/9/2022 8:15:00 PM 24.4 75.92 0.4 8.84 30.52 7.44
8/9/2022 8:30:00 PM 24.29 75.722 0.402 8.84 30.22 7.29
8/9/2022 8:45:00 PM 24.18 75.524 0.403 8.82 30.65 6.97
8/9/2022 9:00:00 PM 24.06 75.308 0.404 8.81 30.79 6.77
8/9/2022 9:15:00 PM 23.96 75.128 0.404 8.79 30.95 6.54
8/9/2022 9:30:00 PM 23.86 74.948 0.406 8.77 31.64 6.39
8/9/2022 9:45:00 PM 23.78 74.804 0.407 8.76 31.46 6.21
8/9/2022 10:00:00 PM 23.7 74.66 0.407 8.75 30.2 6.05
8/9/2022 10:15:00 PM 23.61 74.498 0.409 8.75 31.51 5.98
8/9/2022 10:30:00 PM 23.54 74.372 0.409 8.75 30.72 5.83
8/9/2022 10:45:00 PM 23.46 74.228 0.41 8.73 30.85 5.73
8/9/2022 11:00:00 PM 23.38 74.084 0.411 8.73 31.31 5.67
8/9/2022 11:15:00 PM 23.31 73.958 0.412 8.71 31.3 5.6
8/9/2022 11:30:00 PM 23.25 73.85 0.413 8.7 32.36 5.65
8/9/2022 11:45:00 PM 23.18 73.724 0.414 8.7 31.21 5.54
8/10/2022 12:00:00 AM 23.13 73.634 0.415 8.69 31.36 5.49
8/10/2022 12:15:00 AM 23.09 73.562 0.415 8.68 31.79 5.48
8/10/2022 12:30:00 AM 23.05 73.49 0.415 8.68 31.36 5.48
8/10/2022 12:45:00 AM 23.01 73.418 0.415 8.68 32.57 5.5
8/10/2022 1:00:00 AM 22.96 73.328 0.416 8.68 32.06 5.49
8/10/2022 1:15:00 AM 22.91 73.238 0.416 8.68 31.65 5.4
8/10/2022 1:30:00 AM 22.86 73.148 0.416 8.67 31.67 5.4
8/10/2022 1:45:00 AM 22.81 73.058 0.416 8.67 32.03 5.41
8/10/2022 2:00:00 AM 22.77 72.986 0.417 8.66 32.44 5.37
8/10/2022 2:15:00 AM 22.73 72.914 0.417 8.66 32.8 5.31
8/10/2022 2:30:00 AM 22.68 72.824 0.418 8.65 32.1 5.34
8/10/2022 2:45:00 AM 22.63 72.734 0.418 8.65 32.66 5.37
8/10/2022 3:00:00 AM 22.58 72.644 0.418 8.65 32.69 5.28
8/10/2022 3:15:00 AM 22.54 72.57201 0.417 8.65 33.77 5.3
8/10/2022 3:30:00 AM 22.51 72.518 0.418 8.64 33.15 5.29
8/10/2022 3:45:00 AM 22.47 72.446 0.419 8.64 33.51 5.27
8/10/2022 4:00:00 AM 22.42 72.356 0.418 8.64 34.01 5.26
8/10/2022 4:15:00 AM 22.38 72.284 0.42 8.64 34.73 5.29
8/10/2022 4:30:00 AM 22.33 72.194 0.418 8.63 34.78 5.27
8/10/2022 4:45:00 AM 22.3 72.14 0.419 8.63 35.85 5.23
8/10/2022 5:00:00 AM 22.25 72.05 0.418 8.62 43.38 5.28
8/10/2022 5:15:00 AM 22.21 71.978 0.418 8.62 36.15 5.23
8/10/2022 5:30:00 AM 22.17 71.906 0.418 8.62 36.73 5.27
8/10/2022 5:45:00 AM 22.13 71.834 0.418 8.61 36.87 5.23
8/10/2022 6:00:00 AM 22.1 71.78 0.418 8.61 37.11 5.23
8/10/2022 6:15:00 AM 22.06 71.708 0.417 8.62 38.32 5.29
8/10/2022 6:30:00 AM 22.03 71.654 0.417 8.62 38.17 5.25
8/10/2022 6:45:00 AM 22.01 71.618 0.417 8.62 30.49 5.24
8/10/2022 7:00:00 AM 21.97 71.546 0.417 8.61 32.42 5.29
8/10/2022 7:15:00 AM 21.95 71.51 0.417 8.61 30.37 5.27
8/10/2022 7:30:00 AM 21.92 71.456 0.417 8.61 31.86 5.32
8/10/2022 7:45:00 AM 21.9 71.42 0.416 8.62 32.1 5.37
8/10/2022 8:00:00 AM 21.88 71.384 0.415 8.62 31.38 5.47
8/10/2022 8:15:00 AM 21.87 71.366 0.4 8.63 39.7 5.61
8/10/2022 8:30:00 AM 21.84 71.312 0.413 8.64 37.37 5.68
8/10/2022 8:45:00 AM 21.82 71.276 0.413 8.64 34.66 5.75
8/10/2022 9:00:00 AM 21.82 71.276 0.412 8.65 33.59 5.89
8/10/2022 9:15:00 AM 21.82 71.276 0.409 8.65 33.8 6.06
8/10/2022 9:30:00 AM 21.84 71.312 0.41 8.66 33.79 6.3
8/10/2022 9:45:00 AM 21.86 71.348 0.408 8.67 32.79 6.49
8/10/2022 10:00:00 AM 21.87 71.366 0.408 8.68 32.95 6.72
8/10/2022 10:15:00 AM 21.88 71.384 0.407 8.7 33.07 6.92
8/10/2022 10:30:00 AM 21.91 71.438 0.406 8.71 35.17 7.14
8/10/2022 10:45:00 AM 21.94 71.492 0.404 8.72 34.76 7.4
8/10/2022 11:00:00 AM 21.97 71.546 0.403 8.74 35.92 7.6
8/10/2022 11:15:00 AM 22.02 71.636 0.404 8.75 34.83 7.84
8/10/2022 11:30:00 AM 22.1 71.78 0.402 8.76 37.65 8.16
8/10/2022 11:45:00 AM 22.24 72.032 0.401 8.79 37.51 8.48
8/10/2022 12:00:00 PM 22.41 72.338 0.401 8.82 42.43 8.84
8/10/2022 12:15:00 PM 22.65 72.77 0.4 8.84 47.3 9.27
8/10/2022 12:30:00 PM 22.84 73.112 0.399 8.86 45.35 9.61
8/10/2022 12:45:00 PM 22.91 73.238 0.398 8.9 44.18 9.96
8/10/2022 1:00:00 PM 22.98 73.364 0.397 8.92 36.88 10.14
8/10/2022 1:15:00 PM 23.09 73.562 0.396 8.94 37.43 10.33
8/10/2022 1:30:00 PM 23.25 73.85 0.395 8.96 37.01 10.51
8/10/2022 1:45:00 PM 23.36 74.048 0.394 8.97 39.58 10.62
8/10/2022 2:00:00 PM 23.4 74.12 0.395 8.99 37.33 10.64
8/10/2022 2:15:00 PM 23.51 74.318 0.395 9 36.76 10.77
8/10/2022 2:30:00 PM 23.63 74.534 0.394 9.02 44.89 10.9
8/10/2022 2:45:00 PM 23.67 74.606 0.393 9.03 63.32 11
8/10/2022 3:00:00 PM 23.76 74.768 0.392 9.04 55.49 10.99
8/10/2022 3:15:00 PM 23.85 74.93 0.393 9.05 36.97 11.09
8/10/2022 3:30:00 PM 23.96 75.128 0.391 9.07 38.78 11.15
8/10/2022 3:45:00 PM 23.98 75.164 0.391 9.07 38.73 11.13
8/10/2022 4:00:00 PM 24.07 75.326 0.391 9.07 39.97 11.1
8/10/2022 4:15:00 PM 24.21 75.578 0.391 9.07 43.24 11.07
8/10/2022 4:30:00 PM 24.24 75.632 0.39 9.07 46 11
8/10/2022 4:45:00 PM 24.15 75.47 0.389 9.07 65.13 10.91
8/10/2022 5:00:00 PM 24.06 75.308 0.389 9.06 96.31 10.7
8/10/2022 5:15:00 PM 23.96 75.128 0.39 9.05 53.55 10.47
8/10/2022 5:30:00 PM 23.86 74.948 0.39 9.03 63.97 10.24
8/10/2022 5:45:00 PM 23.76 74.768 0.39 9.02 51.46 9.91
8/10/2022 6:00:00 PM 23.68 74.624 0.39 9 53.37 9.63
8/10/2022 6:15:00 PM 23.61 74.498 0.391 8.98 53.83 9.33
8/10/2022 6:30:00 PM 23.52 74.336 0.392 8.96 54.45 9.04
8/10/2022 6:45:00 PM 23.43 74.174 0.392 8.95 53.67 8.74
8/10/2022 7:00:00 PM 23.35 74.03 0.392 8.92 51.97 8.54
8/10/2022 7:15:00 PM 23.28 73.904 0.393 8.91 49.62 8.4
8/10/2022 7:30:00 PM 23.21 73.778 0.393 8.9 56.19 8.13
8/10/2022 7:45:00 PM 23.14 73.652 0.394 8.89 46.08 7.99
8/10/2022 8:00:00 PM 23.09 73.562 0.394 8.88 43.11 7.88
8/10/2022 8:15:00 PM 23.04 73.472 0.396 8.86 48.09 7.6
8/10/2022 8:30:00 PM 22.98 73.364 0.395 8.86 47.6 7.49
8/10/2022 8:45:00 PM 22.92 73.256 0.397 8.84 47.09 7.38
8/10/2022 9:00:00 PM 22.88 73.184 0.397 8.83 47.99 7.1
8/10/2022 9:15:00 PM 22.82 73.076 0.398 8.82 48.17 6.92
8/10/2022 9:30:00 PM 22.76 72.968 0.399 8.81 49.36 6.8
8/10/2022 9:45:00 PM 22.7 72.86 0.4 8.79 50.58 6.66
8/10/2022 10:00:00 PM 22.65 72.77 0.401 8.79 49.71 6.53
8/10/2022 10:15:00 PM 22.59 72.662 0.402 8.77 50.27 6.37
8/10/2022 10:30:00 PM 22.54 72.57201 0.403 8.76 52.93 6.24
8/10/2022 10:45:00 PM 22.5 72.5 0.404 8.75 51.02 6.23
8/10/2022 11:00:00 PM 22.45 72.41 0.405 8.74 52.77 6.11
8/10/2022 11:15:00 PM 22.39 72.302 0.405 8.73 54.03 6.03
8/10/2022 11:30:00 PM 22.34 72.212 0.406 8.72 55.05 5.98
8/10/2022 11:45:00 PM 22.29 72.122 0.407 8.73 53.58 6.01
8/11/2022 12:00:00 AM 22.24 72.032 0.408 8.72 53.38 5.89
8/11/2022 12:15:00 AM 22.18 71.924 0.409 8.71 55.96 5.83
8/11/2022 12:30:00 AM 22.12 71.816 0.409 8.7 55.91 5.81
8/11/2022 12:45:00 AM 22.07 71.726 0.41 8.7 54.96 5.89
8/11/2022 1:00:00 AM 22.01 71.618 0.41 8.7 55.57 5.84
8/11/2022 1:15:00 AM 21.94 71.492 0.41 8.71 57.05 5.76
8/11/2022 1:30:00 AM 21.88 71.384 0.411 8.71 58.07 5.63
8/11/2022 1:45:00 AM 21.81 71.258 0.411 8.7 58.27 5.73
8/11/2022 2:00:00 AM 21.74 71.132 0.413 8.7 58.2 5.66
8/11/2022 2:15:00 AM 21.68 71.024 0.413 8.7 58.87 5.72
8/11/2022 2:30:00 AM 21.61 70.898 0.414 8.71 58.2 5.65
8/11/2022 2:45:00 AM 21.53 70.754 0.414 8.71 57.04 5.66
8/11/2022 3:00:00 AM 21.46 70.628 0.414 8.71 58.06 5.69
8/11/2022 3:15:00 AM 21.39 70.502 0.414 8.72 58.47 5.7
8/11/2022 3:30:00 AM 21.32 70.376 0.414 8.72 59.21 5.7
8/11/2022 3:45:00 AM 21.25 70.25 0.415 8.72 59 5.68
8/11/2022 4:00:00 AM 21.17 70.106 0.415 8.73 60.3 5.81
8/11/2022 4:15:00 AM 21.1 69.98 0.415 8.73 61.76 5.71
8/11/2022 4:30:00 AM 21.03 69.854 0.415 8.74 61.61 5.74
8/11/2022 4:45:00 AM 20.96 69.728 0.415 8.74 64.8 5.71
8/11/2022 5:00:00 AM 20.88 69.584 0.415 8.74 64.78 5.78
8/11/2022 5:15:00 AM 20.81 69.458 0.415 8.75 65.01 5.76
8/11/2022 5:30:00 AM 20.73 69.314 0.415 8.75 64.65 5.76
8/11/2022 5:45:00 AM 20.65 69.17 0.415 8.77 64.9 5.84
8/11/2022 6:00:00 AM 20.57 69.026 0.415 8.77 65.92 5.75
8/11/2022 6:15:00 AM 20.48 68.864 0.415 8.78 66.07 5.77
8/11/2022 6:30:00 AM 20.4 68.72 0.415 8.79 67.28 5.76
8/11/2022 6:45:00 AM 20.32 68.576 0.415 8.8 67.81 5.8
8/11/2022 7:00:00 AM 20.24 68.432 0.415 8.8 67.49 5.93
8/11/2022 7:15:00 AM 20.17 68.306 0.415 8.81 67.86 5.93
8/11/2022 7:30:00 AM 20.1 68.18 0.415 8.8 68.35 5.94
8/11/2022 7:45:00 AM 20.07 68.126 0.415 8.77 67.6 6.05
8/11/2022 8:00:00 AM 20.03 68.054 0.414 8.75 69.27 6.13
8/11/2022 8:15:00 AM 20.01 68.018 0.414 8.73 70.27 6.21
8/11/2022 8:30:00 AM 20 68 0.414 8.72 70.16 6.35
8/11/2022 8:45:00 AM 20.01 68.018 0.414 8.7 72.62 6.53
8/11/2022 9:00:00 AM 20.04 68.07201 0.414 8.68 72.44 6.61
8/11/2022 9:15:00 AM 20.08 68.144 0.414 8.69 73.09 6.84
8/11/2022 9:30:00 AM 20.13 68.234 0.413 8.69 71.81 7.04
8/11/2022 9:45:00 AM 20.21 68.378 0.413 8.69 74.87 7.26
8/11/2022 10:00:00 AM 20.3 68.54 0.413 8.71 77.09 7.55
8/11/2022 10:15:00 AM 20.4 68.72 0.412 8.71 78.21 7.75
8/11/2022 10:30:00 AM 20.5 68.9 0.412 8.73 74.41 7.93
8/11/2022 10:45:00 AM 20.64 69.152 0.411 8.73 75.91 8.26
8/11/2022 11:00:00 AM 20.77 69.386 0.411 8.74 76.61 8.46
8/11/2022 11:15:00 AM 20.94 69.692 0.41 8.76 75.67 8.75
8/11/2022 11:30:00 AM 21.13 70.034 0.41 8.72 78.34 9.05
8/11/2022 11:45:00 AM 21.34 70.412 0.409 8.76 77.22 9.37
8/11/2022 12:00:00 PM 21.44 70.592 0.408 8.78 78.47 9.57
8/11/2022 12:15:00 PM 21.51 70.718 0.408 8.81 79.12 9.83
8/11/2022 12:30:00 PM 21.75 71.15 0.407 8.82 86.38 10.08
8/11/2022 12:45:00 PM 21.95 71.51 0.407 8.82 93.57 10.31
8/11/2022 1:00:00 PM 22.14 71.852 0.407 8.86 98.02 10.49
8/11/2022 1:15:00 PM 22.34 72.212 0.405 8.8 78.34 10.59
8/11/2022 1:30:00 PM 22.47 72.446 0.405 8.83 88.84 10.68
8/11/2022 1:45:00 PM 22.71 72.878 0.404 8.87 101.7 10.81
8/11/2022 2:00:00 PM 22.88 73.184 0.404 8.88 112.3 10.99
8/11/2022 2:15:00 PM 23.08 73.544 0.403 8.92 97.2 11.1
8/11/2022 2:30:00 PM 23.15 73.67 0.403 8.92 81.48 11.13
8/11/2022 2:45:00 PM 23.35 74.03 0.403 8.93 98.45 11.23
8/11/2022 3:00:00 PM 23.46 74.228 0.402 8.95 101.8 11.32
8/11/2022 3:15:00 PM 23.6 74.48 0.404 8.99 141.5 11.33
8/11/2022 3:30:00 PM 23.75 74.75 0.403 9 79.78 11.33
8/11/2022 3:45:00 PM 23.72 74.696 0.402 9.02 89.86 11.51
8/11/2022 4:00:00 PM 23.68 74.624 0.402 9.01 89.79 11
8/11/2022 4:15:00 PM 23.65 74.57 0.401 9.02 85.02 11.1
8/11/2022 4:30:00 PM 23.53 74.354 0.398 9 85.95 10.98
8/11/2022 4:45:00 PM 23.45 74.21 0.399 8.99 86.01 10.63
8/11/2022 5:00:00 PM 23.53 74.354 0.399 8.95 89.71 10.72
8/11/2022 5:15:00 PM 23.45 74.21 0.399 8.97 98.99 10.56
8/11/2022 5:30:00 PM 23.29 73.922 0.399 8.96 94.36 10.25
8/11/2022 5:45:00 PM 23.15 73.67 0.399 8.95 105.4 9.99
8/11/2022 6:00:00 PM 23.04 73.472 0.399 8.93 96.12 9.59
8/11/2022 6:15:00 PM 22.94 73.292 0.4 8.92 96.77 9.31
8/11/2022 6:30:00 PM 22.93 73.274 0.4 8.89 104.2 9.12
8/11/2022 6:45:00 PM 22.9 73.22 0.4 8.88 102.1 8.97
8/11/2022 7:00:00 PM 22.77 72.986 0.4 8.86 105.9 8.83
8/11/2022 7:15:00 PM 22.68 72.824 0.402 8.87 111.7 8.48
8/11/2022 7:30:00 PM 22.58 72.644 0.402 8.86 110.9 8.3
8/11/2022 7:45:00 PM 22.47 72.446 0.402 8.85 106.3 8
8/11/2022 8:00:00 PM 22.37 72.266 0.403 8.85 105.1 7.9
8/11/2022 8:15:00 PM 22.28 72.104 0.403 8.84 101.9 7.69
8/11/2022 8:30:00 PM 22.17 71.906 0.404 8.85 104 7.62
8/11/2022 8:45:00 PM 22.06 71.708 0.404 8.85 101.6 7.45
8/11/2022 9:00:00 PM 21.94 71.492 0.405 8.86 104.4 7.29
8/11/2022 9:15:00 PM 21.86 71.348 0.406 8.87 104.6 7.08
8/11/2022 9:30:00 PM 21.75 71.15 0.406 8.87 106.2 6.94
8/11/2022 9:45:00 PM 21.64 70.952 0.407 8.87 108.3 6.79
8/11/2022 10:00:00 PM 21.54 70.772 0.408 8.87 109.9 6.61
8/11/2022 10:15:00 PM 21.44 70.592 0.409 8.86 110.1 6.53
8/11/2022 10:30:00 PM 21.33 70.394 0.408 8.85 110.2 6.49
8/11/2022 10:45:00 PM 21.24 70.232 0.41 8.85 112.1 6.35
8/11/2022 11:00:00 PM 21.13 70.034 0.411 8.84 114.2 6.31
8/11/2022 11:15:00 PM 21.04 69.872 0.412 8.84 115.3 6.19
8/11/2022 11:30:00 PM 20.94 69.692 0.413 8.85 114.3 6.25
8/11/2022 11:45:00 PM 20.84 69.512 0.414 8.86 118.9 6.22
8/12/2022 12:00:00 AM 20.76 69.368 0.415 8.87 119.6 6.19
8/12/2022 12:15:00 AM 20.67 69.206 0.415 8.88 116.8 6.21
8/12/2022 12:30:00 AM 20.59 69.062 0.416 8.88 117.3 6.19
8/12/2022 12:45:00 AM 20.5 68.9 0.417 8.88 119.1 6.19
8/12/2022 1:00:00 AM 20.42 68.756 0.417 8.89 119.1 6.16
8/12/2022 1:15:00 AM 20.31 68.558 0.418 8.89 121.6 6.12
8/12/2022 1:30:00 AM 20.24 68.432 0.418 8.89 117.4 6.22
8/12/2022 1:45:00 AM 20.15 68.27 0.42 8.89 121.2 6.21
8/12/2022 2:00:00 AM 20.08 68.144 0.419 8.89 122.9 6.19
8/12/2022 2:15:00 AM 20 68 0.42 8.89 123.4 6.16
8/12/2022 2:30:00 AM 19.91 67.838 0.419 8.89 121.1 6.17
8/12/2022 2:45:00 AM 19.83 67.694 0.422 8.9 122.5 6.14
8/12/2022 3:00:00 AM 19.74 67.532 0.422 8.9 119.9 6.18
8/12/2022 3:15:00 AM 19.66 67.388 0.422 8.9 120.9 6.21
8/12/2022 3:30:00 AM 19.57 67.226 0.422 8.91 149.4 6.24
8/12/2022 3:45:00 AM 19.5 67.1 0.422 8.91 125.5 6.16
8/12/2022 4:00:00 AM 19.43 66.974 0.423 8.92 126 6.18
8/12/2022 4:15:00 AM 19.34 66.812 0.423 8.92 127.5 6.15
8/12/2022 4:30:00 AM 19.25 66.65 0.423 8.93 129 6.19
8/12/2022 4:45:00 AM 19.17 66.506 0.423 8.92 137.9 6.19
8/12/2022 5:00:00 AM 19.09 66.362 0.424 8.93 134.6 6.26
8/12/2022 5:15:00 AM 19 66.2 0.424 8.93 144.2 6.31
8/12/2022 5:30:00 AM 18.93 66.074 0.424 8.93 139.5 6.28
8/12/2022 5:45:00 AM 18.84 65.912 0.424 8.95 135.8 6.31
8/12/2022 6:00:00 AM 18.76 65.768 0.423 8.95 137.8 6.3
8/12/2022 6:15:00 AM 18.68 65.624 0.423 8.95 139 6.36
8/12/2022 6:30:00 AM 18.6 65.48 0.423 8.95 139.8 6.39
8/12/2022 6:45:00 AM 18.53 65.354 0.423 8.95 42.02 6.38
8/12/2022 7:00:00 AM 18.46 65.228 0.422 8.95 50.95 6.37
8/12/2022 7:15:00 AM 18.4 65.12 0.422 8.95 53.21 6.47
8/12/2022 7:30:00 AM 18.36 65.048 0.421 9 52.28 6.58
8/12/2022 7:45:00 AM 18.33 64.994 0.421 8.97 1468 6.56
8/12/2022 8:00:00 AM 18.31 64.958 0.42 9.07 52.78 6.72
8/12/2022 8:15:00 AM 18.31 64.958 0.419 9.02 70.87 6.77
8/12/2022 8:30:00 AM 18.33 64.994 0.419 8.94 57.76 6.99
8/12/2022 8:45:00 AM 18.36 65.048 0.419 8.89 57.96 7.13
8/12/2022 9:00:00 AM 18.42 65.156 0.418 8.85 59.97 7.34
8/12/2022 9:15:00 AM 18.48 65.264 0.418 8.83 79.27 7.5
8/12/2022 9:30:00 AM 18.57 65.426 0.417 8.78 60.53 7.73
8/12/2022 9:45:00 AM 18.65 65.57 0.416 8.74 60.39 7.93
8/12/2022 10:00:00 AM 18.75 65.75 0.415 8.74 53.11 8.18
8/12/2022 10:15:00 AM 18.86 65.948 0.415 8.73 52.36 8.47
8/12/2022 10:30:00 AM 19.02 66.236 0.413 8.73 53.17 8.76
8/12/2022 10:45:00 AM 19.13 66.434 0.413 8.73 54.53 8.91
8/12/2022 11:00:00 AM 19.28 66.704 0.412 8.75 53.2 9.21
8/12/2022 11:15:00 AM 19.43 66.974 0.411 8.76 53.66 9.47
8/12/2022 11:30:00 AM 19.63 67.334 0.409 8.77 53.29 9.83
8/12/2022 11:45:00 AM 19.8 67.64 0.409 8.77 53.72 9.98
8/12/2022 12:00:00 PM 20.02 68.036 0.408 8.81 54.51 10.32
8/12/2022 12:15:00 PM 20.32 68.576 0.406 8.83 53.25 10.54
8/12/2022 12:30:00 PM 20.53 68.954 0.406 8.85 54.51 10.8
8/12/2022 12:45:00 PM 20.88 69.584 0.404 8.88 72.82 11.19
8/12/2022 1:00:00 PM 21.14 70.052 0.403 8.89 53.81 11.32
8/12/2022 1:15:00 PM 21.46 70.628 0.402 8.89 64.3 11.53
8/12/2022 1:30:00 PM 21.73 71.114 0.402 8.91 51.04 11.73
8/12/2022 1:45:00 PM 21.99 71.582 0.401 8.95 80.14 11.83
8/12/2022 2:00:00 PM 22.26 72.068 0.399 8.96 72.84 11.91
8/12/2022 2:15:00 PM 22.52 72.536 0.397 8.99 55.66 11.98
8/12/2022 2:30:00 PM 22.74 72.932 0.397 9.03 64.26 12.15
8/12/2022 2:45:00 PM 22.93 73.274 0.396 9.02 56.37 12.2
8/12/2022 3:00:00 PM 23.11 73.598 0.395 9.05 56.55 12.22
8/12/2022 3:15:00 PM 23.28 73.904 0.395 9.06 94.52 12.28
8/12/2022 3:30:00 PM 23.43 74.174 0.392 9.08 55.39 12.45
8/12/2022 3:45:00 PM 23.38 74.084 0.392 9.09 57.55 12.26
8/12/2022 4:00:00 PM 23.35 74.03 0.392 9.1 61.12 12.05
8/12/2022 4:15:00 PM 23.36 74.048 0.393 9.07 80.7 11.86
8/12/2022 4:30:00 PM 23.27 73.886 0.393 9.08 58.05 11.7
8/12/2022 4:45:00 PM 23.29 73.922 0.393 9.06 55.93 11.45
8/12/2022 5:00:00 PM 23.13 73.634 0.392 9.06 64.31 11.29
8/12/2022 5:15:00 PM 23.05 73.49 0.395 9.04 81.24 11.09
8/12/2022 5:30:00 PM 22.94 73.292 0.395 9.01 56.61 10.95
8/12/2022 5:45:00 PM 22.87 73.166 0.395 9 58.93 10.71
8/12/2022 6:00:00 PM 22.76 72.968 0.395 9.06 61.67 10.65
8/12/2022 6:15:00 PM 22.62 72.716 0.396 8.99 60.84 10.38
8/12/2022 6:30:00 PM 22.53 72.554 0.393 8.92 64.4 10.14
8/12/2022 6:45:00 PM 22.34 72.212 0.394 8.91 60.19 10.03
8/12/2022 7:00:00 PM 22.19 71.942 0.394 8.94 108.6 9.55
8/12/2022 7:15:00 PM 22.02 71.636 0.394 8.94 66.76 9.35
8/12/2022 7:30:00 PM 21.89 71.402 0.394 8.91 65.05 9.04
8/12/2022 7:45:00 PM 21.78 71.204 0.395 8.87 65.75 8.77
8/12/2022 8:00:00 PM 21.65 70.97 0.396 8.85 65.38 8.66
8/12/2022 8:15:00 PM 21.54 70.772 0.397 8.86 66.73 8.42
8/12/2022 8:30:00 PM 21.42 70.556 0.398 8.9 66.36 8.12
8/12/2022 8:45:00 PM 21.32 70.376 0.398 8.94 68.6 7.93
8/12/2022 9:00:00 PM 21.2 70.16 0.395 8.97 70.91 7.74
8/12/2022 9:15:00 PM 21.08 69.944 0.399 8.98 71.1 7.47
8/12/2022 9:30:00 PM 20.95 69.71 0.4 8.99 71.8 7.37
8/12/2022 9:45:00 PM 20.84 69.512 0.401 9 70.33 7.15
8/12/2022 10:00:00 PM 20.71 69.278 0.401 9 77.75 7.07
8/12/2022 10:15:00 PM 20.59 69.062 0.402 9 70.37 6.87
8/12/2022 10:30:00 PM 20.46 68.828 0.403 9 70.22 6.82
8/12/2022 10:45:00 PM 20.33 68.594 0.403 9.01 70.53 6.79
8/12/2022 11:00:00 PM 20.22 68.396 0.404 9 70.1 6.68
8/12/2022 11:15:00 PM 20.1 68.18 0.405 9 68.42 6.65
8/12/2022 11:30:00 PM 19.98 67.964 0.405 9.01 68.84 6.59
8/12/2022 11:45:00 PM 19.87 67.766 0.406 9 71.57 6.58
8/13/2022 12:00:00 AM 19.75 67.55 0.407 9.01 68.58 6.55
8/13/2022 12:15:00 AM 19.64 67.352 0.408 9.02 70.74 6.58
8/13/2022 12:30:00 AM 19.52 67.136 0.41 9.02 70.41 6.57
8/13/2022 12:45:00 AM 19.41 66.938 0.409 9.02 70.33 6.6
8/13/2022 1:00:00 AM 19.31 66.758 0.41 9.03 71.21 6.56
8/13/2022 1:15:00 AM 19.19 66.542 0.411 9.03 70.49 6.59
8/13/2022 1:30:00 AM 19.09 66.362 0.412 9.03 70.4 6.54
8/13/2022 1:45:00 AM 18.99 66.182 0.412 9.03 69.9 6.6
8/13/2022 2:00:00 AM 18.88 65.984 0.412 9.04 68.57 6.57
8/13/2022 2:15:00 AM 18.78 65.804 0.407 9.05 77.6 6.55
8/13/2022 2:30:00 AM 18.68 65.624 0.413 9.05 70.31 6.58
8/13/2022 2:45:00 AM 18.57 65.426 0.415 9.06 70.82 6.51
8/13/2022 3:00:00 AM 18.48 65.264 0.416 9.05 77.76 6.55
8/13/2022 3:15:00 AM 18.38 65.084 0.417 9.07 73.42 6.62
8/13/2022 3:30:00 AM 18.29 64.922 0.417 9.07 486.5 6.6
8/13/2022 3:45:00 AM 18.19 64.742 0.417 9.07 74.76 6.6
8/13/2022 4:00:00 AM 18.1 64.58 0.418 9.08 76.72 6.57
8/13/2022 4:15:00 AM 18.02 64.436 0.419 9.08 73.9 6.59
8/13/2022 4:30:00 AM 17.91 64.238 0.42 9.09 73.5 6.63
8/13/2022 4:45:00 AM 17.82 64.076 0.422 9.1 73.59 6.61
8/13/2022 5:00:00 AM 17.72 63.896 0.426 9.11 76.61 6.65
8/13/2022 5:15:00 AM 17.63 63.734 0.428 9.11 72.42 6.63
8/13/2022 5:30:00 AM 17.54 63.572 0.429 9.12 73.43 6.69
8/13/2022 5:45:00 AM 17.45 63.41 0.431 9.11 73.21 6.68
8/13/2022 6:00:00 AM 17.36 63.248 0.431 9.1 74.33 6.64
8/13/2022 6:15:00 AM 17.26 63.068 0.431 9.12 73.46 6.76
8/13/2022 6:30:00 AM 17.16 62.888 0.431 9.14 77.47 6.72
8/13/2022 6:45:00 AM 17.07 62.726 0.429 9.14 73.43 6.77
8/13/2022 7:00:00 AM 17 62.6 0.428 9.13 74.43 6.8
8/13/2022 7:15:00 AM 16.92 62.456 0.426 9.13 74.63 6.87
8/13/2022 7:30:00 AM 16.87 62.366 0.426 9.14 74 6.89
8/13/2022 7:45:00 AM 16.82 62.276 0.425 9.14 74.12 7.03
8/13/2022 8:00:00 AM 16.78 62.204 0.423 9.13 72.27 7.1
8/13/2022 8:15:00 AM 16.76 62.168 0.422 9.13 73.84 7.24
8/13/2022 8:30:00 AM 16.76 62.168 0.421 9.12 73.14 7.32
8/13/2022 8:45:00 AM 16.78 62.204 0.42 9.11 73.27 7.53
8/13/2022 9:00:00 AM 16.82 62.276 0.418 9.1 72.55 7.71
8/13/2022 9:15:00 AM 16.88 62.384 0.42 9.1 73.88 7.88
8/13/2022 9:30:00 AM 16.96 62.528 0.42 9.08 73.84 8.13
8/13/2022 9:45:00 AM 17.04 62.672 0.418 9.05 73.52 8.4
8/13/2022 10:00:00 AM 17.16 62.888 0.418 9.02 73.83 8.58
8/13/2022 10:15:00 AM 17.3 63.14 0.416 8.95 74.69 8.86
8/13/2022 10:30:00 AM 17.43 63.374 0.417 8.91 74 9.05
8/13/2022 10:45:00 AM 17.61 63.698 0.414 8.92 74.83 9.42
8/13/2022 11:00:00 AM 17.78 64.004 0.414 8.91 74.37 9.66
8/13/2022 11:15:00 AM 17.98 64.364 0.412 8.88 75.99 9.94
8/13/2022 11:30:00 AM 18.19 64.742 0.411 8.85 73.6 10.21
8/13/2022 11:45:00 AM 18.44 65.192 0.41 8.81 74.41 10.54
8/13/2022 12:00:00 PM 18.69 65.642 0.407 8.81 74.08 10.7
8/13/2022 12:15:00 PM 19 66.2 0.406 8.81 80.11 11.04
8/13/2022 12:30:00 PM 19.24 66.632 0.405 8.76 78.03 11.27
8/13/2022 12:45:00 PM 19.61 67.298 0.406 8.79 78.37 11.58
8/13/2022 1:00:00 PM 19.95 67.91 0.4 8.8 82.98 11.91
8/13/2022 1:15:00 PM 20.22 68.396 0.404 8.82 91.37 11.89
8/13/2022 1:30:00 PM 20.54 68.972 0.402 8.83 78.95 12.08
8/13/2022 1:45:00 PM 20.84 69.512 0.402 8.83 79.07 12.27
8/13/2022 2:00:00 PM 21.08 69.944 0.403 8.83 120.6 12.27
8/13/2022 2:15:00 PM 21.39 70.502 0.402 8.84 78.18 12.45
8/13/2022 2:30:00 PM 21.64 70.952 0.397 8.85 81.33 12.56
8/13/2022 2:45:00 PM 21.91 71.438 0.398 8.86 77.64 12.72
8/13/2022 3:00:00 PM 22.09 71.762 0.394 8.88 72.76 12.78
8/13/2022 3:15:00 PM 22.27 72.086 0.4 8.88 97.43 12.9
8/13/2022 3:30:00 PM 22.46 72.42799 0.399 8.89 73.39 12.88
8/13/2022 3:45:00 PM 22.56 72.608 0.396 8.91 72.32 12.89
8/13/2022 4:00:00 PM 22.66 72.788 0.396 8.87 76.03 12.91
8/13/2022 4:15:00 PM 22.71 72.878 0.397 8.88 90.04 12.78
8/13/2022 4:30:00 PM 22.73 72.914 0.398 8.91 73.2 12.51
8/13/2022 4:45:00 PM 22.71 72.878 0.397 8.93 72.66 12.47
8/13/2022 5:00:00 PM 22.67 72.806 0.394 8.84 72.25 12.27
8/13/2022 5:15:00 PM 22.57 72.626 0.394 8.81 79.61 12.12
8/13/2022 5:30:00 PM 22.46 72.42799 0.392 8.77 71.52 11.96
8/13/2022 5:45:00 PM 22.28 72.104 0.394 8.74 78.63 11.74
8/13/2022 6:00:00 PM 22.18 71.924 0.397 8.7 71.21 11.28
8/13/2022 6:15:00 PM 22.05 71.69 0.396 8.68 73.92 11.18
8/13/2022 6:30:00 PM 21.96 71.528 0.394 8.65 76.18 10.91
8/13/2022 6:45:00 PM 21.78 71.204 0.391 8.64 86.38 10.66
8/13/2022 7:00:00 PM 21.64 70.952 0.396 8.65 74.1 10.29
8/13/2022 7:15:00 PM 21.51 70.718 0.39 8.63 76.42 9.99
8/13/2022 7:30:00 PM 21.4 70.52 0.383 8.57 75.34 9.74
8/13/2022 7:45:00 PM 21.3 70.34 0.389 8.57 75.94 9.51
8/13/2022 8:00:00 PM 21.2 70.16 0.392 8.52 74.5 9.18
8/13/2022 8:15:00 PM 21.1 69.98 0.398 8.54 74.87 8.9
8/13/2022 8:30:00 PM 21 69.8 0.398 8.58 73.63 8.76
8/13/2022 8:45:00 PM 20.9 69.62 0.4 8.62 75.28 8.39
8/13/2022 9:00:00 PM 20.8 69.44 0.399 8.65 72.02 8.16
8/13/2022 9:15:00 PM 20.7 69.26 0.399 8.7 71.92 7.9
8/13/2022 9:30:00 PM 20.59 69.062 0.4 8.71 74.53 7.77
8/13/2022 9:45:00 PM 20.49 68.882 0.4 8.73 70.76 7.57
8/13/2022 10:00:00 PM 20.39 68.702 0.401 8.74 67.56 7.34
8/13/2022 10:15:00 PM 20.3 68.54 0.402 8.73 68.39 7.28
8/13/2022 10:30:00 PM 20.2 68.36 0.403 8.7 66.34 7.14
8/13/2022 10:45:00 PM 20.11 68.198 0.403 8.68 66.76 7.07
8/13/2022 11:00:00 PM 20.02 68.036 0.404 8.68 65.95 6.99
8/13/2022 11:15:00 PM 19.94 67.892 0.405 8.68 64.01 6.83
8/13/2022 11:30:00 PM 19.87 67.766 0.406 8.67 64.28 6.85
8/13/2022 11:45:00 PM 19.79 67.622 0.407 8.66 64.75 6.73
8/14/2022 12:00:00 AM 19.71 67.478 0.405 8.65 63.29 6.69
8/14/2022 12:15:00 AM 19.63 67.334 0.409 8.66 64.41 6.61
8/14/2022 12:30:00 AM 19.56 67.208 0.41 8.65 65.14 6.61
8/14/2022 12:45:00 AM 19.48 67.064 0.41 8.64 74.58 6.63
8/14/2022 1:00:00 AM 19.42 66.956 0.407 8.65 80.72 6.58
8/14/2022 1:15:00 AM 19.35 66.83 0.413 8.65 68.47 6.59
8/14/2022 1:30:00 AM 19.28 66.704 0.414 8.65 66.83 6.52
8/14/2022 1:45:00 AM 19.21 66.578 0.414 8.65 68.2 6.54
8/14/2022 2:00:00 AM 19.15 66.47 0.416 8.65 68.56 6.53
8/14/2022 2:15:00 AM 19.08 66.344 0.417 8.65 68.88 6.5
8/14/2022 2:30:00 AM 19.01 66.218 0.418 8.67 68.92 6.48
8/14/2022 2:45:00 AM 18.95 66.11 0.419 8.66 68.49 6.42
8/14/2022 3:00:00 AM 18.89 66.002 0.419 8.68 69.17 6.44
8/14/2022 3:15:00 AM 18.83 65.894 0.419 8.68 71.05 6.47
8/14/2022 3:30:00 AM 18.77 65.786 0.421 8.7 69.59 6.43
8/14/2022 3:45:00 AM 18.7 65.66 0.422 8.7 69.67 6.46
8/14/2022 4:00:00 AM 18.65 65.57 0.42 8.72 70.2 6.43
8/14/2022 4:15:00 AM 18.6 65.48 0.42 8.72 70.35 6.42
8/14/2022 4:30:00 AM 18.55 65.39 0.422 8.72 69.85 6.41
8/14/2022 4:45:00 AM 18.5 65.3 0.424 8.73 69.28 6.42
8/14/2022 5:00:00 AM 18.45 65.21 0.421 8.74 69.3 6.42
8/14/2022 5:15:00 AM 18.39 65.102 0.424 8.75 68.98 6.4
8/14/2022 5:30:00 AM 18.33 64.994 0.425 8.79 69.49 6.44
8/14/2022 5:45:00 AM 18.26 64.868 0.427 8.79 70.16 6.38
8/14/2022 6:00:00 AM 18.2 64.76 0.428 8.81 70.53 6.45
8/14/2022 6:15:00 AM 18.14 64.652 0.428 8.82 76.03 6.4
8/14/2022 6:30:00 AM 18.09 64.562 0.428 8.83 71.35 6.53
8/14/2022 6:45:00 AM 18.03 64.454 0.428 8.82 71.24 6.54
8/14/2022 7:00:00 AM 17.98 64.364 0.429 8.82 72.04 6.47
8/14/2022 7:15:00 AM 17.93 64.274 0.428 8.81 71.74 6.53
8/14/2022 7:30:00 AM 17.89 64.202 0.428 8.8 70.84 6.6
8/14/2022 7:45:00 AM 17.86 64.148 0.428 8.77 71.53 6.72
8/14/2022 8:00:00 AM 17.84 64.112 0.428 8.74 71.76 6.8
8/14/2022 8:15:00 AM 17.81 64.058 0.428 8.72 72.5 6.96
8/14/2022 8:30:00 AM 17.82 64.076 0.428 8.69 71.42 7.01
8/14/2022 8:45:00 AM 17.83 64.094 0.427 8.65 71.57 7.18
8/14/2022 9:00:00 AM 17.88 64.184 0.426 8.6 73.81 7.42
8/14/2022 9:15:00 AM 17.93 64.274 0.425 8.54 71.36 7.57
8/14/2022 9:30:00 AM 18 64.4 0.425 8.5 70.04 7.76
8/14/2022 9:45:00 AM 18.08 64.544 0.424 8.47 70.88 7.99
8/14/2022 10:00:00 AM 18.17 64.706 0.424 8.43 71.06 8.28
8/14/2022 10:15:00 AM 18.29 64.922 0.421 8.4 70.87 8.59
8/14/2022 10:30:00 AM 18.44 65.192 0.42 8.36 70.13 8.87
8/14/2022 10:45:00 AM 18.58 65.444 0.419 8.33 70.22 9.13
8/14/2022 11:00:00 AM 18.77 65.786 0.418 8.3 72.02 9.49
8/14/2022 11:15:00 AM 18.92 66.056 0.417 8.3 70.73 9.63
8/14/2022 11:30:00 AM 19.13 66.434 0.416 8.31 70.57 9.98
8/14/2022 11:45:00 AM 19.31 66.758 0.415 8.32 71.12 10.25
8/14/2022 12:00:00 PM 19.57 67.226 0.414 8.33 70.73 10.65
8/14/2022 12:15:00 PM 19.83 67.694 0.412 8.35 71.6 11.08
8/14/2022 12:30:00 PM 20.12 68.216 0.41 8.36 69.54 11.29
8/14/2022 12:45:00 PM 20.35 68.63 0.413 8.35 69.41 11.62
8/14/2022 1:00:00 PM 20.68 69.224 0.408 8.37 69.48 11.9
8/14/2022 1:15:00 PM 20.89 69.602 0.408 8.41 71.95 12.2
8/14/2022 1:30:00 PM 21.15 70.07 0.406 8.45 109.9 12.49
8/14/2022 1:45:00 PM 21.25 70.25 0.405 8.49 130.5 12.5
8/14/2022 2:00:00 PM 21.38 70.484 0.407 8.5 141.2 12.68
8/14/2022 2:15:00 PM 21.52 70.736 0.404 8.5 77.32 12.76
8/14/2022 2:30:00 PM 21.61 70.898 0.402 8.53 94.42 12.79
8/14/2022 2:45:00 PM 21.74 71.132 0.399 8.55 69.29 12.82
8/14/2022 3:00:00 PM 21.8 71.24 0.398 8.56 89.41 12.91
8/14/2022 3:15:00 PM 21.77 71.186 0.399 8.55 73.57 12.76
8/14/2022 3:30:00 PM 21.73 71.114 0.398 8.56 68.2 12.56
8/14/2022 3:45:00 PM 21.67 71.006 0.398 8.54 78.33 12.53
8/14/2022 4:00:00 PM 21.66 70.988 0.398 8.53 80.34 12.34
8/14/2022 4:15:00 PM 21.65 70.97 0.397 8.52 80.14 12.22
8/14/2022 4:30:00 PM 21.6 70.88 0.392 8.52 68.77 11.94
8/14/2022 4:45:00 PM 21.51 70.718 0.39 8.51 74.48 11.64
8/14/2022 5:00:00 PM 21.42 70.556 0.396 8.48 66.99 11.27
8/14/2022 5:15:00 PM 21.31 70.358 0.397 8.48 71 10.94
8/14/2022 5:30:00 PM 21.24 70.232 0.397 8.48 66.29 10.67
8/14/2022 5:45:00 PM 21.16 70.088 0.399 8.45 66.67 10.29
8/14/2022 6:00:00 PM 21.1 69.98 0.394 8.41 74.43 10.01
8/14/2022 6:15:00 PM 21.02 69.836 0.398 8.4 65.96 9.74
8/14/2022 6:30:00 PM 20.95 69.71 0.396 8.39 64.36 9.37
8/14/2022 6:45:00 PM 20.87 69.566 0.399 8.37 63.91 9.02
8/14/2022 7:00:00 PM 20.79 69.422 0.399 8.37 65.49 8.73
8/14/2022 7:15:00 PM 20.73 69.314 0.399 8.39 64.76 8.47
8/14/2022 7:30:00 PM 20.67 69.206 0.4 8.37 64.6 8.12
8/14/2022 7:45:00 PM 20.62 69.116 0.399 8.35 65.49 7.88
8/14/2022 8:00:00 PM 20.56 69.008 0.399 8.35 63.88 7.75
8/14/2022 8:15:00 PM 20.5 68.9 0.393 8.37 65.29 7.69
8/14/2022 8:30:00 PM 20.44 68.792 0.4 8.37 64.51 7.44
8/14/2022 8:45:00 PM 20.39 68.702 0.401 8.38 63.47 7.34
8/14/2022 9:00:00 PM 20.33 68.594 0.401 8.36 64.44 7.3
8/14/2022 9:15:00 PM 20.27 68.486 0.4 8.36 64.11 7.18
8/14/2022 9:30:00 PM 20.2 68.36 0.398 8.36 63.69 7.05
8/14/2022 9:45:00 PM 20.14 68.252 0.401 8.37 64.3 6.98
8/14/2022 10:00:00 PM 20.07 68.126 0.4 8.36 65.24 6.86
8/14/2022 10:15:00 PM 20 68 0.399 8.35 64.21 6.78
8/14/2022 10:30:00 PM 19.92 67.856 0.403 8.36 64.64 6.74
8/14/2022 10:45:00 PM 19.85 67.73 0.404 8.37 64.16 6.68
8/14/2022 11:00:00 PM 19.79 67.622 0.4 8.37 65.54 6.52
8/14/2022 11:15:00 PM 19.72 67.496 0.406 8.37 64.5 6.39
8/14/2022 11:30:00 PM 19.65 67.37 0.405 8.38 64.66 6.52
8/14/2022 11:45:00 PM 19.58 67.244 0.408 8.38 65.65 6.41
8/15/2022 12:00:00 AM 19.5 67.1 0.409 8.41 64.96 6.49
8/15/2022 12:15:00 AM 19.43 66.974 0.41 8.41 64.7 6.36
8/15/2022 12:30:00 AM 19.36 66.848 0.407 8.41 65.46 6.4
8/15/2022 12:45:00 AM 19.31 66.758 0.412 8.41 65.67 6.42
8/15/2022 1:00:00 AM 19.24 66.632 0.413 8.39 64.94 6.45
8/15/2022 1:15:00 AM 19.19 66.542 0.414 8.38 65.93 6.45
8/15/2022 1:30:00 AM 19.15 66.47 0.414 8.37 66.22 6.38
8/15/2022 1:45:00 AM 19.09 66.362 0.416 8.36 65.19 6.38
8/15/2022 2:00:00 AM 19.05 66.29 0.416 8.35 65.83 6.34
8/15/2022 2:15:00 AM 19.02 66.236 0.417 8.35 66.32 6.39
8/15/2022 2:30:00 AM 18.99 66.182 0.416 8.34 66.31 6.39
8/15/2022 2:45:00 AM 18.96 66.128 0.418 8.35 65.6 6.38
8/15/2022 3:00:00 AM 18.93 66.074 0.419 8.33 65.72 6.4
8/15/2022 3:15:00 AM 18.9 66.02 0.42 8.35 65.85 6.42
8/15/2022 3:30:00 AM 18.88 65.984 0.419 8.33 66.52 6.4
8/15/2022 3:45:00 AM 18.86 65.948 0.42 8.33 66.41 6.41
8/15/2022 4:00:00 AM 18.84 65.912 0.421 8.34 65.8 6.37
8/15/2022 4:15:00 AM 18.82 65.876 0.422 8.34 65.92 6.41
8/15/2022 4:30:00 AM 18.8 65.84 0.422 8.33 66.29 6.35
8/15/2022 4:45:00 AM 18.77 65.786 0.423 8.33 66.2 6.42
8/15/2022 5:00:00 AM 18.74 65.732 0.423 8.33 66.63 6.34
8/15/2022 5:15:00 AM 18.72 65.696 0.423 8.33 67.2 6.34
8/15/2022 5:30:00 AM 18.69 65.642 0.424 8.32 67.41 6.34
8/15/2022 5:45:00 AM 18.66 65.588 0.423 8.32 68.11 6.31
8/15/2022 6:00:00 AM 18.63 65.534 0.425 8.34 66.53 6.2
8/15/2022 6:15:00 AM 18.59 65.462 0.423 8.32 66.85 6.15
8/15/2022 6:30:00 AM 18.55 65.39 0.426 8.33 66.55 6.15
8/15/2022 6:45:00 AM 18.53 65.354 0.415 8.33 66.89 6.05
8/15/2022 7:00:00 AM 18.5 65.3 0.422 8.33 67.37 6.07
8/15/2022 7:15:00 AM 18.45 65.21 0.423 8.31 84.41 6.13
8/15/2022 7:30:00 AM 18.43 65.174 0.423 8.31 71.43 6.04
8/15/2022 7:45:00 AM 18.39 65.102 0.421 8.28 67.59 6.08
8/15/2022 8:00:00 AM 18.37 65.066 0.422 8.31 67.71 6.14
8/15/2022 8:15:00 AM 18.37 65.066 0.418 8.3 68.32 6.21
8/15/2022 8:30:00 AM 18.35 65.03 0.419 8.3 90.52 6.28
8/15/2022 8:45:00 AM 18.34 65.012 0.45 8.25 69.88 6.33
8/15/2022 9:00:00 AM 18.32 64.976 0.457 8.26 79.81 6.45
8/15/2022 9:15:00 AM 18.31 64.958 0.451 8.24 77.95 6.56
8/15/2022 9:30:00 AM 18.31 64.958 0.453 8.24 89.06 6.82
8/15/2022 9:45:00 AM 18.32 64.976 0.444 8.24 84.99 6.98
8/15/2022 10:00:00 AM 18.33 64.994 0.431 8.27 70.83 7.21
8/15/2022 10:15:00 AM 18.33 64.994 0.431 8.27 71.45 7.33
8/15/2022 10:30:00 AM 18.32 64.976 0.424 8.27 71.63 7.51
8/15/2022 10:45:00 AM 18.34 65.012 0.415 8.28 71.38 7.68
8/15/2022 11:00:00 AM 18.35 65.03 0.416 8.29 71.08 7.9
8/15/2022 11:15:00 AM 18.35 65.03 0.469 8.29 71.65 7.9
8/15/2022 11:30:00 AM 18.36 65.048 0.458 8.27 81.82 7.97
8/15/2022 11:45:00 AM 18.35 65.03 0.437 8.29 89.41 8.09
8/15/2022 12:00:00 PM 18.34 65.012 0.425 8.31 71.22 8.11
8/15/2022 12:15:00 PM 18.35 65.03 0.42 8.31 70.96 8.28
8/15/2022 12:30:00 PM 18.4 65.12 0.436 8.32 71.46 8.36
8/15/2022 12:45:00 PM 18.42 65.156 0.435 8.32 72.62 8.39
8/15/2022 1:00:00 PM 18.42 65.156 0.424 8.32 71.38 8.42
8/15/2022 1:15:00 PM 18.4 65.12 0.419 8.32 71.36 8.47
8/15/2022 1:30:00 PM 18.4 65.12 0.418 8.32 71.51 8.57
8/15/2022 1:45:00 PM 18.39 65.102 0.408 8.34 72.42 8.74
8/15/2022 2:00:00 PM 18.4 65.12 0.402 8.33 72.07 8.74
8/15/2022 2:15:00 PM 18.39 65.102 0.402 8.35 71.7 8.79
8/15/2022 2:30:00 PM 18.39 65.102 0.403 8.37 71.78 8.82
8/15/2022 2:45:00 PM 18.37 65.066 0.399 8.37 71.96 8.73
8/15/2022 3:00:00 PM 18.37 65.066 0.402 8.37 1780 8.74
8/15/2022 3:15:00 PM 18.38 65.084 0.397 8.34 152.6 8.78
8/15/2022 3:30:00 PM 18.41 65.138 0.399 8.35 140.3 8.81
8/15/2022 3:45:00 PM 18.47 65.246 0.392 8.35 138.1 9
8/15/2022 4:00:00 PM 18.55 65.39 0.396 8.33 140.2 9.22
8/15/2022 4:15:00 PM 18.64 65.552 0.387 8.36 141 9.44
8/15/2022 4:30:00 PM 18.73 65.714 0.393 8.36 139.5 9.81
8/15/2022 4:45:00 PM 18.79 65.82201 0.392 8.37 138.8 10.01
8/15/2022 5:00:00 PM 18.82 65.876 0.391 8.39 139.8 10.23
8/15/2022 5:15:00 PM 18.84 65.912 0.39 8.39 139.4 10.4
8/15/2022 5:30:00 PM 18.89 66.002 0.389 8.39 138 10.53
8/15/2022 5:45:00 PM 18.91 66.038 0.388 8.43 139.4 10.54
8/15/2022 6:00:00 PM 18.91 66.038 0.389 8.45 139.3 10.45
8/15/2022 6:15:00 PM 18.89 66.002 0.381 8.45 138.3 10.21
8/15/2022 6:30:00 PM 18.87 65.966 0.386 8.45 137.9 10.12
8/15/2022 6:45:00 PM 18.84 65.912 0.389 8.44 132.4 9.93
8/15/2022 7:00:00 PM 18.81 65.858 0.388 8.44 136 9.65
8/15/2022 7:15:00 PM 18.77 65.786 0.38 8.44 136.7 9.4
8/15/2022 7:30:00 PM 18.71 65.67799 0.391 8.44 137.2 9.22
8/15/2022 7:45:00 PM 18.67 65.606 0.391 8.43 135.6 8.93
8/15/2022 8:00:00 PM 18.64 65.552 0.395 8.41 135.9 8.71
8/15/2022 8:15:00 PM 18.6 65.48 0.391 8.39 139.7 8.46
8/15/2022 8:30:00 PM 18.55 65.39 0.394 8.39 138.5 8.26
8/15/2022 8:45:00 PM 18.51 65.318 0.395 8.4 139.5 8.09
8/15/2022 9:00:00 PM 18.46 65.228 0.395 8.39 140.1 7.89
8/15/2022 9:15:00 PM 18.42 65.156 0.396 8.38 140.1 7.75
8/15/2022 9:30:00 PM 18.39 65.102 0.397 8.38 140.1 7.64
8/15/2022 9:45:00 PM 18.36 65.048 0.398 8.38 139.6 7.53
8/15/2022 10:00:00 PM 18.34 65.012 0.399 8.36 140 7.38
8/15/2022 10:15:00 PM 18.32 64.976 0.4 8.36 139 7.36
8/15/2022 10:30:00 PM 18.3 64.94 0.402 8.36 139.9 7.26
8/15/2022 10:45:00 PM 18.28 64.904 0.403 8.36 147.2 7.16
8/15/2022 11:00:00 PM 18.25 64.85 0.393 8.36 139 7.2
8/15/2022 11:15:00 PM 18.22 64.796 0.406 8.37 139.5 7.12
8/15/2022 11:30:00 PM 18.19 64.742 0.407 8.36 139.3 7.07
8/15/2022 11:45:00 PM 18.16 64.688 0.409 8.36 139.9 7.02
8/16/2022 12:00:00 AM 18.13 64.634 0.41 8.36 138.8 7.04
8/16/2022 12:15:00 AM 18.09 64.562 0.411 8.37 138.7 6.97
8/16/2022 12:30:00 AM 18.06 64.508 0.412 8.36 140.7 6.92
8/16/2022 12:45:00 AM 18.02 64.436 0.408 8.36 141.3 6.9
8/16/2022 1:00:00 AM 17.98 64.364 0.398 8.37 142.2 6.8
8/16/2022 1:15:00 AM 17.94 64.292 0.4 8.36 10.95 6.7
8/16/2022 1:30:00 AM 17.9 64.22 0.417 8.36 15.76 6.77
8/16/2022 1:45:00 AM 17.85 64.13 0.418 8.36 20.88 6.77
8/16/2022 2:00:00 AM 17.82 64.076 0.421 8.36 22.17 6.7
8/16/2022 2:15:00 AM 17.78 64.004 0.422 8.37 25.45 6.64
8/16/2022 2:30:00 AM 17.74 63.932 0.421 8.37 24.79 6.62
8/16/2022 2:45:00 AM 17.7 63.86 0.421 8.37 13.57 6.72
8/16/2022 3:00:00 AM 17.67 63.806 0.413 8.37 12.87 6.73
8/16/2022 3:15:00 AM 17.64 63.752 0.416 8.36 12.77 6.7
8/16/2022 3:30:00 AM 17.6 63.68 0.421 8.36 12.34 6.69
8/16/2022 3:45:00 AM 17.58 63.644 0.415 8.36 12.12 6.68
8/16/2022 4:00:00 AM 17.55 63.59 0.422 8.36 12.58 6.75
8/16/2022 4:15:00 AM 17.52 63.536 0.423 8.36 12.41 6.73
8/16/2022 4:30:00 AM 17.49 63.482 0.421 8.37 12.73 6.74
8/16/2022 4:45:00 AM 17.47 63.446 0.422 8.37 12.1 6.79
8/16/2022 5:00:00 AM 17.44 63.392 0.422 8.38 12.78 6.82
8/16/2022 5:15:00 AM 17.41 63.338 0.422 8.37 12.66 6.76
8/16/2022 5:30:00 AM 17.39 63.302 0.422 8.38 12.47 6.73
8/16/2022 5:45:00 AM 17.36 63.248 0.422 8.38 12.17 6.83
8/16/2022 6:00:00 AM 17.33 63.194 0.422 8.38 13.1 6.83
8/16/2022 6:15:00 AM 17.29 63.122 0.422 8.39 12.72 6.8
8/16/2022 6:30:00 AM 17.26 63.068 0.421 8.41 12.35 6.84
8/16/2022 6:45:00 AM 17.23 63.014 0.418 8.43 12.44 6.8
8/16/2022 7:00:00 AM 17.19 62.942 0.418 8.43 12.99 6.86
8/16/2022 7:15:00 AM 17.17 62.906 0.412 8.42 12.28 6.88
8/16/2022 7:30:00 AM 17.15 62.87 0.413 8.39 12.32 6.96
8/16/2022 7:45:00 AM 17.14 62.852 0.413 8.37 13.26 7.03
8/16/2022 8:00:00 AM 17.14 62.852 0.411 8.36 12.28 7.07
8/16/2022 8:15:00 AM 17.16 62.888 0.412 8.34 12.27 7.28
8/16/2022 8:30:00 AM 17.17 62.906 0.417 8.33 13.05 7.42
8/16/2022 8:45:00 AM 17.2 62.96 0.418 8.32 12.05 7.6
8/16/2022 9:00:00 AM 17.25 63.05 0.41 8.33 12.3 7.84
8/16/2022 9:15:00 AM 17.31 63.158 0.415 8.34 12.2 8.08
8/16/2022 9:30:00 AM 17.39 63.302 0.415 8.33 12.3 8.35
8/16/2022 9:45:00 AM 17.46 63.428 0.415 8.33 12.16 8.68
8/16/2022 10:00:00 AM 17.56 63.608 0.415 8.33 12.66 9
8/16/2022 10:15:00 AM 17.65 63.77 0.413 8.34 12.37 9.25
8/16/2022 10:30:00 AM 17.75 63.95 0.413 8.36 11.73 9.64
8/16/2022 10:45:00 AM 17.87 64.166 0.413 8.36 12.16 9.83
8/16/2022 11:00:00 AM 18 64.4 0.412 8.35 12.05 10.17
8/16/2022 11:15:00 AM 18.13 64.634 0.411 8.36 12.13 10.5
8/16/2022 11:30:00 AM 18.28 64.904 0.407 8.38 12.29 10.71
8/16/2022 11:45:00 AM 18.56 65.408 0.406 8.39 12.34 11.05
8/16/2022 12:00:00 PM 18.8 65.84 0.405 8.4 11.55 11.23
8/16/2022 12:15:00 PM 18.96 66.128 0.405 8.42 12.27 11.38
8/16/2022 12:30:00 PM 19.2 66.56 0.404 8.46 12.81 11.59
8/16/2022 12:45:00 PM 19.5 67.1 0.403 8.47 31.87 11.81
8/16/2022 1:00:00 PM 19.66 67.388 0.403 8.51 17.85 11.94
8/16/2022 1:15:00 PM 19.8 67.64 0.403 8.53 14.27 12.04
8/16/2022 1:30:00 PM 19.93 67.874 0.405 8.55 12.34 12.14
8/16/2022 1:45:00 PM 20.22 68.396 0.403 8.59 13.09 12.24
8/16/2022 2:00:00 PM 20.46 68.828 0.403 8.61 30.8 12.46
8/16/2022 2:15:00 PM 20.65 69.17 0.403 8.63 11.97 12.37
8/16/2022 2:30:00 PM 20.83 69.494 0.402 8.64 15.76 12.45
8/16/2022 2:45:00 PM 21.05 69.89 0.402 8.67 34.82 12.49
8/16/2022 3:00:00 PM 21.31 70.358 0.401 8.68 17.97 12.55
8/16/2022 3:15:00 PM 21.49 70.682 0.399 8.69 17.63 12.58
8/16/2022 3:30:00 PM 21.62 70.916 0.401 8.73 21.64 12.7
8/16/2022 3:45:00 PM 21.79 71.222 0.4 8.74 12.69 12.7
8/16/2022 4:00:00 PM 21.76 71.168 0.401 8.76 39.05 12.52
8/16/2022 4:15:00 PM 21.87 71.366 0.401 8.77 12 12.46
8/16/2022 4:30:00 PM 21.93 71.474 0.399 8.76 69.64 12.35
8/16/2022 4:45:00 PM 21.88 71.384 0.4 8.76 9.24 12.19
8/16/2022 5:00:00 PM 21.83 71.294 0.4 8.76 15.44 12.02
8/16/2022 5:15:00 PM 21.7 71.06 0.4 8.76 9.57 11.75
8/16/2022 5:30:00 PM 21.55 70.79 0.388 8.75 16.3 11.41
8/16/2022 5:45:00 PM 21.4 70.52 0.399 8.74 68.11 11.06
8/16/2022 6:00:00 PM 21.25 70.25 0.39 8.78 31.51 10.64
8/16/2022 6:15:00 PM 21.13 70.034 0.398 8.8 12.34 10.17
8/16/2022 6:30:00 PM 21.02 69.836 0.401 8.77 11.91 9.86
8/16/2022 6:45:00 PM 20.92 69.656 0.401 8.73 11.72 9.33
8/16/2022 7:00:00 PM 20.85 69.53 0.386 8.71 11.83 8.95
8/16/2022 7:15:00 PM 20.73 69.314 0.399 8.69 11.4 8.72
8/16/2022 7:30:00 PM 20.64 69.152 0.404 8.68 10.98 8.48
8/16/2022 7:45:00 PM 20.53 68.954 0.4 8.65 11.4 8.28
8/16/2022 8:00:00 PM 20.44 68.792 0.406 8.64 11.28 8.14
8/16/2022 8:15:00 PM 20.36 68.648 0.404 8.64 11.35 8
8/16/2022 8:30:00 PM 20.3 68.54 0.4 8.63 11.54 7.84
8/16/2022 8:45:00 PM 20.24 68.432 0.399 8.63 11.71 7.63
8/16/2022 9:00:00 PM 20.18 68.324 0.403 8.61 11.67 7.5
8/16/2022 9:15:00 PM 20.12 68.216 0.406 8.61 11.87 7.38
8/16/2022 9:30:00 PM 20.06 68.108 0.396 8.61 11.41 7.22
8/16/2022 9:45:00 PM 20 68 0.403 8.59 12.97 7.21
8/16/2022 10:00:00 PM 19.95 67.91 0.406 8.59 12.1 7.08
8/16/2022 10:15:00 PM 19.89 67.802 0.402 8.58 11.91 7.02
8/16/2022 10:30:00 PM 19.84 67.712 0.407 8.59 11.6 6.95
8/16/2022 10:45:00 PM 19.79 67.622 0.404 8.58 12.09 6.79
8/16/2022 11:00:00 PM 19.73 67.514 0.404 8.57 12.78 6.73
8/16/2022 11:15:00 PM 19.67 67.406 0.395 8.56 11.81 6.72
8/16/2022 11:30:00 PM 19.61 67.298 0.408 8.56 6.91 6.62
8/16/2022 11:45:00 PM 19.54 67.172 0.408 8.56 6.75 6.62
8/17/2022 12:00:00 AM 19.47 67.046 0.407 8.56 6.98 6.58
8/17/2022 12:15:00 AM 19.42 66.956 0.398 8.55 6.62 6.44
8/17/2022 12:30:00 AM 19.35 66.83 0.407 8.54 7.21 6.52
8/17/2022 12:45:00 AM 19.3 66.74 0.41 8.53 7.33 6.43
8/17/2022 1:00:00 AM 19.24 66.632 0.401 8.55 6.59 6.44
8/17/2022 1:15:00 AM 19.19 66.542 0.41 8.54 7.52 6.4
8/17/2022 1:30:00 AM 19.14 66.452 0.41 8.54 7.03 6.37
8/17/2022 1:45:00 AM 19.1 66.38 0.41 8.54 7.95 6.29
8/17/2022 2:00:00 AM 19.05 66.29 0.407 8.53 8.79 6.33
8/17/2022 2:15:00 AM 19.01 66.218 0.406 8.53 8.63 6.21
8/17/2022 2:30:00 AM 18.96 66.128 0.396 8.56 10.67 6.18
8/17/2022 2:45:00 AM 18.9 66.02 0.404 8.56 10.49 6.14
8/17/2022 3:00:00 AM 18.85 65.93 0.403 8.58 9.74 6.1
8/17/2022 3:15:00 AM 18.79 65.82201 0.397 8.58 10.37 6.17
8/17/2022 3:30:00 AM 18.74 65.732 0.403 8.62 9.94 6.07
8/17/2022 3:45:00 AM 18.69 65.642 0.404 8.62 10.34 6.13
8/17/2022 4:00:00 AM 18.64 65.552 0.404 8.62 10.69 6.08
8/17/2022 4:15:00 AM 18.58 65.444 0.405 8.64 10.12 6.04
8/17/2022 4:30:00 AM 18.52 65.336 0.405 8.64 9.77 6.14
8/17/2022 4:45:00 AM 18.47 65.246 0.399 8.64 9.8 6.16
8/17/2022 5:00:00 AM 18.41 65.138 0.405 8.64 9.54 6.17
8/17/2022 5:15:00 AM 18.36 65.048 0.407 8.63 9.09 6.16
8/17/2022 5:30:00 AM 18.33 64.994 0.408 8.63 9.33 6.11
8/17/2022 5:45:00 AM 18.29 64.922 0.408 8.62 8.52 6.16
8/17/2022 6:00:00 AM 18.26 64.868 0.408 8.59 8.34 6.16
8/17/2022 6:15:00 AM 18.23 64.814 0.4 8.58 8.16 6.14
8/17/2022 6:30:00 AM 18.19 64.742 0.409 8.57 7.68 6.16
8/17/2022 6:45:00 AM 18.16 64.688 0.405 8.57 10.37 6.22
8/17/2022 7:00:00 AM 18.13 64.634 0.409 8.56 22.47 6.24
8/17/2022 7:15:00 AM 18.12 64.616 0.407 8.55 8.41 6.34
8/17/2022 7:30:00 AM 18.1 64.58 0.409 8.54 7.98 6.39
8/17/2022 7:45:00 AM 18.09 64.562 0.408 8.52 7.1 6.47
8/17/2022 8:00:00 AM 18.08 64.544 0.408 8.53 7.24 6.58
8/17/2022 8:15:00 AM 18.09 64.562 0.407 8.51 7.87 6.67
8/17/2022 8:30:00 AM 18.1 64.58 0.407 8.5 7.56 6.89
8/17/2022 8:45:00 AM 18.12 64.616 0.392 8.48 7.6 7.04
8/17/2022 9:00:00 AM 18.15 64.67 0.403 8.47 7.21 7.25
8/17/2022 9:15:00 AM 18.15 64.67 0.404 8.46 6.55 7.42
8/17/2022 9:30:00 AM 18.19 64.742 0.404 8.45 7.8 7.65
8/17/2022 9:45:00 AM 18.27 64.886 0.396 8.44 7.08 7.96
8/17/2022 10:00:00 AM 18.41 65.138 0.402 8.42 7.46 8.25
8/17/2022 10:15:00 AM 18.54 65.372 0.398 8.41 6.56 8.6
8/17/2022 10:30:00 AM 18.64 65.552 0.398 8.42 6.69 9.02
8/17/2022 10:45:00 AM 18.74 65.732 0.398 8.44 6.56 9.29
8/17/2022 11:00:00 AM 18.84 65.912 0.397 8.43 6.52 9.58
8/17/2022 11:15:00 AM 18.94 66.092 0.394 8.41 6.5 9.91
8/17/2022 11:30:00 AM 19.09 66.362 0.395 8.41 6.36 10.28
8/17/2022 11:45:00 AM 19.24 66.632 0.394 8.44 6.75 10.59
8/17/2022 12:00:00 PM 19.38 66.884 0.395 8.46 6.86 10.91
8/17/2022 12:15:00 PM 19.54 67.172 0.393 8.47 6.79 11.21
8/17/2022 12:30:00 PM 19.73 67.514 0.388 8.5 6.96 11.44
8/17/2022 12:45:00 PM 19.93 67.874 0.382 8.55 6.53 11.7
8/17/2022 1:00:00 PM 20.1 68.18 0.39 8.58 6.71 11.85
8/17/2022 1:15:00 PM 20.24 68.432 0.388 8.6 8.66 11.99
8/17/2022 1:30:00 PM 20.48 68.864 0.388 8.62 8.39 12.28
8/17/2022 1:45:00 PM 20.58 69.044 0.386 8.65 6.51 12.27
8/17/2022 2:00:00 PM 20.63 69.134 0.388 8.68 17.2 12.23
8/17/2022 2:15:00 PM 20.83 69.494 0.388 8.69 13.66 12.3
8/17/2022 2:30:00 PM 21.09 69.962 0.385 8.7 15.96 12.29
8/17/2022 2:45:00 PM 21.32 70.376 0.375 8.72 9.42 12.4
8/17/2022 3:00:00 PM 21.51 70.718 0.387 8.75 9.05 12.4
8/17/2022 3:15:00 PM 21.68 71.024 0.384 8.76 7.59 12.47
8/17/2022 3:30:00 PM 21.86 71.348 0.376 8.77 9.32 12.44
8/17/2022 3:45:00 PM 22.01 71.618 0.378 8.77 11.75 12.52
8/17/2022 4:00:00 PM 21.99 71.582 0.378 8.79 11.54 12.37
8/17/2022 4:15:00 PM 21.87 71.366 0.379 8.83 6.21 12.15
8/17/2022 4:30:00 PM 21.78 71.204 0.378 8.84 6.42 11.83
8/17/2022 4:45:00 PM 21.68 71.024 0.382 8.84 8.25 11.6
8/17/2022 5:00:00 PM 21.56 70.808 0.381 8.82 8.13 11.08
8/17/2022 5:15:00 PM 21.38 70.484 0.381 8.83 6.9 10.68
8/17/2022 5:30:00 PM 21.26 70.268 0.381 8.87 9.79 10.08
8/17/2022 5:45:00 PM 21.19 70.142 0.376 8.8 9.21 9.28
8/17/2022 6:00:00 PM 21.01 69.818 0.377 8.74 7.66 8.85
8/17/2022 6:15:00 PM 20.84 69.512 0.373 8.7 7.41 8.56
8/17/2022 6:30:00 PM 20.71 69.278 0.386 8.67 39.28 8.21
8/17/2022 6:45:00 PM 20.56 69.008 0.371 8.66 9.22 8.06
8/17/2022 7:00:00 PM 20.48 68.864 0.373 8.66 6.7 7.82
8/17/2022 7:15:00 PM 20.4 68.72 0.367 8.65 7.55 7.73
8/17/2022 7:30:00 PM 20.34 68.612 0.373 8.65 7.13 7.65
8/17/2022 7:45:00 PM 20.29 68.522 0.354 8.64 7.31 7.58
8/17/2022 8:00:00 PM 20.23 68.414 0.379 8.64 7.37 7.48
8/17/2022 8:15:00 PM 20.17 68.306 0.374 8.63 7.24 7.45
8/17/2022 8:30:00 PM 20.11 68.198 0.381 8.63 7.17 7.32
8/17/2022 8:45:00 PM 20.05 68.09 0.383 8.64 8.26 7.22
8/17/2022 9:00:00 PM 20 68 0.382 8.64 7.82 7.17
8/17/2022 9:15:00 PM 19.96 67.92799 0.379 8.64 9.18 7.04
8/17/2022 9:30:00 PM 19.92 67.856 0.387 8.63 8.18 6.94
8/17/2022 9:45:00 PM 19.87 67.766 0.386 8.64 8.63 6.86
8/17/2022 10:00:00 PM 19.82 67.676 0.382 8.63 8.06 6.76
8/17/2022 10:15:00 PM 19.77 67.586 0.389 8.63 8.34 6.75
8/17/2022 10:30:00 PM 19.71 67.478 0.378 8.64 9.33 6.66
8/17/2022 10:45:00 PM 19.63 67.334 0.383 8.66 8.34 6.59
8/17/2022 11:00:00 PM 19.56 67.208 0.39 8.67 8.46 6.41
8/17/2022 11:15:00 PM 19.48 67.064 0.393 8.68 10.38 6.55
8/17/2022 11:30:00 PM 19.4 66.92 0.391 8.68 8.96 6.45
8/17/2022 11:45:00 PM 19.31 66.758 0.4 8.69 8.41 6.43
8/18/2022 12:00:00 AM 19.22 66.596 0.396 8.7 9.94 6.39
8/18/2022 12:15:00 AM 19.13 66.434 0.402 8.71 7.98 6.47
8/18/2022 12:30:00 AM 19.05 66.29 0.392 8.71 9.2 6.37
8/18/2022 12:45:00 AM 18.95 66.11 0.402 8.73 9.36 6.46
8/18/2022 1:00:00 AM 18.88 65.984 0.402 8.73 8.92 6.39
8/18/2022 1:15:00 AM 18.81 65.858 0.406 8.74 9.7 6.42
8/18/2022 1:30:00 AM 18.73 65.714 0.401 8.74 9.01 6.39
8/18/2022 1:45:00 AM 18.66 65.588 0.381 8.74 9.03 6.4
8/18/2022 2:00:00 AM 18.59 65.462 0.395 8.75 8.58 6.39
8/18/2022 2:15:00 AM 18.53 65.354 0.407 8.76 8.47 6.39
8/18/2022 2:30:00 AM 18.46 65.228 0.399 8.76 9.42 6.4
8/18/2022 2:45:00 AM 18.4 65.12 0.407 8.76 8 6.4
8/18/2022 3:00:00 AM 18.34 65.012 0.405 8.78 9.21 6.43
8/18/2022 3:15:00 AM 18.27 64.886 0.409 8.78 8.87 6.41
8/18/2022 3:30:00 AM 18.21 64.778 0.409 8.79 8.34 6.42
8/18/2022 3:45:00 AM 18.15 64.67 0.409 8.8 8.3 6.4
8/18/2022 4:00:00 AM 18.09 64.562 0.409 8.8 8.58 6.43
8/18/2022 4:15:00 AM 18.05 64.49 0.41 8.8 9.06 6.45
8/18/2022 4:30:00 AM 18 64.4 0.403 8.8 8.25 6.4
8/18/2022 4:45:00 AM 17.95 64.31 0.41 8.79 8.13 6.39
8/18/2022 5:00:00 AM 17.89 64.202 0.405 8.79 9.37 6.44
8/18/2022 5:15:00 AM 17.84 64.112 0.405 8.79 10.16 6.42
8/18/2022 5:30:00 AM 17.79 64.022 0.406 8.78 10.3 6.39
8/18/2022 5:45:00 AM 17.73 63.914 0.41 8.79 8.87 6.42
8/18/2022 6:00:00 AM 17.68 63.824 0.41 8.8 8.66 6.43
8/18/2022 6:15:00 AM 17.63 63.734 0.41 8.8 7.97 6.43
8/18/2022 6:30:00 AM 17.57 63.626 0.409 8.8 9.26 6.46
8/18/2022 6:45:00 AM 17.51 63.518 0.409 8.8 8.89 6.49
8/18/2022 7:00:00 AM 17.45 63.41 0.406 8.8 8.4 6.49
8/18/2022 7:15:00 AM 17.39 63.302 0.408 8.8 8.01 6.54
8/18/2022 7:30:00 AM 17.35 63.23 0.411 8.8 8.62 6.48
8/18/2022 7:45:00 AM 17.3 63.14 0.41 8.79 8.13 6.55
8/18/2022 8:00:00 AM 17.27 63.086 0.409 8.78 8.32 6.59
8/18/2022 8:15:00 AM 17.25 63.05 0.408 8.77 8.09 6.76
8/18/2022 8:30:00 AM 17.25 63.05 0.407 8.75 8 6.88
8/18/2022 8:45:00 AM 17.27 63.086 0.394 8.73 7.74 7.05
8/18/2022 9:00:00 AM 17.31 63.158 0.402 8.7 9.49 7.25
8/18/2022 9:15:00 AM 17.37 63.266 0.404 8.66 7.56 7.47
8/18/2022 9:30:00 AM 17.44 63.392 0.404 8.63 8.26 7.74
8/18/2022 9:45:00 AM 17.52 63.536 0.403 8.59 9.83 7.94
8/18/2022 10:00:00 AM 17.62 63.716 0.4 8.57 8.53 8.12
8/18/2022 10:15:00 AM 17.73 63.914 0.392 8.54 9.5 8.41
8/18/2022 10:30:00 AM 17.86 64.148 0.401 8.5 9.08 8.66
8/18/2022 10:45:00 AM 18.02 64.436 0.395 8.47 8.43 8.91
8/18/2022 11:00:00 AM 18.18 64.724 0.401 8.45 8.76 9.1
8/18/2022 11:15:00 AM 18.37 65.066 0.399 8.43 9.21 9.47
8/18/2022 11:30:00 AM 18.56 65.408 0.392 8.4 9.03 9.62
8/18/2022 11:45:00 AM 18.79 65.82201 0.386 8.4 8.69 10.02
8/18/2022 12:00:00 PM 19.04 66.272 0.393 8.35 7.98 10.35
8/18/2022 12:15:00 PM 19.34 66.812 0.387 8.34 7.85 10.56
8/18/2022 12:30:00 PM 19.61 67.298 0.388 8.33 8.3 10.8
8/18/2022 12:45:00 PM 19.91 67.838 0.394 8.35 9.57 11.09
8/18/2022 1:00:00 PM 20.25 68.45 0.394 8.38 11.75 11.3
8/18/2022 1:15:00 PM 20.51 68.918 0.395 8.4 9.81 11.48
8/18/2022 1:30:00 PM 20.77 69.386 0.395 8.43 8.13 11.6
8/18/2022 1:45:00 PM 21.05 69.89 0.395 8.43 15.48 11.71
8/18/2022 2:00:00 PM 21.37 70.466 0.392 8.46 23.44 11.92
8/18/2022 2:15:00 PM 21.57 70.826 0.393 8.34 12.04 12
8/18/2022 2:30:00 PM 21.8 71.24 0.391 8.35 11.48 12.01
8/18/2022 2:45:00 PM 22.06 71.708 0.392 8.52 18.49 12.1
8/18/2022 3:00:00 PM 22.28 72.104 0.387 8.51 14 12.09
8/18/2022 3:15:00 PM 22.47 72.446 0.391 8.54 10.35 12.11
8/18/2022 3:30:00 PM 22.65 72.77 0.39 8.55 9.1 12.18
8/18/2022 3:45:00 PM 22.78 73.004 0.391 8.54 54.6 12.15
8/18/2022 4:00:00 PM 22.86 73.148 0.39 8.55 8.9 12.16
8/18/2022 4:15:00 PM 22.81 73.058 0.388 8.57 19.35 12.05
8/18/2022 4:30:00 PM 22.85 73.13 0.388 8.52 18.14 11.99
8/18/2022 4:45:00 PM 22.81 73.058 0.39 8.52 16.88 11.9
8/18/2022 5:00:00 PM 22.78 73.004 0.387 8.52 7.2 11.65
8/18/2022 5:15:00 PM 22.68 72.824 0.384 8.51 8.42 11.44
8/18/2022 5:30:00 PM 22.58 72.644 0.389 8.49 11.09 11.12
8/18/2022 5:45:00 PM 22.48 72.464 0.393 8.46 13.94 11.03
8/18/2022 6:00:00 PM 22.37 72.266 0.392 8.46 68.86 10.64
8/18/2022 6:15:00 PM 22.2 71.96 0.395 8.47 17.32 10.46
8/18/2022 6:30:00 PM 22.14 71.852 0.394 8.42 10.11 10.25
8/18/2022 6:45:00 PM 21.99 71.582 0.394 8.36 9.51 10.05
8/18/2022 7:00:00 PM 21.91 71.438 0.396 8.51 9.85 9.74
8/18/2022 7:15:00 PM 21.8 71.24 0.397 8.5 9.58 9.53
8/18/2022 7:30:00 PM 21.72 71.096 0.397 8.46 9.29 9.32
8/18/2022 7:45:00 PM 21.65 70.97 0.398 8.44 9.56 9.1
8/18/2022 8:00:00 PM 21.56 70.808 0.399 8.46 9.18 8.87
8/18/2022 8:15:00 PM 21.47 70.646 0.399 8.45 9.16 8.44
8/18/2022 8:30:00 PM 21.37 70.466 0.396 8.46 9.32 8.31
8/18/2022 8:45:00 PM 21.28 70.304 0.397 8.5 8 7.96
8/18/2022 9:00:00 PM 21.17 70.106 0.397 8.51 9.03 7.74
8/18/2022 9:15:00 PM 21.06 69.908 0.403 8.53 9.06 7.46
8/18/2022 9:30:00 PM 20.96 69.728 0.405 8.53 8.66 7.29
8/18/2022 9:45:00 PM 20.84 69.512 0.402 8.53 9.56 7.13
8/18/2022 10:00:00 PM 20.73 69.314 0.407 8.53 8.6 6.95
8/18/2022 10:15:00 PM 20.62 69.116 0.407 8.56 11.75 6.75
8/18/2022 10:30:00 PM 20.52 68.936 0.407 8.51 11.04 6.73
8/18/2022 10:45:00 PM 20.41 68.738 0.409 8.53 17.37 6.67
8/18/2022 11:00:00 PM 20.3 68.54 0.408 8.53 13.01 6.59
8/18/2022 11:15:00 PM 20.21 68.378 0.405 8.53 13.07 6.59
8/18/2022 11:30:00 PM 20.12 68.216 0.412 8.54 12.69 6.51
8/18/2022 11:45:00 PM 20.03 68.054 0.412 8.58 13.71 6.53
8/19/2022 12:00:00 AM 19.95 67.91 0.414 8.58 13.56 6.5
8/19/2022 12:15:00 AM 19.87 67.766 0.407 8.59 9.7 6.49
8/19/2022 12:30:00 AM 19.79 67.622 0.411 8.61 10.59 6.44
8/19/2022 12:45:00 AM 19.71 67.478 0.415 8.62 10.56 6.42
8/19/2022 1:00:00 AM 19.64 67.352 0.416 8.62 10.86 6.39
8/19/2022 1:15:00 AM 19.56 67.208 0.414 8.62 11.37 6.36
8/19/2022 1:30:00 AM 19.47 67.046 0.408 8.64 11.06 6.37
8/19/2022 1:45:00 AM 19.4 66.92 0.417 8.67 11.03 6.31
8/19/2022 2:00:00 AM 19.32 66.776 0.417 8.68 10.54 6.32
8/19/2022 2:15:00 AM 19.25 66.65 0.41 8.7 10.9 6.26
8/19/2022 2:30:00 AM 19.18 66.524 0.417 8.71 10.28 6.26
8/19/2022 2:45:00 AM 19.11 66.398 0.418 8.71 9.97 6.25
8/19/2022 3:00:00 AM 19.03 66.254 0.418 8.72 9.45 6.23
8/19/2022 3:15:00 AM 18.96 66.128 0.418 8.72 9.87 6.25
8/19/2022 3:30:00 AM 18.89 66.002 0.413 8.73 12.25 6.25
8/19/2022 3:45:00 AM 18.82 65.876 0.407 8.73 10.63 6.18
8/19/2022 4:00:00 AM 18.75 65.75 0.418 8.73 9.99 6.2
8/19/2022 4:15:00 AM 18.68 65.624 0.418 8.74 11.59 6.25
8/19/2022 4:30:00 AM 18.61 65.498 0.417 8.75 7.71 6.23
8/19/2022 4:45:00 AM 18.54 65.372 0.418 8.76 7.55 6.27
8/19/2022 5:00:00 AM 18.47 65.246 0.418 8.76 10.29 6.27
8/19/2022 5:15:00 AM 18.41 65.138 0.418 8.76 8.37 6.29
8/19/2022 5:30:00 AM 18.33 64.994 0.417 8.76 8.86 6.22
8/19/2022 5:45:00 AM 18.27 64.886 0.417 8.77 7.5 6.32
8/19/2022 6:00:00 AM 18.2 64.76 0.417 8.77 8.48 6.32
8/19/2022 6:15:00 AM 18.13 64.634 0.416 8.76 8.32 6.28
8/19/2022 6:30:00 AM 18.06 64.508 0.416 8.77 9.22 6.26
8/19/2022 6:45:00 AM 18.01 64.418 0.416 8.8 8.85 6.31
8/19/2022 7:00:00 AM 17.96 64.328 0.415 8.78 8.65 6.33
8/19/2022 7:15:00 AM 17.91 64.238 0.415 8.77 10 6.41
8/19/2022 7:30:00 AM 17.88 64.184 0.414 8.74 9.18 6.43
8/19/2022 7:45:00 AM 17.86 64.148 0.413 8.72 9.15 6.47
8/19/2022 8:00:00 AM 17.84 64.112 0.413 8.7 8.8 6.58
8/19/2022 8:15:00 AM 17.82 64.076 0.412 8.67 9.54 6.64
8/19/2022 8:30:00 AM 17.83 64.094 0.412 8.63 7.18 6.8
8/19/2022 8:45:00 AM 17.87 64.166 0.411 8.56 9.85 7
8/19/2022 9:00:00 AM 17.92 64.256 0.411 8.53 7.46 7.11
8/19/2022 9:15:00 AM 17.98 64.364 0.41 8.48 7.84 7.29
8/19/2022 9:30:00 AM 18.06 64.508 0.41 8.43 7.93 7.59
8/19/2022 9:45:00 AM 18.15 64.67 0.409 8.4 8.2 7.77
8/19/2022 10:00:00 AM 18.25 64.85 0.408 8.36 8.4 8
8/19/2022 10:15:00 AM 18.39 65.102 0.407 8.27 7.6 8.29
8/19/2022 10:30:00 AM 18.52 65.336 0.407 8.24 7.82 8.5
8/19/2022 10:45:00 AM 18.68 65.624 0.406 8.22 7.62 8.69
8/19/2022 11:00:00 AM 18.84 65.912 0.406 8.23 7.91 8.94
8/19/2022 11:15:00 AM 19.03 66.254 0.402 8.21 7.86 9.22
8/19/2022 11:30:00 AM 19.23 66.614 0.399 8.22 7.88 9.54
8/19/2022 11:45:00 AM 19.47 67.046 0.394 8.2 7.45 9.81
8/19/2022 12:00:00 PM 19.71 67.478 0.401 8.2 7.48 10.13
8/19/2022 12:15:00 PM 20 68 0.401 8.24 12 10.46
8/19/2022 12:30:00 PM 20.3 68.54 0.396 8.24 7.79 10.76
8/19/2022 12:45:00 PM 20.67 69.206 0.396 8.27 9.31 11.08
8/19/2022 1:00:00 PM 20.9 69.62 0.398 8.27 9.91 11.13
8/19/2022 1:15:00 PM 21.06 69.908 0.386 8.26 15.05 11.32
8/19/2022 1:30:00 PM 21.15 70.07 0.394 8.25 11.81 11.24
8/19/2022 1:45:00 PM 21.5 70.7 0.386 8.28 9.5 11.5
8/19/2022 2:00:00 PM 21.74 71.132 0.397 8.29 20.73 11.43
8/19/2022 2:15:00 PM 21.98 71.564 0.39 8.39 30.75 11.59
8/19/2022 2:30:00 PM 22.18 71.924 0.395 8.44 9.82 11.62
8/19/2022 2:45:00 PM 22.38 72.284 0.39 8.47 98.49 11.55
8/19/2022 3:00:00 PM 22.62 72.716 0.394 8.49 9.41 11.78
8/19/2022 3:15:00 PM 22.84 73.112 0.392 8.5 64.35 11.9
8/19/2022 3:30:00 PM 23.03 73.454 0.385 8.51 10.14 11.91
8/19/2022 3:45:00 PM 23.18 73.724 0.386 8.53 9.52 11.99
8/19/2022 4:00:00 PM 23.31 73.958 0.387 8.55 18.72 11.97
8/19/2022 4:15:00 PM 23.39 74.102 0.393 8.59 14.79 11.92
8/19/2022 4:30:00 PM 23.45 74.21 0.381 8.56 22.7 11.83
8/19/2022 4:45:00 PM 23.44 74.192 0.381 8.54 29.9 11.73
8/19/2022 5:00:00 PM 23.43 74.174 0.388 8.53 8.59 11.7
8/19/2022 5:15:00 PM 23.38 74.084 0.38 8.56 9.31 11.27
8/19/2022 5:30:00 PM 23.28 73.904 0.391 8.61 9.24 11.21
8/19/2022 5:45:00 PM 23.22 73.796 0.392 8.54 21.88 10.96
8/19/2022 6:00:00 PM 23.13 73.634 0.391 8.54 9.41 10.68
8/19/2022 6:15:00 PM 23.06 73.508 0.393 8.51 12.63 10.34
8/19/2022 6:30:00 PM 22.94 73.292 0.392 8.49 10.66 10.18
8/19/2022 6:45:00 PM 22.79 73.022 0.391 8.54 14.7 9.7
8/19/2022 7:00:00 PM 22.66 72.788 0.397 8.58 10.43 9.27
8/19/2022 7:15:00 PM 22.54 72.57201 0.395 8.57 10.3 9
8/19/2022 7:30:00 PM 22.46 72.42799 0.395 8.5 9.95 8.74
8/19/2022 7:45:00 PM 22.38 72.284 0.396 8.44 10.59 8.31
8/19/2022 8:00:00 PM 22.3 72.14 0.393 8.41 9.61 8.05
8/19/2022 8:15:00 PM 22.22 71.996 0.394 8.39 10.06 7.96
8/19/2022 8:30:00 PM 22.14 71.852 0.396 8.41 9.77 7.7
8/19/2022 8:45:00 PM 22.06 71.708 0.397 8.43 11.15 7.54
8/19/2022 9:00:00 PM 21.97 71.546 0.397 8.45 9.93 7.25
8/19/2022 9:15:00 PM 21.88 71.384 0.397 8.47 9.87 7.09
8/19/2022 9:30:00 PM 21.8 71.24 0.396 8.46 10.24 6.8
8/19/2022 9:45:00 PM 21.71 71.078 0.398 8.46 10.77 6.75
8/19/2022 10:00:00 PM 21.62 70.916 0.389 8.47 10.94 6.52
8/19/2022 10:15:00 PM 21.54 70.772 0.394 8.47 12.05 6.34
8/19/2022 10:30:00 PM 21.46 70.628 0.399 8.46 14.54 6.31
8/19/2022 10:45:00 PM 21.38 70.484 0.401 8.44 11.27 6.29
8/19/2022 11:00:00 PM 21.32 70.376 0.401 8.43 11.36 6.19
8/19/2022 11:15:00 PM 21.25 70.25 0.402 8.41 13.86 6.07
8/19/2022 11:30:00 PM 21.17 70.106 0.403 8.41 11.47 6.15
8/19/2022 11:45:00 PM 21.11 69.998 0.402 8.39 16.78 6.08
8/20/2022 12:00:00 AM 21.05 69.89 0.405 8.39 12.9 6.15
8/20/2022 12:15:00 AM 21 69.8 0.406 8.38 12.9 6
8/20/2022 12:30:00 AM 20.94 69.692 0.407 8.36 10.98 6.07
8/20/2022 12:45:00 AM 20.89 69.602 0.408 8.36 11.54 6.02
8/20/2022 1:00:00 AM 20.82 69.476 0.409 8.38 11.71 5.99
8/20/2022 1:15:00 AM 20.77 69.386 0.41 8.37 14.67 5.91
8/20/2022 1:30:00 AM 20.72 69.296 0.407 8.37 15.52 5.91
8/20/2022 1:45:00 AM 20.66 69.188 0.412 8.38 12.98 5.84
8/20/2022 2:00:00 AM 20.61 69.098 0.412 8.37 14.18 5.81
8/20/2022 2:15:00 AM 20.57 69.026 0.414 8.37 14.3 5.89
8/20/2022 2:30:00 AM 20.52 68.936 0.415 8.37 14.17 5.81
8/20/2022 2:45:00 AM 20.48 68.864 0.416 8.36 15.87 5.87
8/20/2022 3:00:00 AM 20.44 68.792 0.415 8.36 12.69 5.86
8/20/2022 3:15:00 AM 20.4 68.72 0.414 8.36 13.71 5.82
8/20/2022 3:30:00 AM 20.36 68.648 0.415 8.35 10.93 5.77
8/20/2022 3:45:00 AM 20.32 68.576 0.417 8.33 12.63 5.8
8/20/2022 4:00:00 AM 20.29 68.522 0.419 8.34 12.54 5.74
8/20/2022 4:15:00 AM 20.26 68.468 0.419 8.35 14.04 5.77
8/20/2022 4:30:00 AM 20.22 68.396 0.419 8.36 12.27 5.78
8/20/2022 4:45:00 AM 20.17 68.306 0.418 8.38 12.04 5.76
8/20/2022 5:00:00 AM 20.13 68.234 0.42 8.41 15 5.83
8/20/2022 5:15:00 AM 20.09 68.162 0.421 8.41 13.06 5.75
8/20/2022 5:30:00 AM 20.04 68.07201 0.421 8.42 11.84 5.76
8/20/2022 5:45:00 AM 19.99 67.982 0.421 8.44 11.51 5.71
8/20/2022 6:00:00 AM 19.94 67.892 0.413 8.46 11.53 5.79
8/20/2022 6:15:00 AM 19.89 67.802 0.414 8.47 11.85 5.79
8/20/2022 6:30:00 AM 19.83 67.694 0.421 8.48 12.97 5.81
8/20/2022 6:45:00 AM 19.78 67.604 0.421 8.47 14.04 5.73
8/20/2022 7:00:00 AM 19.73 67.514 0.416 8.47 26.05 5.77
8/20/2022 7:15:00 AM 19.71 67.478 0.418 8.44 15.74 5.81
8/20/2022 7:30:00 AM 19.69 67.442 0.421 8.4 16.37 5.86
8/20/2022 7:45:00 AM 19.67 67.406 0.42 8.37 16.98 5.9
8/20/2022 8:00:00 AM 19.65 67.37 0.41 8.35 14.97 5.98
8/20/2022 8:15:00 AM 19.64 67.352 0.417 8.34 12.56 6.03
8/20/2022 8:30:00 AM 19.65 67.37 0.406 8.32 14.91 6.22
8/20/2022 8:45:00 AM 19.66 67.388 0.419 8.3 15.87 6.37
8/20/2022 9:00:00 AM 19.71 67.478 0.412 8.29 14.96 6.51
8/20/2022 9:15:00 AM 19.76 67.568 0.418 8.27 14.07 6.64
8/20/2022 9:30:00 AM 19.85 67.73 0.419 8.26 14.78 6.91
8/20/2022 9:45:00 AM 19.94 67.892 0.417 8.25 15.59 7.15
8/20/2022 10:00:00 AM 20.06 68.108 0.418 8.25 15.46 7.41
8/20/2022 10:15:00 AM 20.19 68.342 0.416 8.26 13.97 7.59
8/20/2022 10:30:00 AM 20.34 68.612 0.414 8.27 12.86 8.01
8/20/2022 10:45:00 AM 20.49 68.882 0.414 8.29 11.86 8.28
8/20/2022 11:00:00 AM 20.66 69.188 0.413 8.3 13.05 8.55
8/20/2022 11:15:00 AM 20.85 69.53 0.408 8.34 11.04 8.85
8/20/2022 11:30:00 AM 21.06 69.908 0.402 8.35 10.23 9.17
8/20/2022 11:45:00 AM 21.24 70.232 0.411 8.39 9.82 9.31
8/20/2022 12:00:00 PM 21.5 70.7 0.41 8.4 10.54 9.82
8/20/2022 12:15:00 PM 21.77 71.186 0.408 8.45 12.23 10.07
8/20/2022 12:30:00 PM 22.04 71.672 0.406 8.48 15.27 10.48
8/20/2022 12:45:00 PM 22.31 72.158 0.403 8.51 15.88 10.61
8/20/2022 1:00:00 PM 22.53 72.554 0.405 8.53 26.94 10.82
8/20/2022 1:15:00 PM 22.71 72.878 0.402 8.57 15.94 11.02
8/20/2022 1:30:00 PM 22.92 73.256 0.398 8.6 16.43 10.97
8/20/2022 1:45:00 PM 23.18 73.724 0.402 8.63 18.5 11.07
8/20/2022 2:00:00 PM 23.4 74.12 0.402 8.65 16.42 11.11
8/20/2022 2:15:00 PM 23.66 74.588 0.393 8.66 17.54 11.24
8/20/2022 2:30:00 PM 23.9 75.02 0.395 8.67 22.85 11.2
8/20/2022 2:45:00 PM 24.03 75.254 0.397 8.72 15.5 11.26
8/20/2022 3:00:00 PM 24.13 75.434 0.397 8.74 25.1 11.26
8/20/2022 3:15:00 PM 24.3 75.74 0.395 8.76 19.27 11.42
8/20/2022 3:30:00 PM 24.41 75.938 0.397 8.78 25.26 11.62
8/20/2022 3:45:00 PM 24.48 76.064 0.392 8.8 30.92 11.51
8/20/2022 4:00:00 PM 24.53 76.154 0.396 8.8 12.9 11.4
8/20/2022 4:15:00 PM 24.61 76.298 0.395 8.81 12.25 11.48
8/20/2022 4:30:00 PM 24.63 76.334 0.391 8.83 28.83 11.26
8/20/2022 4:45:00 PM 24.57 76.226 0.38 8.84 28.91 11.32
8/20/2022 5:00:00 PM 24.55 76.19 0.391 8.84 23.61 11.17
8/20/2022 5:15:00 PM 24.51 76.118 0.398 8.83 12.02 10.97
8/20/2022 5:30:00 PM 24.45 76.01 0.385 8.82 10.69 10.66
8/20/2022 5:45:00 PM 24.35 75.83 0.384 8.81 26.03 10.46
8/20/2022 6:00:00 PM 24.21 75.578 0.39 8.79 14.07 10.35
8/20/2022 6:15:00 PM 24.14 75.452 0.398 8.77 339.4 10.02
8/20/2022 6:30:00 PM 24.04 75.272 0.398 8.76 28.11 9.71
8/20/2022 6:45:00 PM 23.8 74.84 0.399 8.77 31.26 9.51
8/20/2022 7:00:00 PM 23.66 74.588 0.398 8.76 14.91 9.07
8/20/2022 7:15:00 PM 23.53 74.354 0.398 8.75 11.96 8.81
8/20/2022 7:30:00 PM 23.43 74.174 0.398 8.72 23.43 8.36
8/20/2022 7:45:00 PM 23.32 73.976 0.398 8.72 10.71 8.13
8/20/2022 8:00:00 PM 23.22 73.796 0.398 8.69 9.92 7.92
8/20/2022 8:15:00 PM 23.1 73.58 0.399 8.69 8.98 7.71
8/20/2022 8:30:00 PM 23 73.4 0.393 8.68 9.47 7.37
8/20/2022 8:45:00 PM 22.91 73.238 0.399 8.67 9.02 7.2
8/20/2022 9:00:00 PM 22.8 73.04 0.4 8.67 9.31 6.9
8/20/2022 9:15:00 PM 22.7 72.86 0.4 8.68 20.01 6.67
8/20/2022 9:30:00 PM 22.6 72.68 0.4 8.67 13.74 6.48
8/20/2022 9:45:00 PM 22.5 72.5 0.401 8.66 19.03 6.32
8/20/2022 10:00:00 PM 22.4 72.32 0.401 8.65 8.43 6.24
8/20/2022 10:15:00 PM 22.31 72.158 0.402 8.67 9.67 5.98
8/20/2022 10:30:00 PM 22.22 71.996 0.402 8.67 6.94 6.04
8/20/2022 10:45:00 PM 22.14 71.852 0.397 8.67 8.11 5.97
8/20/2022 11:00:00 PM 22.05 71.69 0.403 8.66 36.89 5.86
8/20/2022 11:15:00 PM 21.97 71.546 0.404 8.66 8.25 5.85
8/20/2022 11:30:00 PM 21.88 71.384 0.405 8.66 7.06 5.85
8/20/2022 11:45:00 PM 21.8 71.24 0.405 8.65 7.09 5.72
8/21/2022 12:00:00 AM 21.73 71.114 0.407 8.64 7.64 5.75
8/21/2022 12:15:00 AM 21.65 70.97 0.408 8.64 10.65 5.66
8/21/2022 12:30:00 AM 21.58 70.844 0.408 8.63 6.31 5.63
8/21/2022 12:45:00 AM 21.51 70.718 0.408 8.63 6.95 5.68
8/21/2022 1:00:00 AM 21.45 70.61 0.402 8.63 6.91 5.63
8/21/2022 1:15:00 AM 21.4 70.52 0.411 8.6 7.43 5.56
8/21/2022 1:30:00 AM 21.35 70.43 0.412 8.54 7.65 5.66
8/21/2022 1:45:00 AM 21.31 70.358 0.412 8.51 7.29 5.54
8/21/2022 2:00:00 AM 21.27 70.286 0.41 8.5 7.21 5.57
8/21/2022 2:15:00 AM 21.23 70.214 0.414 8.49 8.36 5.57
8/21/2022 2:30:00 AM 21.19 70.142 0.415 8.48 5.84 5.55
8/21/2022 2:45:00 AM 21.16 70.088 0.417 8.47 6.59 5.52
8/21/2022 3:00:00 AM 21.13 70.034 0.416 8.47 5.19 5.52
8/21/2022 3:15:00 AM 21.1 69.98 0.415 8.47 5.32 5.55
8/21/2022 3:30:00 AM 21.07 69.926 0.415 8.47 5.33 5.53
8/21/2022 3:45:00 AM 21.04 69.872 0.42 8.47 7.19 5.52
8/21/2022 4:00:00 AM 21.01 69.818 0.421 8.48 10.4 5.51
8/21/2022 4:15:00 AM 20.99 69.782 0.421 8.48 5.34 5.46
8/21/2022 4:30:00 AM 20.98 69.764 0.422 8.48 4.85 5.49
8/21/2022 4:45:00 AM 20.96 69.728 0.422 8.48 5.55 5.43
8/21/2022 5:00:00 AM 20.94 69.692 0.423 8.48 4.92 5.52
8/21/2022 5:15:00 AM 20.92 69.656 0.423 8.48 4.74 5.44
8/21/2022 5:30:00 AM 20.9 69.62 0.424 8.47 4.67 5.47
8/21/2022 5:45:00 AM 20.89 69.602 0.423 8.47 4.72 5.45
8/21/2022 6:00:00 AM 20.87 69.566 0.424 8.48 5.43 5.51
8/21/2022 6:15:00 AM 20.84 69.512 0.424 8.48 5.61 5.52
8/21/2022 6:30:00 AM 20.83 69.494 0.422 8.5 5.47 5.48
8/21/2022 6:45:00 AM 20.81 69.458 0.421 8.49 6.04 5.49
8/21/2022 7:00:00 AM 20.79 69.422 0.424 8.5 5.45 5.56
8/21/2022 7:15:00 AM 20.77 69.386 0.414 8.51 7.44 5.52
8/21/2022 7:30:00 AM 20.76 69.368 0.424 8.51 5.09 5.54
8/21/2022 7:45:00 AM 20.75 69.35 0.423 8.5 4.73 5.57
8/21/2022 8:00:00 AM 20.74 69.332 0.423 8.49 5.08 5.6
8/21/2022 8:15:00 AM 20.75 69.35 0.423 8.5 5.22 5.67
8/21/2022 8:30:00 AM 20.75 69.35 0.412 8.5 6.55 5.8
8/21/2022 8:45:00 AM 20.76 69.368 0.414 8.51 8.17 5.92
8/21/2022 9:00:00 AM 20.79 69.422 0.424 8.5 6.12 6.04
8/21/2022 9:15:00 AM 20.83 69.494 0.423 8.5 5.15 6.28
8/21/2022 9:30:00 AM 20.88 69.584 0.421 8.51 5.22 6.52
8/21/2022 9:45:00 AM 20.95 69.71 0.409 8.52 5.15 6.81
8/21/2022 10:00:00 AM 21.06 69.908 0.41 8.53 5.87 7.2
8/21/2022 10:15:00 AM 21.15 70.07 0.414 8.54 7.06 7.38
8/21/2022 10:30:00 AM 21.3 70.34 0.42 8.57 5.4 7.89
8/21/2022 10:45:00 AM 21.36 70.448 0.419 8.58 5.98 8.16
8/21/2022 11:00:00 AM 21.42 70.556 0.418 8.62 6.67 8.42
8/21/2022 11:15:00 AM 21.52 70.736 0.416 8.64 7.07 8.84
8/21/2022 11:30:00 AM 21.64 70.952 0.409 8.67 6.85 9.13
8/21/2022 11:45:00 AM 21.8 71.24 0.404 8.7 6.12 9.55
8/21/2022 12:00:00 PM 21.92 71.456 0.4 8.73 6.61 9.76
8/21/2022 12:15:00 PM 22.04 71.672 0.398 8.76 7.16 9.97
8/21/2022 12:30:00 PM 22.21 71.978 0.412 8.77 9.01 10.26
8/21/2022 12:45:00 PM 22.27 72.086 0.411 8.81 6.47 10.46
8/21/2022 1:00:00 PM 22.24 72.032 0.407 8.83 8.73 10.25
8/21/2022 1:15:00 PM 22.2 71.96 0.403 8.86 9.1 9.97
8/21/2022 1:30:00 PM 22.54 72.57201 0.379 8.92 30.95 9.55
8/21/2022 1:45:00 PM 22.33 72.194 0.393 8.86 33.73 8.78
8/21/2022 2:00:00 PM 22.29 72.122 0.365 8.84 153.1 8.38
8/21/2022 2:15:00 PM 21.86 71.348 0.291 8.81 148.7 7.98
8/21/2022 2:30:00 PM 21.52 70.736 0.281 8.74 150.2 7.65
8/21/2022 2:45:00 PM 21.37 70.466 0.334 8.66 82.57 7.25
8/21/2022 3:00:00 PM 21.35 70.43 0.338 8.68 147.7 7.69
8/21/2022 3:15:00 PM 21.1 69.98 0.345 8.65 165.2 7.75
8/21/2022 3:30:00 PM 21.36 70.448 0.348 8.66 334.5 7.92
8/21/2022 3:45:00 PM 21.44 70.592 0.334 8.65 157.8 7.78
8/21/2022 4:00:00 PM 21.4 70.52 0.307 8.65 2425 7.65
8/21/2022 4:15:00 PM 21.37 70.466 0.278 8.64 102.1 7.37
8/21/2022 4:30:00 PM 21.38 70.484 0.256 8.63 147.9 7.29
8/21/2022 4:45:00 PM 21.37 70.466 0.24 8.6 111.8 7.18
8/21/2022 5:00:00 PM 21.36 70.448 0.228 8.58 235.8 7.05
8/21/2022 5:15:00 PM 21.34 70.412 0.22 8.56 99.07 6.87
8/21/2022 5:30:00 PM 21.31 70.358 0.211 8.54 97.93 6.74
8/21/2022 5:45:00 PM 21.32 70.376 0.2 8.53 103.2 6.77
8/21/2022 6:00:00 PM 21.34 70.412 0.183 8.54 139.2 6.86
8/21/2022 6:15:00 PM 21.45 70.61 0.164 8.56 163.7 6.83
8/21/2022 6:30:00 PM 21.5 70.7 0.171 8.54 165 6.88
8/21/2022 6:45:00 PM 21.39 70.502 0.217 8.52 157.7 7.07
8/21/2022 7:00:00 PM 21.16 70.088 0.252 8.51 117 7.16
8/21/2022 7:15:00 PM 21.13 70.034 0.245 8.52 132.9 6.89
8/21/2022 7:30:00 PM 21.25 70.25 0.228 8.52 177.5 6.53
8/21/2022 7:45:00 PM 21.31 70.358 0.216 8.5 200.2 6.26
8/21/2022 8:00:00 PM 21.3 70.34 0.21 8.48 206.7 6.13
8/21/2022 8:15:00 PM 21.26 70.268 0.208 8.45 214.9 6.09
8/21/2022 8:30:00 PM 21.22 70.196 0.211 8.44 214.4 6.1
8/21/2022 8:45:00 PM 21.19 70.142 0.216 8.43 197.8 6.11
8/21/2022 9:00:00 PM 21.15 70.07 0.222 8.42 199 6.12
8/21/2022 9:15:00 PM 21.13 70.034 0.227 8.41 183.4 6.11
8/21/2022 9:30:00 PM 21.1 69.98 0.231 8.4 159 6.12
8/21/2022 9:45:00 PM 21.08 69.944 0.235 8.4 141.1 6.11
8/21/2022 10:00:00 PM 21.05 69.89 0.239 8.4 128.6 6.18
8/21/2022 10:15:00 PM 21.01 69.818 0.243 8.4 120.4 6.2
8/21/2022 10:30:00 PM 20.96 69.728 0.249 8.4 117.3 6.25
8/21/2022 10:45:00 PM 20.9 69.62 0.254 8.4 110.5 6.27
8/21/2022 11:00:00 PM 20.84 69.512 0.26 8.4 107.7 6.31
8/21/2022 11:15:00 PM 20.77 69.386 0.265 8.41 91.21 6.34
8/21/2022 11:30:00 PM 20.7 69.26 0.27 8.41 93.98 6.36
8/21/2022 11:45:00 PM 20.62 69.116 0.275 8.42 85 6.43
8/22/2022 12:00:00 AM 20.55 68.99 0.279 8.42 85.96 6.42
8/22/2022 12:15:00 AM 20.48 68.864 0.282 8.44 72.07 6.46
8/22/2022 12:30:00 AM 20.41 68.738 0.285 8.43 69.58 6.45
8/22/2022 12:45:00 AM 20.34 68.612 0.287 8.44 69.51 6.47
8/22/2022 1:00:00 AM 20.28 68.504 0.289 8.45 57.57 6.47
8/22/2022 1:15:00 AM 20.22 68.396 0.291 8.45 66.19 6.45
8/22/2022 1:30:00 AM 20.16 68.288 0.292 8.46 54.84 6.5
8/22/2022 1:45:00 AM 20.1 68.18 0.293 8.46 59.39 6.47
8/22/2022 2:00:00 AM 20.1 68.18 0.285 8.47 62.21 6.62
8/22/2022 2:15:00 AM 20.14 68.252 0.313 8.47 70.97 6.72
8/22/2022 2:30:00 AM 20.02 68.036 0.304 8.47 61.12 6.7
8/22/2022 2:45:00 AM 19.9 67.82 0.297 8.47 95.36 6.64
8/22/2022 3:00:00 AM 19.8 67.64 0.293 8.47 85.21 6.66
8/22/2022 3:15:00 AM 19.73 67.514 0.29 8.48 73.63 6.7
8/22/2022 3:30:00 AM 19.66 67.388 0.288 8.48 73.41 6.72
8/22/2022 3:45:00 AM 19.61 67.298 0.285 8.47 680.6 6.75
8/22/2022 4:00:00 AM 19.56 67.208 0.282 8.47 71.49 6.72
8/22/2022 4:15:00 AM 19.52 67.136 0.28 8.46 69.85 6.75
8/22/2022 4:30:00 AM 19.5 67.1 0.277 8.46 69.12 6.67
8/22/2022 4:45:00 AM 19.49 67.082 0.272 8.46 69.6 6.62
8/22/2022 5:00:00 AM 19.48 67.064 0.266 8.46 74.62 6.59
8/22/2022 5:15:00 AM 19.48 67.064 0.26 8.45 77.77 6.58
8/22/2022 5:30:00 AM 19.48 67.064 0.255 8.45 88.04 6.55
8/22/2022 5:45:00 AM 19.48 67.064 0.251 8.44 86.64 6.47
8/22/2022 6:00:00 AM 19.48 67.064 0.248 8.44 95.78 6.42
8/22/2022 6:15:00 AM 19.47 67.046 0.247 8.43 86.11 6.36
8/22/2022 6:30:00 AM 19.45 67.01 0.248 8.42 83.83 6.35
8/22/2022 6:45:00 AM 19.43 66.974 0.248 8.41 84.52 6.35
8/22/2022 7:00:00 AM 19.41 66.938 0.247 8.42 102.5 6.36
8/22/2022 7:15:00 AM 19.41 66.938 0.246 8.42 99.73 6.41
8/22/2022 7:30:00 AM 19.41 66.938 0.247 8.42 93.76 6.43
8/22/2022 7:45:00 AM 19.4 66.92 0.25 8.43 154.7 6.46
8/22/2022 8:00:00 AM 19.39 66.902 0.258 8.41 70.34 6.53
8/22/2022 8:15:00 AM 19.35 66.83 0.268 8.42 78.92 6.59
8/22/2022 8:30:00 AM 19.29 66.722 0.278 8.42 75.54 6.66
8/22/2022 8:45:00 AM 19.23 66.614 0.286 8.43 80.84 6.76
8/22/2022 9:00:00 AM 19.19 66.542 0.292 8.44 71.94 6.82
8/22/2022 9:15:00 AM 19.15 66.47 0.295 8.44 66.08 6.88
8/22/2022 9:30:00 AM 19.14 66.452 0.297 8.45 67.13 6.96
8/22/2022 9:45:00 AM 19.13 66.434 0.298 8.46 67.12 7.01
8/22/2022 10:00:00 AM 19.16 66.488 0.297 8.46 73.65 7.11
8/22/2022 10:15:00 AM 19.2 66.56 0.295 8.46 71.51 7.21
8/22/2022 10:30:00 AM 19.25 66.65 0.293 8.46 76.2 7.28
8/22/2022 10:45:00 AM 19.31 66.758 0.291 8.47 80.32 7.36
8/22/2022 11:00:00 AM 19.38 66.884 0.29 8.48 87 7.4
8/22/2022 11:15:00 AM 19.5 67.1 0.289 8.48 77.72 7.5
8/22/2022 11:30:00 AM 19.57 67.226 0.288 8.48 81.14 7.53
8/22/2022 11:45:00 AM 19.63 67.334 0.288 8.49 84.03 7.57
8/22/2022 12:00:00 PM 19.77 67.586 0.289 8.49 81.78 7.64
8/22/2022 12:15:00 PM 19.93 67.874 0.287 8.49 69.57 7.71
8/22/2022 12:30:00 PM 20.08 68.144 0.291 8.49 68.55 7.8
8/22/2022 12:45:00 PM 20.23 68.414 0.287 8.49 73.59 7.92
8/22/2022 1:00:00 PM 20.24 68.432 0.288 8.49 76.23 7.86
8/22/2022 1:15:00 PM 20.24 68.432 0.286 8.48 71.34 7.82
8/22/2022 1:30:00 PM 20.21 68.378 0.287 8.48 73.95 7.71
8/22/2022 1:45:00 PM 20.15 68.27 0.297 8.47 66.63 7.55
8/22/2022 2:00:00 PM 20.12 68.216 0.296 8.46 67.84 7.43
8/22/2022 2:15:00 PM 20.23 68.414 0.302 8.46 70.5 7.43
8/22/2022 2:30:00 PM 20.36 68.648 0.304 8.45 69.49 7.55
8/22/2022 2:45:00 PM 20.41 68.738 0.307 8.45 70.99 7.54
8/22/2022 3:00:00 PM 20.47 68.846 0.309 8.45 75.69 7.65
8/22/2022 3:15:00 PM 20.49 68.882 0.308 8.45 71.47 7.71
8/22/2022 3:30:00 PM 20.62 69.116 0.314 8.45 74.34 7.81
8/22/2022 3:45:00 PM 20.81 69.458 0.317 8.46 70.14 7.92
8/22/2022 4:00:00 PM 20.88 69.584 0.319 8.47 75.02 7.95
8/22/2022 4:15:00 PM 20.99 69.782 0.321 8.47 72.64 8
8/22/2022 4:30:00 PM 21.04 69.872 0.324 8.48 77.21 7.97
8/22/2022 4:45:00 PM 21.08 69.944 0.326 8.48 73.75 7.97
8/22/2022 5:00:00 PM 21 69.8 0.328 8.49 72.84 7.85
8/22/2022 5:15:00 PM 20.91 69.638 0.33 8.49 74.67 7.7
8/22/2022 5:30:00 PM 20.83 69.494 0.331 8.56 84.01 7.58
8/22/2022 5:45:00 PM 20.83 69.494 0.331 8.53 71.46 7.44
8/22/2022 6:00:00 PM 20.84 69.512 0.336 8.5 76.64 7.42
8/22/2022 6:15:00 PM 20.85 69.53 0.338 8.49 75.47 7.38
8/22/2022 6:30:00 PM 20.82 69.476 0.34 8.48 94.63 7.34
8/22/2022 6:45:00 PM 20.81 69.458 0.341 8.48 83.5 7.26
8/22/2022 7:00:00 PM 20.8 69.44 0.343 8.47 87.64 7.19
8/22/2022 7:15:00 PM 20.79 69.422 0.344 8.47 83.03 7.14
8/22/2022 7:30:00 PM 20.77 69.386 0.347 8.47 84.77 7.07
8/22/2022 7:45:00 PM 20.73 69.314 0.348 8.46 81.53 7
8/22/2022 8:00:00 PM 20.69 69.242 0.35 8.44 81.47 6.94
8/22/2022 8:15:00 PM 20.64 69.152 0.348 8.44 84.38 6.86
8/22/2022 8:30:00 PM 20.58 69.044 0.351 8.44 80.62 6.79
8/22/2022 8:45:00 PM 20.51 68.918 0.353 8.44 81.44 6.71
8/22/2022 9:00:00 PM 20.44 68.792 0.353 8.44 77.72 6.68
8/22/2022 9:15:00 PM 20.37 68.666 0.353 8.44 161.8 6.67
8/22/2022 9:30:00 PM 20.32 68.576 0.358 8.44 90.1 6.6
8/22/2022 9:45:00 PM 20.27 68.486 0.361 8.43 81.69 6.57
8/22/2022 10:00:00 PM 20.23 68.414 0.361 8.43 81.85 6.54
8/22/2022 10:15:00 PM 20.19 68.342 0.361 8.43 80.73 6.56
8/22/2022 10:30:00 PM 20.15 68.27 0.362 8.43 86.22 6.51
8/22/2022 10:45:00 PM 20.11 68.198 0.363 8.43 73.54 6.5
8/22/2022 11:00:00 PM 20.07 68.126 0.365 8.44 79.19 6.48
8/22/2022 11:15:00 PM 20.03 68.054 0.367 8.45 75.67 6.47
8/22/2022 11:30:00 PM 19.97 67.946 0.367 8.45 82.82 6.42
8/22/2022 11:45:00 PM 19.92 67.856 0.368 8.46 78.88 6.45
8/23/2022 12:00:00 AM 19.88 67.784 0.369 8.46 78.82 6.45
8/23/2022 12:15:00 AM 19.82 67.676 0.369 8.47 84.16 6.43
8/23/2022 12:30:00 AM 19.77 67.586 0.369 8.47 85.11 6.42
8/23/2022 12:45:00 AM 19.71 67.478 0.369 8.47 84.12 6.44
8/23/2022 1:00:00 AM 19.66 67.388 0.369 8.48 85.99 6.39
8/23/2022 1:15:00 AM 19.62 67.316 0.37 8.48 90.69 6.47
8/23/2022 1:30:00 AM 19.57 67.226 0.37 8.48 103.3 6.42
8/23/2022 1:45:00 AM 19.52 67.136 0.37 8.48 101.9 6.46
8/23/2022 2:00:00 AM 19.48 67.064 0.372 8.49 156.4 6.44
8/23/2022 2:15:00 AM 19.43 66.974 0.372 8.49 99.01 6.47
8/23/2022 2:30:00 AM 19.38 66.884 0.373 8.5 89.71 6.5
8/23/2022 2:45:00 AM 19.34 66.812 0.373 8.5 97.73 6.48
8/23/2022 3:00:00 AM 19.29 66.722 0.373 8.5 85.98 6.52
8/23/2022 3:15:00 AM 19.24 66.632 0.373 8.49 83.98 6.52
8/23/2022 3:30:00 AM 19.2 66.56 0.373 8.5 87.38 6.56
8/23/2022 3:45:00 AM 19.17 66.506 0.373 8.5 87.67 6.56
8/23/2022 4:00:00 AM 19.14 66.452 0.374 8.51 82.57 6.51
8/23/2022 4:15:00 AM 19.1 66.38 0.374 8.51 90.84 6.56
8/23/2022 4:30:00 AM 19.07 66.326 0.374 8.51 92.24 6.59
8/23/2022 4:45:00 AM 19.05 66.29 0.374 8.5 84.14 6.57
8/23/2022 5:00:00 AM 19.01 66.218 0.374 8.5 83.41 6.57
8/23/2022 5:15:00 AM 18.97 66.146 0.375 8.51 79.12 6.58
8/23/2022 5:30:00 AM 18.93 66.074 0.376 8.51 85.55 6.62
8/23/2022 5:45:00 AM 18.88 65.984 0.376 8.52 87.16 6.64
8/23/2022 6:00:00 AM 18.84 65.912 0.374 8.51 84.38 6.61
8/23/2022 6:15:00 AM 18.79 65.82201 0.368 8.52 78.73 6.66
8/23/2022 6:30:00 AM 18.76 65.768 0.377 8.52 87.48 6.64
8/23/2022 6:45:00 AM 18.71 65.67799 0.363 8.53 84.66 6.68
8/23/2022 7:00:00 AM 18.68 65.624 0.38 8.53 81.98 6.68
8/23/2022 7:15:00 AM 18.66 65.588 0.378 8.54 82.9 6.74
8/23/2022 7:30:00 AM 18.63 65.534 0.38 8.54 85.01 6.75
8/23/2022 7:45:00 AM 18.6 65.48 0.381 8.54 78.84 6.79
8/23/2022 8:00:00 AM 18.6 65.48 0.384 8.53 75.17 6.81
8/23/2022 8:15:00 AM 18.61 65.498 0.383 8.54 79.4 6.96
8/23/2022 8:30:00 AM 18.63 65.534 0.385 8.54 71.55 7.04
8/23/2022 8:45:00 AM 18.64 65.552 0.386 8.55 151 7.12
8/23/2022 9:00:00 AM 18.66 65.588 0.387 8.56 73.44 7.21
8/23/2022 9:15:00 AM 18.7 65.66 0.383 8.56 73.24 7.35
8/23/2022 9:30:00 AM 18.77 65.786 0.382 8.58 69.2 7.52
8/23/2022 9:45:00 AM 18.84 65.912 0.382 8.58 72.27 7.68
8/23/2022 10:00:00 AM 18.89 66.002 0.376 8.59 71.01 7.82
8/23/2022 10:15:00 AM 18.93 66.074 0.368 8.6 73.27 7.9
8/23/2022 10:30:00 AM 19 66.2 0.388 8.62 74.9 8.05
8/23/2022 10:45:00 AM 19.05 66.29 0.39 8.62 75.09 8.16
8/23/2022 11:00:00 AM 19.12 66.416 0.39 8.63 78.36 8.31
8/23/2022 11:15:00 AM 19.23 66.614 0.389 8.64 78.02 8.49
8/23/2022 11:30:00 AM 19.37 66.866 0.389 8.65 79.7 8.6
8/23/2022 11:45:00 AM 19.47 67.046 0.388 8.66 76.98 8.81
8/23/2022 12:00:00 PM 19.65 67.37 0.393 8.67 77.99 8.94
8/23/2022 12:15:00 PM 19.75 67.55 0.392 8.69 80.96 9.05
8/23/2022 12:30:00 PM 19.96 67.92799 0.393 8.7 86.7 9.32
8/23/2022 12:45:00 PM 20.02 68.036 0.394 8.71 84.11 9.3
8/23/2022 1:00:00 PM 20.05 68.09 0.393 8.72 85.06 9.26
8/23/2022 1:15:00 PM 20.18 68.324 0.396 8.72 88.14 9.34
8/23/2022 1:30:00 PM 20.43 68.774 0.395 8.74 88.75 9.44
8/23/2022 1:45:00 PM 20.39 68.702 0.389 8.74 96.55 9.31
8/23/2022 2:00:00 PM 20.46 68.828 0.395 8.76 100 9.41
8/23/2022 2:15:00 PM 20.7 69.26 0.396 8.77 105.4 9.37
8/23/2022 2:30:00 PM 20.96 69.728 0.396 8.78 108.6 9.44
8/23/2022 2:45:00 PM 21.05 69.89 0.389 8.78 115.1 9.6
8/23/2022 3:00:00 PM 21.11 69.998 0.395 8.79 124.8 9.6
8/23/2022 3:15:00 PM 21.27 70.286 0.394 8.8 138.5 9.69
8/23/2022 3:30:00 PM 21.43 70.574 0.384 8.81 138.1 9.71
8/23/2022 3:45:00 PM 21.38 70.484 0.378 8.82 186.7 9.69
8/23/2022 4:00:00 PM 21.38 70.484 0.396 8.83 116.8 9.67
8/23/2022 4:15:00 PM 21.45 70.61 0.394 8.83 135.9 9.65
8/23/2022 4:30:00 PM 21.38 70.484 0.395 8.83 109.2 9.54
8/23/2022 4:45:00 PM 21.24 70.232 0.395 8.84 128.8 9.27
8/23/2022 5:00:00 PM 21.33 70.394 0.393 8.83 118.8 9.04
8/23/2022 5:15:00 PM 21.45 70.61 0.394 8.81 128.6 8.9
8/23/2022 5:30:00 PM 21.51 70.718 0.381 8.81 176.2 8.94
8/23/2022 5:45:00 PM 21.53 70.754 0.376 8.81 101.9 8.88
8/23/2022 6:00:00 PM 21.56 70.808 0.374 8.81 98.54 8.88
8/23/2022 6:15:00 PM 21.55 70.79 0.382 8.82 122.3 8.95
8/23/2022 6:30:00 PM 21.54 70.772 0.398 8.81 101.9 8.86
8/23/2022 6:45:00 PM 21.5 70.7 0.399 8.8 145.7 8.68
8/23/2022 7:00:00 PM 21.45 70.61 0.398 8.8 131.4 8.52
8/23/2022 7:15:00 PM 21.39 70.502 0.397 8.78 139.7 8.24
8/23/2022 7:30:00 PM 21.34 70.412 0.396 8.78 156.1 8.04
8/23/2022 7:45:00 PM 21.28 70.304 0.373 8.77 135.9 7.88
8/23/2022 8:00:00 PM 21.24 70.232 0.393 8.76 148.7 7.68
8/23/2022 8:15:00 PM 21.2 70.16 0.393 8.74 124.5 7.44
8/23/2022 8:30:00 PM 21.17 70.106 0.395 8.73 145.2 7.33
8/23/2022 8:45:00 PM 21.13 70.034 0.39 8.73 120.8 7.21
8/23/2022 9:00:00 PM 21.1 69.98 0.393 8.72 171.9 7.08
8/23/2022 9:15:00 PM 21.07 69.926 0.38 8.72 160 7.02
8/23/2022 9:30:00 PM 21.04 69.872 0.377 8.72 175.1 6.92
8/23/2022 9:45:00 PM 21.01 69.818 0.381 8.71 177.8 6.85
8/23/2022 10:00:00 PM 20.97 69.746 0.38 8.71 180.1 6.82
8/23/2022 10:15:00 PM 20.93 69.674 0.366 8.7 157 6.71
8/23/2022 10:30:00 PM 20.88 69.584 0.38 8.71 155.5 6.68
8/23/2022 10:45:00 PM 20.83 69.494 0.379 8.71 178.8 6.61
8/23/2022 11:00:00 PM 20.77 69.386 0.375 8.71 150.3 6.58
8/23/2022 11:15:00 PM 20.71 69.278 0.357 8.7 192.7 6.48
8/23/2022 11:30:00 PM 20.64 69.152 0.383 8.71 169.3 6.42
8/23/2022 11:45:00 PM 20.56 69.008 0.374 8.71 214.9 6.38
8/24/2022 12:00:00 AM 20.49 68.882 0.384 8.7 287.7 6.38
8/24/2022 12:15:00 AM 20.43 68.774 0.384 8.7 223.9 6.33
8/24/2022 12:30:00 AM 20.37 68.666 0.37 8.7 194.1 6.35
8/24/2022 12:45:00 AM 20.3 68.54 0.383 8.7 206.5 6.33
8/24/2022 1:00:00 AM 20.24 68.432 0.383 8.7 206.2 6.32
8/24/2022 1:15:00 AM 20.19 68.342 0.38 8.7 204.9 6.32
8/24/2022 1:30:00 AM 20.12 68.216 0.37 8.7 180.9 6.33
8/24/2022 1:45:00 AM 20.07 68.126 0.38 8.7 199.9 6.3
8/24/2022 2:00:00 AM 20.01 68.018 0.38 8.71 192 6.3
8/24/2022 2:15:00 AM 19.95 67.91 0.382 8.72 200.3 6.29
8/24/2022 2:30:00 AM 19.88 67.784 0.383 8.72 209 6.31
8/24/2022 2:45:00 AM 19.82 67.676 0.381 8.74 195.1 6.32
8/24/2022 3:00:00 AM 19.75 67.55 0.38 8.75 187 6.33
8/24/2022 3:15:00 AM 19.67 67.406 0.383 8.76 204.5 6.36
8/24/2022 3:30:00 AM 19.6 67.28 0.384 8.77 187.5 6.38
8/24/2022 3:45:00 AM 19.53 67.154 0.384 8.78 173.2 6.4
8/24/2022 4:00:00 AM 19.46 67.028 0.384 8.79 187.2 6.42
8/24/2022 4:15:00 AM 19.38 66.884 0.385 8.8 203 6.44
8/24/2022 4:30:00 AM 19.31 66.758 0.384 8.8 214 6.49
8/24/2022 4:45:00 AM 19.24 66.632 0.383 8.81 209.1 6.47
8/24/2022 5:00:00 AM 19.17 66.506 0.384 8.82 207.9 6.49
8/24/2022 5:15:00 AM 19.1 66.38 0.382 8.82 209.5 6.53
8/24/2022 5:30:00 AM 19.03 66.254 0.383 8.83 214.3 6.54
8/24/2022 5:45:00 AM 18.95 66.11 0.382 8.84 203.1 6.57
8/24/2022 6:00:00 AM 18.88 65.984 0.381 8.84 209.8 6.57
8/24/2022 6:15:00 AM 18.81 65.858 0.378 8.85 210.5 6.6
8/24/2022 6:30:00 AM 18.74 65.732 0.379 8.84 219.2 6.61
8/24/2022 6:45:00 AM 18.68 65.624 0.379 8.85 230.5 6.61
8/24/2022 7:00:00 AM 18.62 65.516 0.378 8.81 207.9 6.66
8/24/2022 7:15:00 AM 18.56 65.408 0.377 8.82 238.6 6.65
8/24/2022 7:30:00 AM 18.52 65.336 0.376 8.8 219.4 6.7
8/24/2022 7:45:00 AM 18.49 65.282 0.376 8.79 199.9 6.75
8/24/2022 8:00:00 AM 18.47 65.246 0.375 8.76 214.5 6.84
8/24/2022 8:15:00 AM 18.46 65.228 0.374 8.73 226.2 6.94
8/24/2022 8:30:00 AM 18.48 65.264 0.374 8.71 221.2 6.98
8/24/2022 8:45:00 AM 18.5 65.3 0.373 8.69 214.4 7.07
8/24/2022 9:00:00 AM 18.55 65.39 0.373 8.66 214.9 7.21
8/24/2022 9:15:00 AM 18.61 65.498 0.37 8.65 298.9 7.39
8/24/2022 9:30:00 AM 18.67 65.606 0.37 8.62 206.1 7.57
8/24/2022 9:45:00 AM 18.75 65.75 0.373 8.6 206.7 7.72
8/24/2022 10:00:00 AM 18.84 65.912 0.369 8.59 210.1 7.86
8/24/2022 10:15:00 AM 18.94 66.092 0.369 8.59 208.6 8.08
8/24/2022 10:30:00 AM 19.06 66.308 0.374 8.57 214.8 8.21
8/24/2022 10:45:00 AM 19.19 66.542 0.375 8.56 216.7 8.42
8/24/2022 11:00:00 AM 19.34 66.812 0.374 8.55 197.6 8.56
8/24/2022 11:15:00 AM 19.5 67.1 0.368 8.56 215.7 8.74
8/24/2022 11:30:00 AM 19.68 67.424 0.366 8.57 221.4 8.9
8/24/2022 11:45:00 AM 19.91 67.838 0.375 8.67 219 9.09
8/24/2022 12:00:00 PM 20.15 68.27 0.379 8.65 213.3 9.34
8/24/2022 12:15:00 PM 20.39 68.702 0.379 8.62 218 9.54
8/24/2022 12:30:00 PM 20.64 69.152 0.369 8.66 218.1 9.71
8/24/2022 12:45:00 PM 20.89 69.602 0.378 8.69 220.7 9.93
8/24/2022 1:00:00 PM 21.11 69.998 0.381 8.7 242.6 10.07
8/24/2022 1:15:00 PM 21.13 70.034 0.376 8.7 213.3 10
8/24/2022 1:30:00 PM 21.32 70.376 0.38 8.72 198.2 10.12
8/24/2022 1:45:00 PM 21.54 70.772 0.386 8.76 232.2 10.24
8/24/2022 2:00:00 PM 21.76 71.168 0.389 8.75 250.5 10.29
8/24/2022 2:15:00 PM 21.95 71.51 0.389 8.73 227 10.16
8/24/2022 2:30:00 PM 22.18 71.924 0.384 8.74 266.3 10.35
8/24/2022 2:45:00 PM 22.22 71.996 0.388 8.75 277.8 10.27
8/24/2022 3:00:00 PM 22.26 72.068 0.383 8.76 224.4 10.38
8/24/2022 3:15:00 PM 22.35 72.23 0.389 8.77 247.1 10.34
8/24/2022 3:30:00 PM 22.5 72.5 0.387 8.78 233 10.41
8/24/2022 3:45:00 PM 22.56 72.608 0.39 8.79 212.1 10.47
8/24/2022 4:00:00 PM 22.63 72.734 0.383 8.79 226.2 10.43
8/24/2022 4:15:00 PM 22.67 72.806 0.391 8.79 298.6 10.42
8/24/2022 4:30:00 PM 22.69 72.842 0.392 8.8 268.4 10.43
8/24/2022 4:45:00 PM 22.65 72.77 0.393 8.81 217.8 10.3
8/24/2022 5:00:00 PM 22.66 72.788 0.391 8.82 215.7 10.27
8/24/2022 5:15:00 PM 22.64 72.752 0.391 8.82 202.6 10.11
8/24/2022 5:30:00 PM 22.51 72.518 0.379 8.82 235.9 9.79
8/24/2022 5:45:00 PM 22.43 72.374 0.39 8.81 214.4 9.64
8/24/2022 6:00:00 PM 22.38 72.284 0.394 8.79 191.7 9.52
8/24/2022 6:15:00 PM 22.33 72.194 0.395 8.77 219.3 9.33
8/24/2022 6:30:00 PM 22.26 72.068 0.381 8.77 218.4 9.01
8/24/2022 6:45:00 PM 22.15 71.87 0.398 8.77 212.7 8.76
8/24/2022 7:00:00 PM 22.07 71.726 0.398 8.76 208 8.49
8/24/2022 7:15:00 PM 21.99 71.582 0.398 8.75 239.3 8.28
8/24/2022 7:30:00 PM 21.93 71.474 0.399 8.74 233.4 8.08
8/24/2022 7:45:00 PM 21.87 71.366 0.388 8.74 228 7.9
8/24/2022 8:00:00 PM 21.79 71.222 0.398 8.73 234.9 7.69
8/24/2022 8:15:00 PM 21.72 71.096 0.401 8.73 212.7 7.53
8/24/2022 8:30:00 PM 21.64 70.952 0.395 8.73 126.7 7.36
8/24/2022 8:45:00 PM 21.56 70.808 0.4 8.73 52.5 7.19
8/24/2022 9:00:00 PM 21.49 70.682 0.401 8.73 54.07 7.08
8/24/2022 9:15:00 PM 21.41 70.538 0.404 8.73 70.24 6.95
8/24/2022 9:30:00 PM 21.33 70.394 0.403 8.73 852.2 6.87
8/24/2022 9:45:00 PM 21.26 70.268 0.398 8.74 95.73 6.8
8/24/2022 10:00:00 PM 21.18 70.124 0.394 8.74 44.92 6.75
8/24/2022 10:15:00 PM 21.09 69.962 0.385 8.74 37.68 6.66
8/24/2022 10:30:00 PM 21.01 69.818 0.404 8.74 44.8 6.69
8/24/2022 10:45:00 PM 20.93 69.674 0.405 8.74 49.89 6.6
8/24/2022 11:00:00 PM 20.86 69.548 0.405 8.76 45.41 6.54
8/24/2022 11:15:00 PM 20.78 69.404 0.405 8.75 35.16 6.57
8/24/2022 11:30:00 PM 20.71 69.278 0.405 8.75 56.5 6.54
8/24/2022 11:45:00 PM 20.64 69.152 0.405 8.75 67.09 6.51
8/25/2022 12:00:00 AM 20.56 69.008 0.405 8.75 51.49 6.49
8/25/2022 12:15:00 AM 20.5 68.9 0.404 8.76 40.3 6.55
8/25/2022 12:30:00 AM 20.43 68.774 0.404 8.77 34.93 6.5
8/25/2022 12:45:00 AM 20.36 68.648 0.398 8.77 27.57 6.47
8/25/2022 1:00:00 AM 20.3 68.54 0.404 8.79 29.39 6.49
8/25/2022 1:15:00 AM 20.23 68.414 0.403 8.78 31.53 6.43
8/25/2022 1:30:00 AM 20.17 68.306 0.404 8.78 28.86 6.4
8/25/2022 1:45:00 AM 20.11 68.198 0.403 8.79 31.87 6.42
8/25/2022 2:00:00 AM 20.05 68.09 0.402 8.79 27.95 6.45
8/25/2022 2:15:00 AM 19.99 67.982 0.403 8.79 28.89 6.45
8/25/2022 2:30:00 AM 19.93 67.874 0.403 8.8 27.53 6.41
8/25/2022 2:45:00 AM 19.87 67.766 0.402 8.81 28.9 6.44
8/25/2022 3:00:00 AM 19.81 67.658 0.402 8.8 20.3 6.45
8/25/2022 3:15:00 AM 19.75 67.55 0.401 8.81 30.73 6.43
8/25/2022 3:30:00 AM 19.69 67.442 0.402 8.82 33.95 6.46
8/25/2022 3:45:00 AM 19.63 67.334 0.401 8.82 32.03 6.44
8/25/2022 4:00:00 AM 19.56 67.208 0.401 8.83 33.76 6.45
8/25/2022 4:15:00 AM 19.5 67.1 0.4 8.84 31.45 6.44
8/25/2022 4:30:00 AM 19.44 66.992 0.399 8.84 93.57 6.47
8/25/2022 4:45:00 AM 19.38 66.884 0.399 8.84 36.29 6.43
8/25/2022 5:00:00 AM 19.31 66.758 0.399 8.84 33.81 6.5
8/25/2022 5:15:00 AM 19.25 66.65 0.398 8.85 32.33 6.5
8/25/2022 5:30:00 AM 19.19 66.542 0.398 8.84 32.42 6.48
8/25/2022 5:45:00 AM 19.12 66.416 0.397 8.85 33.69 6.47
8/25/2022 6:00:00 AM 19.06 66.308 0.396 8.85 36.5 6.5
8/25/2022 6:15:00 AM 19.01 66.218 0.394 8.85 32.36 6.48
8/25/2022 6:30:00 AM 18.95 66.11 0.392 8.83 34.18 6.55
8/25/2022 6:45:00 AM 18.89 66.002 0.394 8.84 361.7 6.57
8/25/2022 7:00:00 AM 18.84 65.912 0.394 8.84 73.16 6.56
8/25/2022 7:15:00 AM 18.79 65.82201 0.392 8.83 44.87 6.6
8/25/2022 7:30:00 AM 18.75 65.75 0.393 8.8 37 6.65
8/25/2022 7:45:00 AM 18.71 65.67799 0.39 8.79 108.2 6.74
8/25/2022 8:00:00 AM 18.69 65.642 0.391 8.77 78.61 6.8
8/25/2022 8:15:00 AM 18.66 65.588 0.391 8.75 40.94 6.91
8/25/2022 8:30:00 AM 18.66 65.588 0.389 8.73 42.48 7.02
8/25/2022 8:45:00 AM 18.67 65.606 0.391 8.71 43.71 7.18
8/25/2022 9:00:00 AM 18.71 65.67799 0.391 8.67 42.62 7.32
8/25/2022 9:15:00 AM 18.75 65.75 0.39 8.65 42.16 7.45
8/25/2022 9:30:00 AM 18.8 65.84 0.39 8.63 42.22 7.65
8/25/2022 9:45:00 AM 18.87 65.966 0.39